<?xml version="1.0" encoding="UTF-8" standalone="no" ?>
<gpx xmlns="http://www.topografix.com/GPX/1/1" xmlns:xsi="http://www.w3.org/2001/XMLSchema-instance" xsi:schemaLocation="http://www.topografix.com/GPX/1/1 http://www.topografix.com/GPX/1/1/gpx.xsd" version="1.1" creator="VisuGPX - https://www.visugpx.com">
  <metadata>
    <name>St Moré - Vézelay (sur le G R 654)</name>
    <desc><![CDATA[Lors de la 51ème randonnée Auxerre Vézelay organisée par le CAF d'Auxerre 1500 participants Quand même ce tronçon de 18km et de 400m de montée nous emmène sur les contreforts du Morvan et au pied de la basilique de Vézelay,c'est une des voies de Compostelle.]]></desc>
  </metadata>
  <trk>
    <name><![CDATA[Tracé actuel: 17 AVR 2022 10:36]]></name>
    <extensions>
      <line xmlns="http://www.topografix.com/GPX/gpx_style/0/2">
        <color>0000FF</color>
        <width>4</width>
      </line>
    </extensions>
    <trkseg>
      <trkpt lat="47.57776" lon="3.77787">
        <ele>121.26</ele>
        <time>2022-04-17T08:36:00Z</time>
      </trkpt>
      <trkpt lat="47.57776" lon="3.77788">
        <ele>124.63</ele>
        <time>2022-04-17T08:36:02Z</time>
      </trkpt>
      <trkpt lat="47.57776" lon="3.77787">
        <ele>126.55</ele>
        <time>2022-04-17T08:36:05Z</time>
      </trkpt>
      <trkpt lat="47.57775" lon="3.77788">
        <ele>128.95</ele>
        <time>2022-04-17T08:36:11Z</time>
      </trkpt>
      <trkpt lat="47.57775" lon="3.77785">
        <ele>134.24</ele>
        <time>2022-04-17T08:36:19Z</time>
      </trkpt>
      <trkpt lat="47.57774" lon="3.77785">
        <ele>133.76</ele>
        <time>2022-04-17T08:36:20Z</time>
      </trkpt>
      <trkpt lat="47.57775" lon="3.77784">
        <ele>131.84</ele>
        <time>2022-04-17T08:36:23Z</time>
      </trkpt>
      <trkpt lat="47.57775" lon="3.77787">
        <ele>133.28</ele>
        <time>2022-04-17T08:36:36Z</time>
      </trkpt>
      <trkpt lat="47.57772" lon="3.77776">
        <ele>133.28</ele>
        <time>2022-04-17T08:36:45Z</time>
      </trkpt>
      <trkpt lat="47.57767" lon="3.77774">
        <ele>133.76</ele>
        <time>2022-04-17T08:36:51Z</time>
      </trkpt>
      <trkpt lat="47.57757" lon="3.77774">
        <ele>133.76</ele>
        <time>2022-04-17T08:37:01Z</time>
      </trkpt>
      <trkpt lat="47.57748" lon="3.77776">
        <ele>133.76</ele>
        <time>2022-04-17T08:37:08Z</time>
      </trkpt>
      <trkpt lat="47.57745" lon="3.77776">
        <ele>133.76</ele>
        <time>2022-04-17T08:37:10Z</time>
      </trkpt>
      <trkpt lat="47.57723" lon="3.77778">
        <ele>133.76</ele>
        <time>2022-04-17T08:37:27Z</time>
      </trkpt>
      <trkpt lat="47.57716" lon="3.77778">
        <ele>134.24</ele>
        <time>2022-04-17T08:37:40Z</time>
      </trkpt>
      <trkpt lat="47.57714" lon="3.77778">
        <ele>133.76</ele>
        <time>2022-04-17T08:37:48Z</time>
      </trkpt>
      <trkpt lat="47.5771" lon="3.7778">
        <ele>133.76</ele>
        <time>2022-04-17T08:37:51Z</time>
      </trkpt>
      <trkpt lat="47.5769" lon="3.77786">
        <ele>134.72</ele>
        <time>2022-04-17T08:38:07Z</time>
      </trkpt>
      <trkpt lat="47.57674" lon="3.7778">
        <ele>134.72</ele>
        <time>2022-04-17T08:38:21Z</time>
      </trkpt>
      <trkpt lat="47.57672" lon="3.77779">
        <ele>135.2</ele>
        <time>2022-04-17T08:38:22Z</time>
      </trkpt>
      <trkpt lat="47.57666" lon="3.77777">
        <ele>134.72</ele>
        <time>2022-04-17T08:38:26Z</time>
      </trkpt>
      <trkpt lat="47.5766" lon="3.77769">
        <ele>135.2</ele>
        <time>2022-04-17T08:38:35Z</time>
      </trkpt>
      <trkpt lat="47.57652" lon="3.77763">
        <ele>135.2</ele>
        <time>2022-04-17T08:38:42Z</time>
      </trkpt>
      <trkpt lat="47.57649" lon="3.77758">
        <ele>135.68</ele>
        <time>2022-04-17T08:38:45Z</time>
      </trkpt>
      <trkpt lat="47.5764" lon="3.77745">
        <ele>135.2</ele>
        <time>2022-04-17T08:38:58Z</time>
      </trkpt>
      <trkpt lat="47.57635" lon="3.77741">
        <ele>135.68</ele>
        <time>2022-04-17T08:39:02Z</time>
      </trkpt>
      <trkpt lat="47.57624" lon="3.77727">
        <ele>136.16</ele>
        <time>2022-04-17T08:39:12Z</time>
      </trkpt>
      <trkpt lat="47.57623" lon="3.7771">
        <ele>135.68</ele>
        <time>2022-04-17T08:39:20Z</time>
      </trkpt>
      <trkpt lat="47.57627" lon="3.77697">
        <ele>136.16</ele>
        <time>2022-04-17T08:39:27Z</time>
      </trkpt>
      <trkpt lat="47.57629" lon="3.7769">
        <ele>136.16</ele>
        <time>2022-04-17T08:39:31Z</time>
      </trkpt>
      <trkpt lat="47.57638" lon="3.77669">
        <ele>136.16</ele>
        <time>2022-04-17T08:39:43Z</time>
      </trkpt>
      <trkpt lat="47.57645" lon="3.77658">
        <ele>136.64</ele>
        <time>2022-04-17T08:39:50Z</time>
      </trkpt>
      <trkpt lat="47.5765" lon="3.77644">
        <ele>136.16</ele>
        <time>2022-04-17T08:39:57Z</time>
      </trkpt>
      <trkpt lat="47.5766" lon="3.77624">
        <ele>136.16</ele>
        <time>2022-04-17T08:40:08Z</time>
      </trkpt>
      <trkpt lat="47.57665" lon="3.77615">
        <ele>136.64</ele>
        <time>2022-04-17T08:40:15Z</time>
      </trkpt>
      <trkpt lat="47.57666" lon="3.77612">
        <ele>136.64</ele>
        <time>2022-04-17T08:40:17Z</time>
      </trkpt>
      <trkpt lat="47.57669" lon="3.77602">
        <ele>136.64</ele>
        <time>2022-04-17T08:40:23Z</time>
      </trkpt>
      <trkpt lat="47.57673" lon="3.77596">
        <ele>137.13</ele>
        <time>2022-04-17T08:40:27Z</time>
      </trkpt>
      <trkpt lat="47.57681" lon="3.7758">
        <ele>137.13</ele>
        <time>2022-04-17T08:40:37Z</time>
      </trkpt>
      <trkpt lat="47.57682" lon="3.77573">
        <ele>137.13</ele>
        <time>2022-04-17T08:40:41Z</time>
      </trkpt>
      <trkpt lat="47.5768" lon="3.77567">
        <ele>137.13</ele>
        <time>2022-04-17T08:40:48Z</time>
      </trkpt>
      <trkpt lat="47.57677" lon="3.77566">
        <ele>137.13</ele>
        <time>2022-04-17T08:40:50Z</time>
      </trkpt>
      <trkpt lat="47.57672" lon="3.77565">
        <ele>137.13</ele>
        <time>2022-04-17T08:40:54Z</time>
      </trkpt>
      <trkpt lat="47.57658" lon="3.77572">
        <ele>136.64</ele>
        <time>2022-04-17T08:41:06Z</time>
      </trkpt>
      <trkpt lat="47.57639" lon="3.77576">
        <ele>136.16</ele>
        <time>2022-04-17T08:41:21Z</time>
      </trkpt>
      <trkpt lat="47.57625" lon="3.77575">
        <ele>136.16</ele>
        <time>2022-04-17T08:41:30Z</time>
      </trkpt>
      <trkpt lat="47.57613" lon="3.77575">
        <ele>136.16</ele>
        <time>2022-04-17T08:41:39Z</time>
      </trkpt>
      <trkpt lat="47.57593" lon="3.77575">
        <ele>136.16</ele>
        <time>2022-04-17T08:41:55Z</time>
      </trkpt>
      <trkpt lat="47.57588" lon="3.77574">
        <ele>136.16</ele>
        <time>2022-04-17T08:41:59Z</time>
      </trkpt>
      <trkpt lat="47.57569" lon="3.77576">
        <ele>136.64</ele>
        <time>2022-04-17T08:42:13Z</time>
      </trkpt>
      <trkpt lat="47.57548" lon="3.77576">
        <ele>137.13</ele>
        <time>2022-04-17T08:42:27Z</time>
      </trkpt>
      <trkpt lat="47.57545" lon="3.77576">
        <ele>136.64</ele>
        <time>2022-04-17T08:42:30Z</time>
      </trkpt>
      <trkpt lat="47.57538" lon="3.77577">
        <ele>137.13</ele>
        <time>2022-04-17T08:42:35Z</time>
      </trkpt>
      <trkpt lat="47.57531" lon="3.77577">
        <ele>136.64</ele>
        <time>2022-04-17T08:42:40Z</time>
      </trkpt>
      <trkpt lat="47.57528" lon="3.77578">
        <ele>136.64</ele>
        <time>2022-04-17T08:42:43Z</time>
      </trkpt>
      <trkpt lat="47.5752" lon="3.7758">
        <ele>137.61</ele>
        <time>2022-04-17T08:42:49Z</time>
      </trkpt>
      <trkpt lat="47.57507" lon="3.77582">
        <ele>137.13</ele>
        <time>2022-04-17T08:42:59Z</time>
      </trkpt>
      <trkpt lat="47.57491" lon="3.77586">
        <ele>137.61</ele>
        <time>2022-04-17T08:43:11Z</time>
      </trkpt>
      <trkpt lat="47.5747" lon="3.77592">
        <ele>138.57</ele>
        <time>2022-04-17T08:43:26Z</time>
      </trkpt>
      <trkpt lat="47.57464" lon="3.77595">
        <ele>138.57</ele>
        <time>2022-04-17T08:43:32Z</time>
      </trkpt>
      <trkpt lat="47.57451" lon="3.77596">
        <ele>138.57</ele>
        <time>2022-04-17T08:43:41Z</time>
      </trkpt>
      <trkpt lat="47.57439" lon="3.776">
        <ele>139.05</ele>
        <time>2022-04-17T08:43:49Z</time>
      </trkpt>
      <trkpt lat="47.5742" lon="3.7761">
        <ele>139.53</ele>
        <time>2022-04-17T08:44:05Z</time>
      </trkpt>
      <trkpt lat="47.57418" lon="3.77613">
        <ele>139.05</ele>
        <time>2022-04-17T08:44:07Z</time>
      </trkpt>
      <trkpt lat="47.574" lon="3.7762">
        <ele>140.01</ele>
        <time>2022-04-17T08:44:20Z</time>
      </trkpt>
      <trkpt lat="47.57389" lon="3.77626">
        <ele>140.01</ele>
        <time>2022-04-17T08:44:30Z</time>
      </trkpt>
      <trkpt lat="47.57379" lon="3.77632">
        <ele>140.49</ele>
        <time>2022-04-17T08:44:38Z</time>
      </trkpt>
      <trkpt lat="47.57359" lon="3.77644">
        <ele>140.97</ele>
        <time>2022-04-17T08:44:53Z</time>
      </trkpt>
      <trkpt lat="47.57343" lon="3.77654">
        <ele>140.97</ele>
        <time>2022-04-17T08:45:07Z</time>
      </trkpt>
      <trkpt lat="47.57338" lon="3.77657">
        <ele>141.45</ele>
        <time>2022-04-17T08:45:11Z</time>
      </trkpt>
      <trkpt lat="47.57323" lon="3.77669">
        <ele>141.45</ele>
        <time>2022-04-17T08:45:23Z</time>
      </trkpt>
      <trkpt lat="47.57312" lon="3.77679">
        <ele>141.93</ele>
        <time>2022-04-17T08:45:34Z</time>
      </trkpt>
      <trkpt lat="47.57294" lon="3.77688">
        <ele>142.41</ele>
        <time>2022-04-17T08:45:47Z</time>
      </trkpt>
      <trkpt lat="47.57282" lon="3.77697">
        <ele>142.89</ele>
        <time>2022-04-17T08:45:57Z</time>
      </trkpt>
      <trkpt lat="47.57278" lon="3.77699">
        <ele>143.37</ele>
        <time>2022-04-17T08:46:00Z</time>
      </trkpt>
      <trkpt lat="47.57274" lon="3.77701">
        <ele>143.37</ele>
        <time>2022-04-17T08:46:03Z</time>
      </trkpt>
      <trkpt lat="47.57272" lon="3.77705">
        <ele>143.37</ele>
        <time>2022-04-17T08:46:06Z</time>
      </trkpt>
      <trkpt lat="47.57268" lon="3.77706">
        <ele>143.85</ele>
        <time>2022-04-17T08:46:09Z</time>
      </trkpt>
      <trkpt lat="47.57266" lon="3.77708">
        <ele>143.85</ele>
        <time>2022-04-17T08:46:11Z</time>
      </trkpt>
      <trkpt lat="47.57251" lon="3.77718">
        <ele>144.34</ele>
        <time>2022-04-17T08:46:23Z</time>
      </trkpt>
      <trkpt lat="47.57235" lon="3.77734">
        <ele>145.78</ele>
        <time>2022-04-17T08:46:37Z</time>
      </trkpt>
      <trkpt lat="47.57223" lon="3.77745">
        <ele>146.74</ele>
        <time>2022-04-17T08:46:48Z</time>
      </trkpt>
      <trkpt lat="47.57222" lon="3.77747">
        <ele>147.22</ele>
        <time>2022-04-17T08:46:50Z</time>
      </trkpt>
      <trkpt lat="47.57213" lon="3.77753">
        <ele>147.22</ele>
        <time>2022-04-17T08:46:56Z</time>
      </trkpt>
      <trkpt lat="47.57199" lon="3.77759">
        <ele>148.66</ele>
        <time>2022-04-17T08:47:08Z</time>
      </trkpt>
      <trkpt lat="47.57183" lon="3.77746">
        <ele>149.62</ele>
        <time>2022-04-17T08:47:23Z</time>
      </trkpt>
      <trkpt lat="47.57174" lon="3.77731">
        <ele>150.58</ele>
        <time>2022-04-17T08:47:34Z</time>
      </trkpt>
      <trkpt lat="47.57162" lon="3.77709">
        <ele>151.54</ele>
        <time>2022-04-17T08:47:49Z</time>
      </trkpt>
      <trkpt lat="47.57162" lon="3.77708">
        <ele>151.54</ele>
        <time>2022-04-17T08:47:50Z</time>
      </trkpt>
      <trkpt lat="47.57159" lon="3.77702">
        <ele>152.03</ele>
        <time>2022-04-17T08:47:54Z</time>
      </trkpt>
      <trkpt lat="47.5715" lon="3.77689">
        <ele>152.51</ele>
        <time>2022-04-17T08:48:01Z</time>
      </trkpt>
      <trkpt lat="47.5714" lon="3.77676">
        <ele>153.95</ele>
        <time>2022-04-17T08:48:15Z</time>
      </trkpt>
      <trkpt lat="47.57134" lon="3.77672">
        <ele>155.39</ele>
        <time>2022-04-17T08:48:22Z</time>
      </trkpt>
      <trkpt lat="47.57131" lon="3.7767">
        <ele>155.87</ele>
        <time>2022-04-17T08:48:25Z</time>
      </trkpt>
      <trkpt lat="47.57128" lon="3.77666">
        <ele>156.35</ele>
        <time>2022-04-17T08:48:28Z</time>
      </trkpt>
      <trkpt lat="47.57117" lon="3.77654">
        <ele>158.27</ele>
        <time>2022-04-17T08:48:40Z</time>
      </trkpt>
      <trkpt lat="47.57111" lon="3.77642">
        <ele>159.72</ele>
        <time>2022-04-17T08:48:48Z</time>
      </trkpt>
      <trkpt lat="47.57105" lon="3.77627">
        <ele>161.16</ele>
        <time>2022-04-17T08:49:01Z</time>
      </trkpt>
      <trkpt lat="47.57096" lon="3.77626">
        <ele>163.56</ele>
        <time>2022-04-17T08:49:15Z</time>
      </trkpt>
      <trkpt lat="47.57093" lon="3.77626">
        <ele>164.52</ele>
        <time>2022-04-17T08:49:20Z</time>
      </trkpt>
      <trkpt lat="47.57079" lon="3.77629">
        <ele>165.96</ele>
        <time>2022-04-17T08:49:31Z</time>
      </trkpt>
      <trkpt lat="47.57068" lon="3.77631">
        <ele>167.89</ele>
        <time>2022-04-17T08:49:43Z</time>
      </trkpt>
      <trkpt lat="47.57061" lon="3.77633">
        <ele>169.33</ele>
        <time>2022-04-17T08:49:53Z</time>
      </trkpt>
      <trkpt lat="47.57059" lon="3.77634">
        <ele>169.33</ele>
        <time>2022-04-17T08:49:55Z</time>
      </trkpt>
      <trkpt lat="47.57047" lon="3.77635">
        <ele>171.73</ele>
        <time>2022-04-17T08:50:07Z</time>
      </trkpt>
      <trkpt lat="47.57037" lon="3.77636">
        <ele>172.69</ele>
        <time>2022-04-17T08:50:17Z</time>
      </trkpt>
      <trkpt lat="47.57035" lon="3.77637">
        <ele>173.17</ele>
        <time>2022-04-17T08:50:19Z</time>
      </trkpt>
      <trkpt lat="47.57028" lon="3.7764">
        <ele>174.14</ele>
        <time>2022-04-17T08:50:25Z</time>
      </trkpt>
      <trkpt lat="47.57026" lon="3.77641">
        <ele>174.62</ele>
        <time>2022-04-17T08:50:27Z</time>
      </trkpt>
      <trkpt lat="47.57019" lon="3.77639">
        <ele>176.06</ele>
        <time>2022-04-17T08:50:33Z</time>
      </trkpt>
      <trkpt lat="47.57015" lon="3.77637">
        <ele>176.54</ele>
        <time>2022-04-17T08:50:36Z</time>
      </trkpt>
      <trkpt lat="47.57005" lon="3.77622">
        <ele>178.46</ele>
        <time>2022-04-17T08:50:48Z</time>
      </trkpt>
      <trkpt lat="47.57004" lon="3.77619">
        <ele>178.46</ele>
        <time>2022-04-17T08:50:51Z</time>
      </trkpt>
      <trkpt lat="47.56998" lon="3.77605">
        <ele>179.9</ele>
        <time>2022-04-17T08:51:02Z</time>
      </trkpt>
      <trkpt lat="47.56995" lon="3.77586">
        <ele>182.31</ele>
        <time>2022-04-17T08:51:16Z</time>
      </trkpt>
      <trkpt lat="47.56995" lon="3.77584">
        <ele>182.79</ele>
        <time>2022-04-17T08:51:17Z</time>
      </trkpt>
      <trkpt lat="47.56994" lon="3.77576">
        <ele>182.79</ele>
        <time>2022-04-17T08:51:22Z</time>
      </trkpt>
      <trkpt lat="47.56996" lon="3.77557">
        <ele>185.19</ele>
        <time>2022-04-17T08:51:34Z</time>
      </trkpt>
      <trkpt lat="47.56996" lon="3.77555">
        <ele>185.67</ele>
        <time>2022-04-17T08:51:36Z</time>
      </trkpt>
      <trkpt lat="47.56998" lon="3.77544">
        <ele>185.67</ele>
        <time>2022-04-17T08:51:44Z</time>
      </trkpt>
      <trkpt lat="47.56998" lon="3.77541">
        <ele>186.63</ele>
        <time>2022-04-17T08:51:46Z</time>
      </trkpt>
      <trkpt lat="47.56998" lon="3.77523">
        <ele>187.11</ele>
        <time>2022-04-17T08:51:58Z</time>
      </trkpt>
      <trkpt lat="47.56998" lon="3.77517">
        <ele>188.08</ele>
        <time>2022-04-17T08:52:02Z</time>
      </trkpt>
      <trkpt lat="47.56999" lon="3.77502">
        <ele>189.04</ele>
        <time>2022-04-17T08:52:13Z</time>
      </trkpt>
      <trkpt lat="47.56999" lon="3.77498">
        <ele>189.04</ele>
        <time>2022-04-17T08:52:15Z</time>
      </trkpt>
      <trkpt lat="47.56999" lon="3.77492">
        <ele>190</ele>
        <time>2022-04-17T08:52:19Z</time>
      </trkpt>
      <trkpt lat="47.56997" lon="3.77481">
        <ele>190.96</ele>
        <time>2022-04-17T08:52:26Z</time>
      </trkpt>
      <trkpt lat="47.56997" lon="3.77477">
        <ele>190.96</ele>
        <time>2022-04-17T08:52:27Z</time>
      </trkpt>
      <trkpt lat="47.56996" lon="3.77467">
        <ele>191.92</ele>
        <time>2022-04-17T08:52:33Z</time>
      </trkpt>
      <trkpt lat="47.56995" lon="3.77463">
        <ele>191.92</ele>
        <time>2022-04-17T08:52:36Z</time>
      </trkpt>
      <trkpt lat="47.56992" lon="3.77457">
        <ele>192.4</ele>
        <time>2022-04-17T08:52:40Z</time>
      </trkpt>
      <trkpt lat="47.56992" lon="3.77454">
        <ele>192.4</ele>
        <time>2022-04-17T08:52:41Z</time>
      </trkpt>
      <trkpt lat="47.56989" lon="3.7745">
        <ele>193.84</ele>
        <time>2022-04-17T08:52:45Z</time>
      </trkpt>
      <trkpt lat="47.56988" lon="3.7743">
        <ele>195.28</ele>
        <time>2022-04-17T08:52:56Z</time>
      </trkpt>
      <trkpt lat="47.56988" lon="3.7743">
        <ele>195.28</ele>
        <time>2022-04-17T08:52:57Z</time>
      </trkpt>
      <trkpt lat="47.56984" lon="3.77415">
        <ele>196.25</ele>
        <time>2022-04-17T08:53:07Z</time>
      </trkpt>
      <trkpt lat="47.56984" lon="3.77402">
        <ele>197.21</ele>
        <time>2022-04-17T08:53:15Z</time>
      </trkpt>
      <trkpt lat="47.56978" lon="3.77386">
        <ele>198.65</ele>
        <time>2022-04-17T08:53:28Z</time>
      </trkpt>
      <trkpt lat="47.56978" lon="3.77385">
        <ele>199.13</ele>
        <time>2022-04-17T08:53:30Z</time>
      </trkpt>
      <trkpt lat="47.56975" lon="3.7737">
        <ele>200.57</ele>
        <time>2022-04-17T08:53:41Z</time>
      </trkpt>
      <trkpt lat="47.56969" lon="3.77358">
        <ele>202.01</ele>
        <time>2022-04-17T08:53:51Z</time>
      </trkpt>
      <trkpt lat="47.56967" lon="3.77343">
        <ele>204.42</ele>
        <time>2022-04-17T08:54:03Z</time>
      </trkpt>
      <trkpt lat="47.56961" lon="3.77332">
        <ele>205.86</ele>
        <time>2022-04-17T08:54:13Z</time>
      </trkpt>
      <trkpt lat="47.56958" lon="3.77323">
        <ele>206.34</ele>
        <time>2022-04-17T08:54:19Z</time>
      </trkpt>
      <trkpt lat="47.56953" lon="3.77302">
        <ele>208.74</ele>
        <time>2022-04-17T08:54:32Z</time>
      </trkpt>
      <trkpt lat="47.56952" lon="3.7729">
        <ele>209.7</ele>
        <time>2022-04-17T08:54:38Z</time>
      </trkpt>
      <trkpt lat="47.56951" lon="3.77287">
        <ele>209.7</ele>
        <time>2022-04-17T08:54:40Z</time>
      </trkpt>
      <trkpt lat="47.56952" lon="3.77269">
        <ele>209.7</ele>
        <time>2022-04-17T08:54:53Z</time>
      </trkpt>
      <trkpt lat="47.56952" lon="3.77269">
        <ele>209.7</ele>
        <time>2022-04-17T08:54:54Z</time>
      </trkpt>
      <trkpt lat="47.5695" lon="3.77256">
        <ele>210.19</ele>
        <time>2022-04-17T08:54:59Z</time>
      </trkpt>
      <trkpt lat="47.56953" lon="3.77232">
        <ele>209.22</ele>
        <time>2022-04-17T08:55:12Z</time>
      </trkpt>
      <trkpt lat="47.56953" lon="3.77225">
        <ele>209.22</ele>
        <time>2022-04-17T08:55:15Z</time>
      </trkpt>
      <trkpt lat="47.56952" lon="3.77221">
        <ele>209.22</ele>
        <time>2022-04-17T08:55:17Z</time>
      </trkpt>
      <trkpt lat="47.56953" lon="3.77199">
        <ele>208.74</ele>
        <time>2022-04-17T08:55:28Z</time>
      </trkpt>
      <trkpt lat="47.56953" lon="3.77184">
        <ele>208.26</ele>
        <time>2022-04-17T08:55:35Z</time>
      </trkpt>
      <trkpt lat="47.56953" lon="3.77169">
        <ele>207.78</ele>
        <time>2022-04-17T08:55:42Z</time>
      </trkpt>
      <trkpt lat="47.56951" lon="3.77147">
        <ele>208.26</ele>
        <time>2022-04-17T08:55:54Z</time>
      </trkpt>
      <trkpt lat="47.56951" lon="3.77145">
        <ele>207.78</ele>
        <time>2022-04-17T08:55:55Z</time>
      </trkpt>
      <trkpt lat="47.56947" lon="3.77129">
        <ele>210.19</ele>
        <time>2022-04-17T08:56:06Z</time>
      </trkpt>
      <trkpt lat="47.56945" lon="3.77119">
        <ele>210.19</ele>
        <time>2022-04-17T08:56:11Z</time>
      </trkpt>
      <trkpt lat="47.5694" lon="3.77095">
        <ele>211.63</ele>
        <time>2022-04-17T08:56:24Z</time>
      </trkpt>
      <trkpt lat="47.56941" lon="3.77087">
        <ele>212.11</ele>
        <time>2022-04-17T08:56:28Z</time>
      </trkpt>
      <trkpt lat="47.56946" lon="3.77075">
        <ele>212.59</ele>
        <time>2022-04-17T08:56:35Z</time>
      </trkpt>
      <trkpt lat="47.56954" lon="3.7706">
        <ele>211.63</ele>
        <time>2022-04-17T08:56:45Z</time>
      </trkpt>
      <trkpt lat="47.56955" lon="3.77055">
        <ele>211.63</ele>
        <time>2022-04-17T08:56:48Z</time>
      </trkpt>
      <trkpt lat="47.56964" lon="3.77043">
        <ele>211.15</ele>
        <time>2022-04-17T08:56:57Z</time>
      </trkpt>
      <trkpt lat="47.5697" lon="3.77031">
        <ele>210.19</ele>
        <time>2022-04-17T08:57:06Z</time>
      </trkpt>
      <trkpt lat="47.5697" lon="3.77027">
        <ele>210.19</ele>
        <time>2022-04-17T08:57:08Z</time>
      </trkpt>
      <trkpt lat="47.56969" lon="3.77021">
        <ele>210.19</ele>
        <time>2022-04-17T08:57:11Z</time>
      </trkpt>
      <trkpt lat="47.56974" lon="3.77013">
        <ele>210.19</ele>
        <time>2022-04-17T08:57:17Z</time>
      </trkpt>
      <trkpt lat="47.56979" lon="3.77006">
        <ele>210.19</ele>
        <time>2022-04-17T08:57:21Z</time>
      </trkpt>
      <trkpt lat="47.56981" lon="3.76987">
        <ele>211.15</ele>
        <time>2022-04-17T08:57:31Z</time>
      </trkpt>
      <trkpt lat="47.56979" lon="3.7698">
        <ele>211.63</ele>
        <time>2022-04-17T08:57:35Z</time>
      </trkpt>
      <trkpt lat="47.56976" lon="3.76979">
        <ele>212.11</ele>
        <time>2022-04-17T08:57:37Z</time>
      </trkpt>
      <trkpt lat="47.56971" lon="3.76971">
        <ele>213.07</ele>
        <time>2022-04-17T08:57:43Z</time>
      </trkpt>
      <trkpt lat="47.56971" lon="3.76966">
        <ele>213.07</ele>
        <time>2022-04-17T08:57:46Z</time>
      </trkpt>
      <trkpt lat="47.5696" lon="3.76953">
        <ele>214.51</ele>
        <time>2022-04-17T08:58:00Z</time>
      </trkpt>
      <trkpt lat="47.56948" lon="3.76942">
        <ele>215.95</ele>
        <time>2022-04-17T08:58:13Z</time>
      </trkpt>
      <trkpt lat="47.56943" lon="3.76935">
        <ele>216.91</ele>
        <time>2022-04-17T08:58:19Z</time>
      </trkpt>
      <trkpt lat="47.5694" lon="3.76933">
        <ele>216.91</ele>
        <time>2022-04-17T08:58:21Z</time>
      </trkpt>
      <trkpt lat="47.56937" lon="3.7693">
        <ele>217.4</ele>
        <time>2022-04-17T08:58:24Z</time>
      </trkpt>
      <trkpt lat="47.5693" lon="3.76922">
        <ele>217.4</ele>
        <time>2022-04-17T08:58:31Z</time>
      </trkpt>
      <trkpt lat="47.56919" lon="3.76912">
        <ele>217.88</ele>
        <time>2022-04-17T08:58:42Z</time>
      </trkpt>
      <trkpt lat="47.56918" lon="3.7691">
        <ele>217.88</ele>
        <time>2022-04-17T08:58:43Z</time>
      </trkpt>
      <trkpt lat="47.56908" lon="3.76896">
        <ele>217.4</ele>
        <time>2022-04-17T08:58:53Z</time>
      </trkpt>
      <trkpt lat="47.569" lon="3.76883">
        <ele>217.88</ele>
        <time>2022-04-17T08:59:06Z</time>
      </trkpt>
      <trkpt lat="47.56887" lon="3.76866">
        <ele>216.91</ele>
        <time>2022-04-17T08:59:20Z</time>
      </trkpt>
      <trkpt lat="47.56877" lon="3.76847">
        <ele>215.47</ele>
        <time>2022-04-17T08:59:33Z</time>
      </trkpt>
      <trkpt lat="47.56869" lon="3.76832">
        <ele>214.51</ele>
        <time>2022-04-17T08:59:45Z</time>
      </trkpt>
      <trkpt lat="47.56864" lon="3.76809">
        <ele>213.07</ele>
        <time>2022-04-17T08:59:58Z</time>
      </trkpt>
      <trkpt lat="47.56862" lon="3.76789">
        <ele>211.63</ele>
        <time>2022-04-17T09:00:11Z</time>
      </trkpt>
      <trkpt lat="47.56857" lon="3.76785">
        <ele>209.7</ele>
        <time>2022-04-17T09:00:17Z</time>
      </trkpt>
      <trkpt lat="47.56848" lon="3.76783">
        <ele>206.34</ele>
        <time>2022-04-17T09:00:30Z</time>
      </trkpt>
      <trkpt lat="47.56837" lon="3.76779">
        <ele>203.94</ele>
        <time>2022-04-17T09:00:42Z</time>
      </trkpt>
      <trkpt lat="47.56824" lon="3.76776">
        <ele>201.05</ele>
        <time>2022-04-17T09:00:55Z</time>
      </trkpt>
      <trkpt lat="47.56818" lon="3.76774">
        <ele>200.09</ele>
        <time>2022-04-17T09:01:00Z</time>
      </trkpt>
      <trkpt lat="47.56806" lon="3.7677">
        <ele>197.21</ele>
        <time>2022-04-17T09:01:14Z</time>
      </trkpt>
      <trkpt lat="47.56801" lon="3.76768">
        <ele>195.28</ele>
        <time>2022-04-17T09:01:25Z</time>
      </trkpt>
      <trkpt lat="47.56793" lon="3.76763">
        <ele>193.36</ele>
        <time>2022-04-17T09:01:35Z</time>
      </trkpt>
      <trkpt lat="47.56782" lon="3.76754">
        <ele>190.48</ele>
        <time>2022-04-17T09:01:46Z</time>
      </trkpt>
      <trkpt lat="47.56773" lon="3.76744">
        <ele>188.56</ele>
        <time>2022-04-17T09:01:57Z</time>
      </trkpt>
      <trkpt lat="47.56762" lon="3.76726">
        <ele>185.67</ele>
        <time>2022-04-17T09:02:10Z</time>
      </trkpt>
      <trkpt lat="47.56758" lon="3.76721">
        <ele>184.23</ele>
        <time>2022-04-17T09:02:13Z</time>
      </trkpt>
      <trkpt lat="47.56746" lon="3.76702">
        <ele>180.87</ele>
        <time>2022-04-17T09:02:27Z</time>
      </trkpt>
      <trkpt lat="47.56742" lon="3.76698">
        <ele>179.9</ele>
        <time>2022-04-17T09:02:31Z</time>
      </trkpt>
      <trkpt lat="47.56729" lon="3.76693">
        <ele>176.54</ele>
        <time>2022-04-17T09:02:43Z</time>
      </trkpt>
      <trkpt lat="47.5672" lon="3.76692">
        <ele>174.14</ele>
        <time>2022-04-17T09:02:53Z</time>
      </trkpt>
      <trkpt lat="47.56706" lon="3.76686">
        <ele>171.25</ele>
        <time>2022-04-17T09:03:04Z</time>
      </trkpt>
      <trkpt lat="47.56704" lon="3.76685">
        <ele>170.77</ele>
        <time>2022-04-17T09:03:07Z</time>
      </trkpt>
      <trkpt lat="47.56697" lon="3.76682">
        <ele>168.85</ele>
        <time>2022-04-17T09:03:12Z</time>
      </trkpt>
      <trkpt lat="47.56688" lon="3.76676">
        <ele>166.45</ele>
        <time>2022-04-17T09:03:19Z</time>
      </trkpt>
      <trkpt lat="47.56681" lon="3.76673">
        <ele>164.04</ele>
        <time>2022-04-17T09:03:28Z</time>
      </trkpt>
      <trkpt lat="47.56662" lon="3.7667">
        <ele>160.68</ele>
        <time>2022-04-17T09:03:40Z</time>
      </trkpt>
      <trkpt lat="47.5665" lon="3.7667">
        <ele>159.72</ele>
        <time>2022-04-17T09:03:48Z</time>
      </trkpt>
      <trkpt lat="47.56644" lon="3.76673">
        <ele>158.75</ele>
        <time>2022-04-17T09:04:01Z</time>
      </trkpt>
      <trkpt lat="47.56645" lon="3.76672">
        <ele>158.27</ele>
        <time>2022-04-17T09:04:11Z</time>
      </trkpt>
      <trkpt lat="47.56645" lon="3.7667">
        <ele>159.24</ele>
        <time>2022-04-17T09:04:25Z</time>
      </trkpt>
      <trkpt lat="47.56645" lon="3.7667">
        <ele>159.24</ele>
        <time>2022-04-17T09:04:41Z</time>
      </trkpt>
      <trkpt lat="47.56643" lon="3.76669">
        <ele>159.24</ele>
        <time>2022-04-17T09:04:56Z</time>
      </trkpt>
      <trkpt lat="47.56643" lon="3.76668">
        <ele>158.75</ele>
        <time>2022-04-17T09:05:12Z</time>
      </trkpt>
      <trkpt lat="47.56643" lon="3.76671">
        <ele>158.75</ele>
        <time>2022-04-17T09:05:25Z</time>
      </trkpt>
      <trkpt lat="47.56641" lon="3.76681">
        <ele>158.27</ele>
        <time>2022-04-17T09:05:32Z</time>
      </trkpt>
      <trkpt lat="47.56637" lon="3.76686">
        <ele>158.27</ele>
        <time>2022-04-17T09:05:36Z</time>
      </trkpt>
      <trkpt lat="47.5663" lon="3.76697">
        <ele>157.31</ele>
        <time>2022-04-17T09:05:44Z</time>
      </trkpt>
      <trkpt lat="47.56622" lon="3.76711">
        <ele>156.83</ele>
        <time>2022-04-17T09:05:53Z</time>
      </trkpt>
      <trkpt lat="47.56602" lon="3.76728">
        <ele>155.39</ele>
        <time>2022-04-17T09:06:08Z</time>
      </trkpt>
      <trkpt lat="47.56594" lon="3.76735">
        <ele>155.39</ele>
        <time>2022-04-17T09:06:16Z</time>
      </trkpt>
      <trkpt lat="47.56575" lon="3.7674">
        <ele>154.91</ele>
        <time>2022-04-17T09:06:30Z</time>
      </trkpt>
      <trkpt lat="47.56561" lon="3.76741">
        <ele>153.95</ele>
        <time>2022-04-17T09:06:39Z</time>
      </trkpt>
      <trkpt lat="47.56553" lon="3.7674">
        <ele>154.43</ele>
        <time>2022-04-17T09:06:45Z</time>
      </trkpt>
      <trkpt lat="47.56543" lon="3.7674">
        <ele>153.95</ele>
        <time>2022-04-17T09:06:53Z</time>
      </trkpt>
      <trkpt lat="47.56523" lon="3.76737">
        <ele>152.99</ele>
        <time>2022-04-17T09:07:07Z</time>
      </trkpt>
      <trkpt lat="47.565" lon="3.76729">
        <ele>152.51</ele>
        <time>2022-04-17T09:07:22Z</time>
      </trkpt>
      <trkpt lat="47.56498" lon="3.76729">
        <ele>152.51</ele>
        <time>2022-04-17T09:07:24Z</time>
      </trkpt>
      <trkpt lat="47.56486" lon="3.7673">
        <ele>152.03</ele>
        <time>2022-04-17T09:07:33Z</time>
      </trkpt>
      <trkpt lat="47.56479" lon="3.76728">
        <ele>152.03</ele>
        <time>2022-04-17T09:07:38Z</time>
      </trkpt>
      <trkpt lat="47.56459" lon="3.76723">
        <ele>151.06</ele>
        <time>2022-04-17T09:07:55Z</time>
      </trkpt>
      <trkpt lat="47.56465" lon="3.76712">
        <ele>149.14</ele>
        <time>2022-04-17T09:08:07Z</time>
      </trkpt>
      <trkpt lat="47.56471" lon="3.76706">
        <ele>148.66</ele>
        <time>2022-04-17T09:08:14Z</time>
      </trkpt>
      <trkpt lat="47.56474" lon="3.76705">
        <ele>148.66</ele>
        <time>2022-04-17T09:08:16Z</time>
      </trkpt>
      <trkpt lat="47.56491" lon="3.76678">
        <ele>148.18</ele>
        <time>2022-04-17T09:08:30Z</time>
      </trkpt>
      <trkpt lat="47.565" lon="3.76668">
        <ele>147.7</ele>
        <time>2022-04-17T09:08:39Z</time>
      </trkpt>
      <trkpt lat="47.56511" lon="3.76652">
        <ele>148.18</ele>
        <time>2022-04-17T09:08:52Z</time>
      </trkpt>
      <trkpt lat="47.56523" lon="3.76639">
        <ele>149.14</ele>
        <time>2022-04-17T09:09:04Z</time>
      </trkpt>
      <trkpt lat="47.56535" lon="3.76628">
        <ele>149.62</ele>
        <time>2022-04-17T09:09:18Z</time>
      </trkpt>
      <trkpt lat="47.56545" lon="3.76616">
        <ele>151.54</ele>
        <time>2022-04-17T09:09:31Z</time>
      </trkpt>
      <trkpt lat="47.56551" lon="3.76612">
        <ele>152.03</ele>
        <time>2022-04-17T09:09:36Z</time>
      </trkpt>
      <trkpt lat="47.56553" lon="3.76613">
        <ele>152.51</ele>
        <time>2022-04-17T09:09:40Z</time>
      </trkpt>
      <trkpt lat="47.56552" lon="3.76595">
        <ele>152.51</ele>
        <time>2022-04-17T09:09:48Z</time>
      </trkpt>
      <trkpt lat="47.56552" lon="3.76571">
        <ele>152.51</ele>
        <time>2022-04-17T09:10:01Z</time>
      </trkpt>
      <trkpt lat="47.56548" lon="3.76557">
        <ele>152.99</ele>
        <time>2022-04-17T09:10:09Z</time>
      </trkpt>
      <trkpt lat="47.56542" lon="3.76536">
        <ele>152.99</ele>
        <time>2022-04-17T09:10:20Z</time>
      </trkpt>
      <trkpt lat="47.56532" lon="3.76518">
        <ele>152.99</ele>
        <time>2022-04-17T09:10:31Z</time>
      </trkpt>
      <trkpt lat="47.56531" lon="3.76507">
        <ele>152.99</ele>
        <time>2022-04-17T09:10:42Z</time>
      </trkpt>
      <trkpt lat="47.56528" lon="3.76501">
        <ele>153.47</ele>
        <time>2022-04-17T09:10:46Z</time>
      </trkpt>
      <trkpt lat="47.56524" lon="3.76474">
        <ele>152.99</ele>
        <time>2022-04-17T09:10:57Z</time>
      </trkpt>
      <trkpt lat="47.56523" lon="3.76456">
        <ele>153.95</ele>
        <time>2022-04-17T09:11:05Z</time>
      </trkpt>
      <trkpt lat="47.56512" lon="3.76431">
        <ele>153.47</ele>
        <time>2022-04-17T09:11:19Z</time>
      </trkpt>
      <trkpt lat="47.56505" lon="3.76408">
        <ele>154.43</ele>
        <time>2022-04-17T09:11:27Z</time>
      </trkpt>
      <trkpt lat="47.56499" lon="3.76389">
        <ele>154.43</ele>
        <time>2022-04-17T09:11:38Z</time>
      </trkpt>
      <trkpt lat="47.56495" lon="3.76377">
        <ele>154.43</ele>
        <time>2022-04-17T09:11:51Z</time>
      </trkpt>
      <trkpt lat="47.56488" lon="3.76356">
        <ele>154.43</ele>
        <time>2022-04-17T09:12:01Z</time>
      </trkpt>
      <trkpt lat="47.56483" lon="3.76339">
        <ele>154.91</ele>
        <time>2022-04-17T09:12:08Z</time>
      </trkpt>
      <trkpt lat="47.56482" lon="3.76334">
        <ele>154.91</ele>
        <time>2022-04-17T09:12:10Z</time>
      </trkpt>
      <trkpt lat="47.56477" lon="3.76319">
        <ele>155.39</ele>
        <time>2022-04-17T09:12:18Z</time>
      </trkpt>
      <trkpt lat="47.56471" lon="3.76294">
        <ele>155.39</ele>
        <time>2022-04-17T09:12:31Z</time>
      </trkpt>
      <trkpt lat="47.56471" lon="3.76292">
        <ele>155.87</ele>
        <time>2022-04-17T09:12:32Z</time>
      </trkpt>
      <trkpt lat="47.56468" lon="3.76277">
        <ele>156.35</ele>
        <time>2022-04-17T09:12:39Z</time>
      </trkpt>
      <trkpt lat="47.56467" lon="3.76263">
        <ele>156.83</ele>
        <time>2022-04-17T09:12:49Z</time>
      </trkpt>
      <trkpt lat="47.56465" lon="3.76258">
        <ele>156.83</ele>
        <time>2022-04-17T09:12:51Z</time>
      </trkpt>
      <trkpt lat="47.56467" lon="3.7625">
        <ele>157.31</ele>
        <time>2022-04-17T09:12:55Z</time>
      </trkpt>
      <trkpt lat="47.56471" lon="3.76225">
        <ele>157.79</ele>
        <time>2022-04-17T09:13:07Z</time>
      </trkpt>
      <trkpt lat="47.56478" lon="3.76214">
        <ele>157.79</ele>
        <time>2022-04-17T09:13:16Z</time>
      </trkpt>
      <trkpt lat="47.56485" lon="3.76192">
        <ele>157.79</ele>
        <time>2022-04-17T09:13:28Z</time>
      </trkpt>
      <trkpt lat="47.56483" lon="3.76172">
        <ele>158.75</ele>
        <time>2022-04-17T09:13:38Z</time>
      </trkpt>
      <trkpt lat="47.56482" lon="3.76165">
        <ele>158.75</ele>
        <time>2022-04-17T09:13:43Z</time>
      </trkpt>
      <trkpt lat="47.5648" lon="3.76151">
        <ele>159.72</ele>
        <time>2022-04-17T09:13:54Z</time>
      </trkpt>
      <trkpt lat="47.56474" lon="3.76137">
        <ele>159.72</ele>
        <time>2022-04-17T09:14:03Z</time>
      </trkpt>
      <trkpt lat="47.56461" lon="3.76112">
        <ele>160.2</ele>
        <time>2022-04-17T09:14:15Z</time>
      </trkpt>
      <trkpt lat="47.56444" lon="3.76089">
        <ele>160.68</ele>
        <time>2022-04-17T09:14:30Z</time>
      </trkpt>
      <trkpt lat="47.56428" lon="3.76073">
        <ele>160.68</ele>
        <time>2022-04-17T09:14:44Z</time>
      </trkpt>
      <trkpt lat="47.56417" lon="3.76058">
        <ele>161.16</ele>
        <time>2022-04-17T09:14:55Z</time>
      </trkpt>
      <trkpt lat="47.56416" lon="3.76056">
        <ele>161.64</ele>
        <time>2022-04-17T09:14:56Z</time>
      </trkpt>
      <trkpt lat="47.56402" lon="3.76042">
        <ele>161.64</ele>
        <time>2022-04-17T09:15:08Z</time>
      </trkpt>
      <trkpt lat="47.56383" lon="3.76031">
        <ele>162.6</ele>
        <time>2022-04-17T09:15:21Z</time>
      </trkpt>
      <trkpt lat="47.5636" lon="3.76016">
        <ele>163.08</ele>
        <time>2022-04-17T09:15:36Z</time>
      </trkpt>
      <trkpt lat="47.56345" lon="3.76009">
        <ele>164.04</ele>
        <time>2022-04-17T09:15:47Z</time>
      </trkpt>
      <trkpt lat="47.56328" lon="3.76007">
        <ele>164.52</ele>
        <time>2022-04-17T09:16:00Z</time>
      </trkpt>
      <trkpt lat="47.5631" lon="3.76009">
        <ele>165.48</ele>
        <time>2022-04-17T09:16:13Z</time>
      </trkpt>
      <trkpt lat="47.56294" lon="3.76011">
        <ele>165.96</ele>
        <time>2022-04-17T09:16:28Z</time>
      </trkpt>
      <trkpt lat="47.56275" lon="3.76017">
        <ele>165.96</ele>
        <time>2022-04-17T09:16:40Z</time>
      </trkpt>
      <trkpt lat="47.5626" lon="3.76022">
        <ele>166.45</ele>
        <time>2022-04-17T09:16:50Z</time>
      </trkpt>
      <trkpt lat="47.56238" lon="3.76024">
        <ele>166.93</ele>
        <time>2022-04-17T09:17:05Z</time>
      </trkpt>
      <trkpt lat="47.56222" lon="3.76027">
        <ele>167.41</ele>
        <time>2022-04-17T09:17:20Z</time>
      </trkpt>
      <trkpt lat="47.56202" lon="3.76027">
        <ele>167.89</ele>
        <time>2022-04-17T09:17:33Z</time>
      </trkpt>
      <trkpt lat="47.56194" lon="3.76021">
        <ele>167.89</ele>
        <time>2022-04-17T09:17:39Z</time>
      </trkpt>
      <trkpt lat="47.56174" lon="3.76011">
        <ele>168.85</ele>
        <time>2022-04-17T09:17:55Z</time>
      </trkpt>
      <trkpt lat="47.56164" lon="3.76">
        <ele>168.85</ele>
        <time>2022-04-17T09:18:06Z</time>
      </trkpt>
      <trkpt lat="47.56154" lon="3.75983">
        <ele>169.33</ele>
        <time>2022-04-17T09:18:18Z</time>
      </trkpt>
      <trkpt lat="47.56143" lon="3.75971">
        <ele>169.81</ele>
        <time>2022-04-17T09:18:31Z</time>
      </trkpt>
      <trkpt lat="47.5613" lon="3.75951">
        <ele>171.25</ele>
        <time>2022-04-17T09:18:43Z</time>
      </trkpt>
      <trkpt lat="47.56118" lon="3.75932">
        <ele>172.21</ele>
        <time>2022-04-17T09:18:57Z</time>
      </trkpt>
      <trkpt lat="47.56107" lon="3.75914">
        <ele>172.21</ele>
        <time>2022-04-17T09:19:07Z</time>
      </trkpt>
      <trkpt lat="47.56097" lon="3.75892">
        <ele>172.69</ele>
        <time>2022-04-17T09:19:20Z</time>
      </trkpt>
      <trkpt lat="47.56091" lon="3.7587">
        <ele>173.17</ele>
        <time>2022-04-17T09:19:32Z</time>
      </trkpt>
      <trkpt lat="47.5609" lon="3.75868">
        <ele>173.17</ele>
        <time>2022-04-17T09:19:33Z</time>
      </trkpt>
      <trkpt lat="47.56086" lon="3.75848">
        <ele>173.66</ele>
        <time>2022-04-17T09:19:43Z</time>
      </trkpt>
      <trkpt lat="47.56084" lon="3.75844">
        <ele>174.14</ele>
        <time>2022-04-17T09:19:45Z</time>
      </trkpt>
      <trkpt lat="47.56077" lon="3.75827">
        <ele>173.66</ele>
        <time>2022-04-17T09:19:57Z</time>
      </trkpt>
      <trkpt lat="47.56072" lon="3.75817">
        <ele>174.62</ele>
        <time>2022-04-17T09:20:03Z</time>
      </trkpt>
      <trkpt lat="47.56064" lon="3.75791">
        <ele>175.1</ele>
        <time>2022-04-17T09:20:16Z</time>
      </trkpt>
      <trkpt lat="47.56057" lon="3.75766">
        <ele>176.06</ele>
        <time>2022-04-17T09:20:30Z</time>
      </trkpt>
      <trkpt lat="47.56052" lon="3.75755">
        <ele>176.54</ele>
        <time>2022-04-17T09:20:40Z</time>
      </trkpt>
      <trkpt lat="47.56045" lon="3.75735">
        <ele>177.02</ele>
        <time>2022-04-17T09:20:52Z</time>
      </trkpt>
      <trkpt lat="47.56035" lon="3.75706">
        <ele>177.98</ele>
        <time>2022-04-17T09:21:06Z</time>
      </trkpt>
      <trkpt lat="47.56029" lon="3.75688">
        <ele>179.42</ele>
        <time>2022-04-17T09:21:18Z</time>
      </trkpt>
      <trkpt lat="47.56022" lon="3.75671">
        <ele>179.9</ele>
        <time>2022-04-17T09:21:28Z</time>
      </trkpt>
      <trkpt lat="47.56011" lon="3.75643">
        <ele>180.38</ele>
        <time>2022-04-17T09:21:42Z</time>
      </trkpt>
      <trkpt lat="47.56003" lon="3.75616">
        <ele>180.87</ele>
        <time>2022-04-17T09:21:56Z</time>
      </trkpt>
      <trkpt lat="47.55996" lon="3.75595">
        <ele>181.35</ele>
        <time>2022-04-17T09:22:06Z</time>
      </trkpt>
      <trkpt lat="47.55992" lon="3.75579">
        <ele>181.83</ele>
        <time>2022-04-17T09:22:16Z</time>
      </trkpt>
      <trkpt lat="47.55987" lon="3.75569">
        <ele>182.31</ele>
        <time>2022-04-17T09:22:26Z</time>
      </trkpt>
      <trkpt lat="47.55978" lon="3.75543">
        <ele>183.27</ele>
        <time>2022-04-17T09:22:38Z</time>
      </trkpt>
      <trkpt lat="47.55968" lon="3.75515">
        <ele>183.75</ele>
        <time>2022-04-17T09:22:51Z</time>
      </trkpt>
      <trkpt lat="47.55961" lon="3.75492">
        <ele>184.71</ele>
        <time>2022-04-17T09:23:02Z</time>
      </trkpt>
      <trkpt lat="47.55954" lon="3.75476">
        <ele>184.71</ele>
        <time>2022-04-17T09:23:13Z</time>
      </trkpt>
      <trkpt lat="47.55951" lon="3.75463">
        <ele>184.71</ele>
        <time>2022-04-17T09:23:22Z</time>
      </trkpt>
      <trkpt lat="47.55946" lon="3.75445">
        <ele>185.19</ele>
        <time>2022-04-17T09:23:33Z</time>
      </trkpt>
      <trkpt lat="47.55938" lon="3.75414">
        <ele>185.19</ele>
        <time>2022-04-17T09:23:47Z</time>
      </trkpt>
      <trkpt lat="47.55935" lon="3.75403">
        <ele>184.23</ele>
        <time>2022-04-17T09:23:54Z</time>
      </trkpt>
      <trkpt lat="47.55929" lon="3.75376">
        <ele>185.19</ele>
        <time>2022-04-17T09:24:09Z</time>
      </trkpt>
      <trkpt lat="47.55928" lon="3.75369">
        <ele>185.19</ele>
        <time>2022-04-17T09:24:12Z</time>
      </trkpt>
      <trkpt lat="47.55921" lon="3.75345">
        <ele>185.67</ele>
        <time>2022-04-17T09:24:26Z</time>
      </trkpt>
      <trkpt lat="47.55916" lon="3.75319">
        <ele>186.15</ele>
        <time>2022-04-17T09:24:39Z</time>
      </trkpt>
      <trkpt lat="47.55907" lon="3.75294">
        <ele>186.63</ele>
        <time>2022-04-17T09:24:51Z</time>
      </trkpt>
      <trkpt lat="47.55907" lon="3.75293">
        <ele>187.11</ele>
        <time>2022-04-17T09:24:52Z</time>
      </trkpt>
      <trkpt lat="47.55901" lon="3.75272">
        <ele>187.59</ele>
        <time>2022-04-17T09:25:01Z</time>
      </trkpt>
      <trkpt lat="47.55898" lon="3.75246">
        <ele>188.56</ele>
        <time>2022-04-17T09:25:14Z</time>
      </trkpt>
      <trkpt lat="47.55895" lon="3.75229">
        <ele>188.56</ele>
        <time>2022-04-17T09:25:23Z</time>
      </trkpt>
      <trkpt lat="47.55895" lon="3.75227">
        <ele>188.56</ele>
        <time>2022-04-17T09:25:24Z</time>
      </trkpt>
      <trkpt lat="47.55893" lon="3.75224">
        <ele>189.04</ele>
        <time>2022-04-17T09:25:27Z</time>
      </trkpt>
      <trkpt lat="47.55894" lon="3.75212">
        <ele>189.04</ele>
        <time>2022-04-17T09:25:32Z</time>
      </trkpt>
      <trkpt lat="47.55895" lon="3.75206">
        <ele>189.04</ele>
        <time>2022-04-17T09:25:35Z</time>
      </trkpt>
      <trkpt lat="47.55895" lon="3.75179">
        <ele>189.52</ele>
        <time>2022-04-17T09:25:47Z</time>
      </trkpt>
      <trkpt lat="47.5589" lon="3.7516">
        <ele>190</ele>
        <time>2022-04-17T09:25:57Z</time>
      </trkpt>
      <trkpt lat="47.55885" lon="3.75147">
        <ele>190.96</ele>
        <time>2022-04-17T09:26:09Z</time>
      </trkpt>
      <trkpt lat="47.55877" lon="3.75135">
        <ele>192.4</ele>
        <time>2022-04-17T09:26:21Z</time>
      </trkpt>
      <trkpt lat="47.55874" lon="3.75112">
        <ele>192.4</ele>
        <time>2022-04-17T09:26:34Z</time>
      </trkpt>
      <trkpt lat="47.55877" lon="3.75106">
        <ele>192.4</ele>
        <time>2022-04-17T09:26:39Z</time>
      </trkpt>
      <trkpt lat="47.55887" lon="3.75092">
        <ele>192.88</ele>
        <time>2022-04-17T09:26:53Z</time>
      </trkpt>
      <trkpt lat="47.55888" lon="3.75093">
        <ele>193.36</ele>
        <time>2022-04-17T09:26:56Z</time>
      </trkpt>
      <trkpt lat="47.55898" lon="3.75096">
        <ele>194.8</ele>
        <time>2022-04-17T09:27:07Z</time>
      </trkpt>
      <trkpt lat="47.55923" lon="3.75098">
        <ele>196.73</ele>
        <time>2022-04-17T09:27:21Z</time>
      </trkpt>
      <trkpt lat="47.55934" lon="3.75088">
        <ele>198.65</ele>
        <time>2022-04-17T09:27:31Z</time>
      </trkpt>
      <trkpt lat="47.55936" lon="3.75082">
        <ele>199.61</ele>
        <time>2022-04-17T09:27:35Z</time>
      </trkpt>
      <trkpt lat="47.55935" lon="3.75056">
        <ele>200.57</ele>
        <time>2022-04-17T09:27:48Z</time>
      </trkpt>
      <trkpt lat="47.55936" lon="3.75036">
        <ele>201.05</ele>
        <time>2022-04-17T09:28:00Z</time>
      </trkpt>
      <trkpt lat="47.55933" lon="3.75025">
        <ele>201.05</ele>
        <time>2022-04-17T09:28:04Z</time>
      </trkpt>
      <trkpt lat="47.55932" lon="3.75002">
        <ele>200.57</ele>
        <time>2022-04-17T09:28:15Z</time>
      </trkpt>
      <trkpt lat="47.55931" lon="3.74998">
        <ele>201.05</ele>
        <time>2022-04-17T09:28:18Z</time>
      </trkpt>
      <trkpt lat="47.5593" lon="3.74995">
        <ele>201.05</ele>
        <time>2022-04-17T09:28:20Z</time>
      </trkpt>
      <trkpt lat="47.55927" lon="3.74971">
        <ele>200.57</ele>
        <time>2022-04-17T09:28:33Z</time>
      </trkpt>
      <trkpt lat="47.55926" lon="3.74969">
        <ele>200.09</ele>
        <time>2022-04-17T09:28:34Z</time>
      </trkpt>
      <trkpt lat="47.55926" lon="3.74965">
        <ele>200.09</ele>
        <time>2022-04-17T09:28:36Z</time>
      </trkpt>
      <trkpt lat="47.55926" lon="3.74959">
        <ele>199.61</ele>
        <time>2022-04-17T09:28:39Z</time>
      </trkpt>
      <trkpt lat="47.55927" lon="3.7494">
        <ele>199.13</ele>
        <time>2022-04-17T09:28:50Z</time>
      </trkpt>
      <trkpt lat="47.55926" lon="3.74932">
        <ele>198.65</ele>
        <time>2022-04-17T09:28:54Z</time>
      </trkpt>
      <trkpt lat="47.55925" lon="3.74926">
        <ele>198.65</ele>
        <time>2022-04-17T09:28:57Z</time>
      </trkpt>
      <trkpt lat="47.55927" lon="3.74915">
        <ele>197.69</ele>
        <time>2022-04-17T09:29:02Z</time>
      </trkpt>
      <trkpt lat="47.55928" lon="3.749">
        <ele>197.21</ele>
        <time>2022-04-17T09:29:10Z</time>
      </trkpt>
      <trkpt lat="47.55928" lon="3.74888">
        <ele>197.21</ele>
        <time>2022-04-17T09:29:17Z</time>
      </trkpt>
      <trkpt lat="47.55923" lon="3.74862">
        <ele>196.73</ele>
        <time>2022-04-17T09:29:30Z</time>
      </trkpt>
      <trkpt lat="47.55919" lon="3.74842">
        <ele>197.21</ele>
        <time>2022-04-17T09:29:39Z</time>
      </trkpt>
      <trkpt lat="47.55915" lon="3.74827">
        <ele>197.21</ele>
        <time>2022-04-17T09:29:45Z</time>
      </trkpt>
      <trkpt lat="47.55914" lon="3.74823">
        <ele>197.69</ele>
        <time>2022-04-17T09:29:47Z</time>
      </trkpt>
      <trkpt lat="47.55912" lon="3.74815">
        <ele>197.21</ele>
        <time>2022-04-17T09:29:51Z</time>
      </trkpt>
      <trkpt lat="47.55907" lon="3.74802">
        <ele>197.21</ele>
        <time>2022-04-17T09:29:58Z</time>
      </trkpt>
      <trkpt lat="47.55901" lon="3.74784">
        <ele>197.21</ele>
        <time>2022-04-17T09:30:07Z</time>
      </trkpt>
      <trkpt lat="47.55887" lon="3.74756">
        <ele>197.21</ele>
        <time>2022-04-17T09:30:23Z</time>
      </trkpt>
      <trkpt lat="47.55882" lon="3.74744">
        <ele>197.69</ele>
        <time>2022-04-17T09:30:30Z</time>
      </trkpt>
      <trkpt lat="47.55873" lon="3.74727">
        <ele>197.69</ele>
        <time>2022-04-17T09:30:39Z</time>
      </trkpt>
      <trkpt lat="47.55872" lon="3.74724">
        <ele>197.69</ele>
        <time>2022-04-17T09:30:41Z</time>
      </trkpt>
      <trkpt lat="47.5587" lon="3.74721">
        <ele>197.69</ele>
        <time>2022-04-17T09:30:43Z</time>
      </trkpt>
      <trkpt lat="47.55859" lon="3.74701">
        <ele>198.17</ele>
        <time>2022-04-17T09:30:56Z</time>
      </trkpt>
      <trkpt lat="47.55855" lon="3.74693">
        <ele>198.17</ele>
        <time>2022-04-17T09:31:01Z</time>
      </trkpt>
      <trkpt lat="47.55853" lon="3.7469">
        <ele>198.17</ele>
        <time>2022-04-17T09:31:03Z</time>
      </trkpt>
      <trkpt lat="47.55846" lon="3.74669">
        <ele>199.13</ele>
        <time>2022-04-17T09:31:16Z</time>
      </trkpt>
      <trkpt lat="47.55839" lon="3.74649">
        <ele>199.13</ele>
        <time>2022-04-17T09:31:26Z</time>
      </trkpt>
      <trkpt lat="47.55831" lon="3.7463">
        <ele>199.61</ele>
        <time>2022-04-17T09:31:35Z</time>
      </trkpt>
      <trkpt lat="47.55829" lon="3.74619">
        <ele>199.61</ele>
        <time>2022-04-17T09:31:39Z</time>
      </trkpt>
      <trkpt lat="47.55823" lon="3.74596">
        <ele>199.61</ele>
        <time>2022-04-17T09:31:51Z</time>
      </trkpt>
      <trkpt lat="47.55821" lon="3.74586">
        <ele>199.61</ele>
        <time>2022-04-17T09:31:57Z</time>
      </trkpt>
      <trkpt lat="47.55808" lon="3.74564">
        <ele>199.61</ele>
        <time>2022-04-17T09:32:10Z</time>
      </trkpt>
      <trkpt lat="47.558" lon="3.74553">
        <ele>200.09</ele>
        <time>2022-04-17T09:32:18Z</time>
      </trkpt>
      <trkpt lat="47.55793" lon="3.74541">
        <ele>200.09</ele>
        <time>2022-04-17T09:32:25Z</time>
      </trkpt>
      <trkpt lat="47.5579" lon="3.74539">
        <ele>200.09</ele>
        <time>2022-04-17T09:32:27Z</time>
      </trkpt>
      <trkpt lat="47.55785" lon="3.74534">
        <ele>200.09</ele>
        <time>2022-04-17T09:32:31Z</time>
      </trkpt>
      <trkpt lat="47.5577" lon="3.74519">
        <ele>200.57</ele>
        <time>2022-04-17T09:32:44Z</time>
      </trkpt>
      <trkpt lat="47.55767" lon="3.74514">
        <ele>201.05</ele>
        <time>2022-04-17T09:32:48Z</time>
      </trkpt>
      <trkpt lat="47.55765" lon="3.74511">
        <ele>201.05</ele>
        <time>2022-04-17T09:32:50Z</time>
      </trkpt>
      <trkpt lat="47.5576" lon="3.74506">
        <ele>201.05</ele>
        <time>2022-04-17T09:32:56Z</time>
      </trkpt>
      <trkpt lat="47.55758" lon="3.74502">
        <ele>201.53</ele>
        <time>2022-04-17T09:32:58Z</time>
      </trkpt>
      <trkpt lat="47.55755" lon="3.74498">
        <ele>201.53</ele>
        <time>2022-04-17T09:33:01Z</time>
      </trkpt>
      <trkpt lat="47.55747" lon="3.74484">
        <ele>202.01</ele>
        <time>2022-04-17T09:33:11Z</time>
      </trkpt>
      <trkpt lat="47.55734" lon="3.74464">
        <ele>202.98</ele>
        <time>2022-04-17T09:33:25Z</time>
      </trkpt>
      <trkpt lat="47.55734" lon="3.74463">
        <ele>203.46</ele>
        <time>2022-04-17T09:33:26Z</time>
      </trkpt>
      <trkpt lat="47.55727" lon="3.7445">
        <ele>203.94</ele>
        <time>2022-04-17T09:33:33Z</time>
      </trkpt>
      <trkpt lat="47.55723" lon="3.74442">
        <ele>203.94</ele>
        <time>2022-04-17T09:33:39Z</time>
      </trkpt>
      <trkpt lat="47.55715" lon="3.7443">
        <ele>204.42</ele>
        <time>2022-04-17T09:33:48Z</time>
      </trkpt>
      <trkpt lat="47.55708" lon="3.74415">
        <ele>205.38</ele>
        <time>2022-04-17T09:33:59Z</time>
      </trkpt>
      <trkpt lat="47.55703" lon="3.74407">
        <ele>205.86</ele>
        <time>2022-04-17T09:34:03Z</time>
      </trkpt>
      <trkpt lat="47.55692" lon="3.74393">
        <ele>206.82</ele>
        <time>2022-04-17T09:34:16Z</time>
      </trkpt>
      <trkpt lat="47.55681" lon="3.74374">
        <ele>208.26</ele>
        <time>2022-04-17T09:34:30Z</time>
      </trkpt>
      <trkpt lat="47.5568" lon="3.7437">
        <ele>208.26</ele>
        <time>2022-04-17T09:34:33Z</time>
      </trkpt>
      <trkpt lat="47.55675" lon="3.74363">
        <ele>208.74</ele>
        <time>2022-04-17T09:34:37Z</time>
      </trkpt>
      <trkpt lat="47.55663" lon="3.74349">
        <ele>209.22</ele>
        <time>2022-04-17T09:34:47Z</time>
      </trkpt>
      <trkpt lat="47.55653" lon="3.74335">
        <ele>210.19</ele>
        <time>2022-04-17T09:35:00Z</time>
      </trkpt>
      <trkpt lat="47.55638" lon="3.74336">
        <ele>211.15</ele>
        <time>2022-04-17T09:35:13Z</time>
      </trkpt>
      <trkpt lat="47.55625" lon="3.74331">
        <ele>211.15</ele>
        <time>2022-04-17T09:35:25Z</time>
      </trkpt>
      <trkpt lat="47.55616" lon="3.74332">
        <ele>211.15</ele>
        <time>2022-04-17T09:35:31Z</time>
      </trkpt>
      <trkpt lat="47.55605" lon="3.74333">
        <ele>210.67</ele>
        <time>2022-04-17T09:35:41Z</time>
      </trkpt>
      <trkpt lat="47.55601" lon="3.74335">
        <ele>210.67</ele>
        <time>2022-04-17T09:35:56Z</time>
      </trkpt>
      <trkpt lat="47.556" lon="3.74335">
        <ele>210.19</ele>
        <time>2022-04-17T09:36:10Z</time>
      </trkpt>
      <trkpt lat="47.556" lon="3.74334">
        <ele>211.15</ele>
        <time>2022-04-17T09:36:27Z</time>
      </trkpt>
      <trkpt lat="47.55593" lon="3.74333">
        <ele>211.15</ele>
        <time>2022-04-17T09:36:38Z</time>
      </trkpt>
      <trkpt lat="47.55589" lon="3.74332">
        <ele>210.19</ele>
        <time>2022-04-17T09:36:53Z</time>
      </trkpt>
      <trkpt lat="47.55588" lon="3.74328">
        <ele>210.67</ele>
        <time>2022-04-17T09:37:09Z</time>
      </trkpt>
      <trkpt lat="47.55588" lon="3.74327">
        <ele>210.67</ele>
        <time>2022-04-17T09:37:23Z</time>
      </trkpt>
      <trkpt lat="47.55587" lon="3.74331">
        <ele>210.67</ele>
        <time>2022-04-17T09:37:37Z</time>
      </trkpt>
      <trkpt lat="47.55586" lon="3.74333">
        <ele>210.67</ele>
        <time>2022-04-17T09:37:51Z</time>
      </trkpt>
      <trkpt lat="47.55582" lon="3.74335">
        <ele>210.67</ele>
        <time>2022-04-17T09:38:03Z</time>
      </trkpt>
      <trkpt lat="47.55581" lon="3.74333">
        <ele>210.67</ele>
        <time>2022-04-17T09:38:18Z</time>
      </trkpt>
      <trkpt lat="47.55581" lon="3.74333">
        <ele>210.67</ele>
        <time>2022-04-17T09:38:33Z</time>
      </trkpt>
      <trkpt lat="47.55582" lon="3.74336">
        <ele>210.19</ele>
        <time>2022-04-17T09:38:44Z</time>
      </trkpt>
      <trkpt lat="47.55584" lon="3.74335">
        <ele>210.67</ele>
        <time>2022-04-17T09:38:56Z</time>
      </trkpt>
      <trkpt lat="47.55586" lon="3.74333">
        <ele>210.67</ele>
        <time>2022-04-17T09:39:09Z</time>
      </trkpt>
      <trkpt lat="47.55589" lon="3.74334">
        <ele>211.15</ele>
        <time>2022-04-17T09:39:22Z</time>
      </trkpt>
      <trkpt lat="47.55589" lon="3.74333">
        <ele>210.19</ele>
        <time>2022-04-17T09:39:39Z</time>
      </trkpt>
      <trkpt lat="47.55593" lon="3.7434">
        <ele>210.19</ele>
        <time>2022-04-17T09:39:49Z</time>
      </trkpt>
      <trkpt lat="47.55594" lon="3.74339">
        <ele>210.67</ele>
        <time>2022-04-17T09:40:02Z</time>
      </trkpt>
      <trkpt lat="47.55594" lon="3.74339">
        <ele>210.67</ele>
        <time>2022-04-17T09:40:18Z</time>
      </trkpt>
      <trkpt lat="47.55594" lon="3.74338">
        <ele>210.67</ele>
        <time>2022-04-17T09:40:42Z</time>
      </trkpt>
      <trkpt lat="47.55594" lon="3.74337">
        <ele>210.67</ele>
        <time>2022-04-17T09:41:02Z</time>
      </trkpt>
      <trkpt lat="47.55594" lon="3.74337">
        <ele>210.67</ele>
        <time>2022-04-17T09:41:17Z</time>
      </trkpt>
      <trkpt lat="47.55593" lon="3.74336">
        <ele>210.67</ele>
        <time>2022-04-17T09:41:37Z</time>
      </trkpt>
      <trkpt lat="47.55589" lon="3.7433">
        <ele>211.15</ele>
        <time>2022-04-17T09:41:49Z</time>
      </trkpt>
      <trkpt lat="47.55589" lon="3.7433">
        <ele>210.67</ele>
        <time>2022-04-17T09:42:03Z</time>
      </trkpt>
      <trkpt lat="47.55592" lon="3.74336">
        <ele>210.67</ele>
        <time>2022-04-17T09:42:16Z</time>
      </trkpt>
      <trkpt lat="47.55593" lon="3.74336">
        <ele>210.67</ele>
        <time>2022-04-17T09:42:32Z</time>
      </trkpt>
      <trkpt lat="47.55601" lon="3.74335">
        <ele>211.15</ele>
        <time>2022-04-17T09:42:41Z</time>
      </trkpt>
      <trkpt lat="47.55613" lon="3.74331">
        <ele>211.63</ele>
        <time>2022-04-17T09:42:56Z</time>
      </trkpt>
      <trkpt lat="47.55617" lon="3.7433">
        <ele>211.63</ele>
        <time>2022-04-17T09:42:59Z</time>
      </trkpt>
      <trkpt lat="47.55628" lon="3.74328">
        <ele>211.63</ele>
        <time>2022-04-17T09:43:10Z</time>
      </trkpt>
      <trkpt lat="47.55632" lon="3.74332">
        <ele>212.11</ele>
        <time>2022-04-17T09:43:14Z</time>
      </trkpt>
      <trkpt lat="47.55637" lon="3.74334">
        <ele>211.15</ele>
        <time>2022-04-17T09:43:20Z</time>
      </trkpt>
      <trkpt lat="47.55648" lon="3.74331">
        <ele>211.15</ele>
        <time>2022-04-17T09:43:28Z</time>
      </trkpt>
      <trkpt lat="47.55636" lon="3.74309">
        <ele>212.11</ele>
        <time>2022-04-17T09:43:44Z</time>
      </trkpt>
      <trkpt lat="47.55633" lon="3.74305">
        <ele>212.11</ele>
        <time>2022-04-17T09:43:47Z</time>
      </trkpt>
      <trkpt lat="47.55625" lon="3.74293">
        <ele>212.11</ele>
        <time>2022-04-17T09:43:56Z</time>
      </trkpt>
      <trkpt lat="47.55618" lon="3.74276">
        <ele>212.59</ele>
        <time>2022-04-17T09:44:09Z</time>
      </trkpt>
      <trkpt lat="47.55616" lon="3.74274">
        <ele>213.07</ele>
        <time>2022-04-17T09:44:11Z</time>
      </trkpt>
      <trkpt lat="47.55613" lon="3.74271">
        <ele>213.55</ele>
        <time>2022-04-17T09:44:14Z</time>
      </trkpt>
      <trkpt lat="47.55604" lon="3.74262">
        <ele>213.55</ele>
        <time>2022-04-17T09:44:22Z</time>
      </trkpt>
      <trkpt lat="47.55591" lon="3.74252">
        <ele>213.07</ele>
        <time>2022-04-17T09:44:34Z</time>
      </trkpt>
      <trkpt lat="47.55587" lon="3.74245">
        <ele>213.55</ele>
        <time>2022-04-17T09:44:39Z</time>
      </trkpt>
      <trkpt lat="47.55578" lon="3.74233">
        <ele>213.55</ele>
        <time>2022-04-17T09:44:47Z</time>
      </trkpt>
      <trkpt lat="47.55562" lon="3.7422">
        <ele>214.03</ele>
        <time>2022-04-17T09:45:02Z</time>
      </trkpt>
      <trkpt lat="47.55549" lon="3.7421">
        <ele>213.55</ele>
        <time>2022-04-17T09:45:14Z</time>
      </trkpt>
      <trkpt lat="47.55531" lon="3.742">
        <ele>213.07</ele>
        <time>2022-04-17T09:45:27Z</time>
      </trkpt>
      <trkpt lat="47.55525" lon="3.74197">
        <ele>213.55</ele>
        <time>2022-04-17T09:45:32Z</time>
      </trkpt>
      <trkpt lat="47.5552" lon="3.74196">
        <ele>213.55</ele>
        <time>2022-04-17T09:45:36Z</time>
      </trkpt>
      <trkpt lat="47.5551" lon="3.7419">
        <ele>213.07</ele>
        <time>2022-04-17T09:45:45Z</time>
      </trkpt>
      <trkpt lat="47.55507" lon="3.74189">
        <ele>213.07</ele>
        <time>2022-04-17T09:45:47Z</time>
      </trkpt>
      <trkpt lat="47.55488" lon="3.74178">
        <ele>213.07</ele>
        <time>2022-04-17T09:46:02Z</time>
      </trkpt>
      <trkpt lat="47.55479" lon="3.74174">
        <ele>212.59</ele>
        <time>2022-04-17T09:46:10Z</time>
      </trkpt>
      <trkpt lat="47.55471" lon="3.74167">
        <ele>212.11</ele>
        <time>2022-04-17T09:46:16Z</time>
      </trkpt>
      <trkpt lat="47.55454" lon="3.74156">
        <ele>211.63</ele>
        <time>2022-04-17T09:46:31Z</time>
      </trkpt>
      <trkpt lat="47.55449" lon="3.74154">
        <ele>211.15</ele>
        <time>2022-04-17T09:46:35Z</time>
      </trkpt>
      <trkpt lat="47.55447" lon="3.74155">
        <ele>211.15</ele>
        <time>2022-04-17T09:46:37Z</time>
      </trkpt>
      <trkpt lat="47.55436" lon="3.74152">
        <ele>211.15</ele>
        <time>2022-04-17T09:46:45Z</time>
      </trkpt>
      <trkpt lat="47.55413" lon="3.74147">
        <ele>211.15</ele>
        <time>2022-04-17T09:47:01Z</time>
      </trkpt>
      <trkpt lat="47.55393" lon="3.74149">
        <ele>212.11</ele>
        <time>2022-04-17T09:47:17Z</time>
      </trkpt>
      <trkpt lat="47.5538" lon="3.74153">
        <ele>213.07</ele>
        <time>2022-04-17T09:47:28Z</time>
      </trkpt>
      <trkpt lat="47.5536" lon="3.74154">
        <ele>213.55</ele>
        <time>2022-04-17T09:47:42Z</time>
      </trkpt>
      <trkpt lat="47.55338" lon="3.74152">
        <ele>213.07</ele>
        <time>2022-04-17T09:47:59Z</time>
      </trkpt>
      <trkpt lat="47.55315" lon="3.7415">
        <ele>214.03</ele>
        <time>2022-04-17T09:48:16Z</time>
      </trkpt>
      <trkpt lat="47.55308" lon="3.7415">
        <ele>214.03</ele>
        <time>2022-04-17T09:48:21Z</time>
      </trkpt>
      <trkpt lat="47.5529" lon="3.74148">
        <ele>214.03</ele>
        <time>2022-04-17T09:48:35Z</time>
      </trkpt>
      <trkpt lat="47.55268" lon="3.74142">
        <ele>214.51</ele>
        <time>2022-04-17T09:48:51Z</time>
      </trkpt>
      <trkpt lat="47.55248" lon="3.74141">
        <ele>213.55</ele>
        <time>2022-04-17T09:49:05Z</time>
      </trkpt>
      <trkpt lat="47.55232" lon="3.74139">
        <ele>213.55</ele>
        <time>2022-04-17T09:49:17Z</time>
      </trkpt>
      <trkpt lat="47.55212" lon="3.74133">
        <ele>214.03</ele>
        <time>2022-04-17T09:49:31Z</time>
      </trkpt>
      <trkpt lat="47.55189" lon="3.7413">
        <ele>214.03</ele>
        <time>2022-04-17T09:49:47Z</time>
      </trkpt>
      <trkpt lat="47.5518" lon="3.74129">
        <ele>214.03</ele>
        <time>2022-04-17T09:49:53Z</time>
      </trkpt>
      <trkpt lat="47.55178" lon="3.74128">
        <ele>214.03</ele>
        <time>2022-04-17T09:49:55Z</time>
      </trkpt>
      <trkpt lat="47.55166" lon="3.74127">
        <ele>214.03</ele>
        <time>2022-04-17T09:50:03Z</time>
      </trkpt>
      <trkpt lat="47.55148" lon="3.7413">
        <ele>214.03</ele>
        <time>2022-04-17T09:50:17Z</time>
      </trkpt>
      <trkpt lat="47.55131" lon="3.74134">
        <ele>214.99</ele>
        <time>2022-04-17T09:50:30Z</time>
      </trkpt>
      <trkpt lat="47.55121" lon="3.7414">
        <ele>215.95</ele>
        <time>2022-04-17T09:50:40Z</time>
      </trkpt>
      <trkpt lat="47.55104" lon="3.74151">
        <ele>215.95</ele>
        <time>2022-04-17T09:50:54Z</time>
      </trkpt>
      <trkpt lat="47.55091" lon="3.74167">
        <ele>217.4</ele>
        <time>2022-04-17T09:51:06Z</time>
      </trkpt>
      <trkpt lat="47.5509" lon="3.74169">
        <ele>217.88</ele>
        <time>2022-04-17T09:51:07Z</time>
      </trkpt>
      <trkpt lat="47.55087" lon="3.74176">
        <ele>217.88</ele>
        <time>2022-04-17T09:51:11Z</time>
      </trkpt>
      <trkpt lat="47.55075" lon="3.74199">
        <ele>218.36</ele>
        <time>2022-04-17T09:51:25Z</time>
      </trkpt>
      <trkpt lat="47.55066" lon="3.74217">
        <ele>219.32</ele>
        <time>2022-04-17T09:51:37Z</time>
      </trkpt>
      <trkpt lat="47.55052" lon="3.74236">
        <ele>219.8</ele>
        <time>2022-04-17T09:51:52Z</time>
      </trkpt>
      <trkpt lat="47.55051" lon="3.74239">
        <ele>219.8</ele>
        <time>2022-04-17T09:51:54Z</time>
      </trkpt>
      <trkpt lat="47.55044" lon="3.74245">
        <ele>220.28</ele>
        <time>2022-04-17T09:51:59Z</time>
      </trkpt>
      <trkpt lat="47.55033" lon="3.74261">
        <ele>220.76</ele>
        <time>2022-04-17T09:52:11Z</time>
      </trkpt>
      <trkpt lat="47.55014" lon="3.74276">
        <ele>221.24</ele>
        <time>2022-04-17T09:52:27Z</time>
      </trkpt>
      <trkpt lat="47.55002" lon="3.74293">
        <ele>221.24</ele>
        <time>2022-04-17T09:52:39Z</time>
      </trkpt>
      <trkpt lat="47.54987" lon="3.74311">
        <ele>222.2</ele>
        <time>2022-04-17T09:52:53Z</time>
      </trkpt>
      <trkpt lat="47.54981" lon="3.74317">
        <ele>222.68</ele>
        <time>2022-04-17T09:52:59Z</time>
      </trkpt>
      <trkpt lat="47.54976" lon="3.74325">
        <ele>222.68</ele>
        <time>2022-04-17T09:53:04Z</time>
      </trkpt>
      <trkpt lat="47.5497" lon="3.74331">
        <ele>222.2</ele>
        <time>2022-04-17T09:53:08Z</time>
      </trkpt>
      <trkpt lat="47.54961" lon="3.74343">
        <ele>222.2</ele>
        <time>2022-04-17T09:53:16Z</time>
      </trkpt>
      <trkpt lat="47.54959" lon="3.74348">
        <ele>221.72</ele>
        <time>2022-04-17T09:53:19Z</time>
      </trkpt>
      <trkpt lat="47.54948" lon="3.74368">
        <ele>220.28</ele>
        <time>2022-04-17T09:53:35Z</time>
      </trkpt>
      <trkpt lat="47.54946" lon="3.74371">
        <ele>220.28</ele>
        <time>2022-04-17T09:53:37Z</time>
      </trkpt>
      <trkpt lat="47.54931" lon="3.74395">
        <ele>219.8</ele>
        <time>2022-04-17T09:53:52Z</time>
      </trkpt>
      <trkpt lat="47.54915" lon="3.7442">
        <ele>218.84</ele>
        <time>2022-04-17T09:54:07Z</time>
      </trkpt>
      <trkpt lat="47.54898" lon="3.74436">
        <ele>217.88</ele>
        <time>2022-04-17T09:54:21Z</time>
      </trkpt>
      <trkpt lat="47.54884" lon="3.74454">
        <ele>217.4</ele>
        <time>2022-04-17T09:54:35Z</time>
      </trkpt>
      <trkpt lat="47.54872" lon="3.74474">
        <ele>215.95</ele>
        <time>2022-04-17T09:54:49Z</time>
      </trkpt>
      <trkpt lat="47.54875" lon="3.74499">
        <ele>215.95</ele>
        <time>2022-04-17T09:55:00Z</time>
      </trkpt>
      <trkpt lat="47.54877" lon="3.74521">
        <ele>214.99</ele>
        <time>2022-04-17T09:55:12Z</time>
      </trkpt>
      <trkpt lat="47.54875" lon="3.74534">
        <ele>215.47</ele>
        <time>2022-04-17T09:55:16Z</time>
      </trkpt>
      <trkpt lat="47.54859" lon="3.74557">
        <ele>214.51</ele>
        <time>2022-04-17T09:55:31Z</time>
      </trkpt>
      <trkpt lat="47.54838" lon="3.74573">
        <ele>213.55</ele>
        <time>2022-04-17T09:55:48Z</time>
      </trkpt>
      <trkpt lat="47.54818" lon="3.74587">
        <ele>213.55</ele>
        <time>2022-04-17T09:56:03Z</time>
      </trkpt>
      <trkpt lat="47.54798" lon="3.74603">
        <ele>211.63</ele>
        <time>2022-04-17T09:56:19Z</time>
      </trkpt>
      <trkpt lat="47.5478" lon="3.74622">
        <ele>210.19</ele>
        <time>2022-04-17T09:56:34Z</time>
      </trkpt>
      <trkpt lat="47.5476" lon="3.74641">
        <ele>209.7</ele>
        <time>2022-04-17T09:56:51Z</time>
      </trkpt>
      <trkpt lat="47.54748" lon="3.74652">
        <ele>209.7</ele>
        <time>2022-04-17T09:57:03Z</time>
      </trkpt>
      <trkpt lat="47.54739" lon="3.74657">
        <ele>208.74</ele>
        <time>2022-04-17T09:57:15Z</time>
      </trkpt>
      <trkpt lat="47.54739" lon="3.74657">
        <ele>208.26</ele>
        <time>2022-04-17T09:57:28Z</time>
      </trkpt>
      <trkpt lat="47.54727" lon="3.74669">
        <ele>209.22</ele>
        <time>2022-04-17T09:57:39Z</time>
      </trkpt>
      <trkpt lat="47.54708" lon="3.74686">
        <ele>208.74</ele>
        <time>2022-04-17T09:57:54Z</time>
      </trkpt>
      <trkpt lat="47.54691" lon="3.74704">
        <ele>208.74</ele>
        <time>2022-04-17T09:58:08Z</time>
      </trkpt>
      <trkpt lat="47.54675" lon="3.74716">
        <ele>207.3</ele>
        <time>2022-04-17T09:58:23Z</time>
      </trkpt>
      <trkpt lat="47.54652" lon="3.74736">
        <ele>206.34</ele>
        <time>2022-04-17T09:58:41Z</time>
      </trkpt>
      <trkpt lat="47.54635" lon="3.74753">
        <ele>206.34</ele>
        <time>2022-04-17T09:58:56Z</time>
      </trkpt>
      <trkpt lat="47.54616" lon="3.74771">
        <ele>206.82</ele>
        <time>2022-04-17T09:59:13Z</time>
      </trkpt>
      <trkpt lat="47.54596" lon="3.74785">
        <ele>208.26</ele>
        <time>2022-04-17T09:59:30Z</time>
      </trkpt>
      <trkpt lat="47.54573" lon="3.748">
        <ele>208.74</ele>
        <time>2022-04-17T09:59:48Z</time>
      </trkpt>
      <trkpt lat="47.5455" lon="3.74817">
        <ele>209.7</ele>
        <time>2022-04-17T10:00:06Z</time>
      </trkpt>
      <trkpt lat="47.54529" lon="3.74832">
        <ele>209.7</ele>
        <time>2022-04-17T10:00:23Z</time>
      </trkpt>
      <trkpt lat="47.5451" lon="3.74843">
        <ele>209.7</ele>
        <time>2022-04-17T10:00:39Z</time>
      </trkpt>
      <trkpt lat="47.54487" lon="3.74857">
        <ele>210.19</ele>
        <time>2022-04-17T10:00:58Z</time>
      </trkpt>
      <trkpt lat="47.54465" lon="3.74872">
        <ele>210.67</ele>
        <time>2022-04-17T10:01:15Z</time>
      </trkpt>
      <trkpt lat="47.54446" lon="3.74881">
        <ele>210.19</ele>
        <time>2022-04-17T10:01:30Z</time>
      </trkpt>
      <trkpt lat="47.54427" lon="3.74889">
        <ele>210.67</ele>
        <time>2022-04-17T10:01:46Z</time>
      </trkpt>
      <trkpt lat="47.54407" lon="3.74896">
        <ele>211.15</ele>
        <time>2022-04-17T10:02:01Z</time>
      </trkpt>
      <trkpt lat="47.54386" lon="3.74902">
        <ele>211.63</ele>
        <time>2022-04-17T10:02:18Z</time>
      </trkpt>
      <trkpt lat="47.54361" lon="3.74911">
        <ele>212.11</ele>
        <time>2022-04-17T10:02:36Z</time>
      </trkpt>
      <trkpt lat="47.54337" lon="3.74916">
        <ele>212.11</ele>
        <time>2022-04-17T10:02:54Z</time>
      </trkpt>
      <trkpt lat="47.54313" lon="3.74919">
        <ele>213.07</ele>
        <time>2022-04-17T10:03:12Z</time>
      </trkpt>
      <trkpt lat="47.54286" lon="3.74927">
        <ele>214.03</ele>
        <time>2022-04-17T10:03:31Z</time>
      </trkpt>
      <trkpt lat="47.54261" lon="3.74931">
        <ele>214.99</ele>
        <time>2022-04-17T10:03:49Z</time>
      </trkpt>
      <trkpt lat="47.54233" lon="3.74939">
        <ele>217.4</ele>
        <time>2022-04-17T10:04:10Z</time>
      </trkpt>
      <trkpt lat="47.54214" lon="3.74947">
        <ele>218.36</ele>
        <time>2022-04-17T10:04:25Z</time>
      </trkpt>
      <trkpt lat="47.542" lon="3.74953">
        <ele>218.36</ele>
        <time>2022-04-17T10:04:38Z</time>
      </trkpt>
      <trkpt lat="47.54184" lon="3.74954">
        <ele>218.84</ele>
        <time>2022-04-17T10:04:52Z</time>
      </trkpt>
      <trkpt lat="47.54169" lon="3.74958">
        <ele>219.8</ele>
        <time>2022-04-17T10:05:05Z</time>
      </trkpt>
      <trkpt lat="47.54156" lon="3.74964">
        <ele>219.8</ele>
        <time>2022-04-17T10:05:16Z</time>
      </trkpt>
      <trkpt lat="47.54139" lon="3.74967">
        <ele>221.24</ele>
        <time>2022-04-17T10:05:29Z</time>
      </trkpt>
      <trkpt lat="47.54128" lon="3.74971">
        <ele>221.72</ele>
        <time>2022-04-17T10:05:38Z</time>
      </trkpt>
      <trkpt lat="47.54113" lon="3.74974">
        <ele>222.68</ele>
        <time>2022-04-17T10:05:50Z</time>
      </trkpt>
      <trkpt lat="47.541" lon="3.74978">
        <ele>223.16</ele>
        <time>2022-04-17T10:06:01Z</time>
      </trkpt>
      <trkpt lat="47.54093" lon="3.7498">
        <ele>224.12</ele>
        <time>2022-04-17T10:06:09Z</time>
      </trkpt>
      <trkpt lat="47.54082" lon="3.74987">
        <ele>223.64</ele>
        <time>2022-04-17T10:06:19Z</time>
      </trkpt>
      <trkpt lat="47.54074" lon="3.74992">
        <ele>225.09</ele>
        <time>2022-04-17T10:06:26Z</time>
      </trkpt>
      <trkpt lat="47.54059" lon="3.75">
        <ele>225.57</ele>
        <time>2022-04-17T10:06:37Z</time>
      </trkpt>
      <trkpt lat="47.5404" lon="3.75009">
        <ele>227.01</ele>
        <time>2022-04-17T10:06:50Z</time>
      </trkpt>
      <trkpt lat="47.54021" lon="3.75019">
        <ele>227.97</ele>
        <time>2022-04-17T10:07:05Z</time>
      </trkpt>
      <trkpt lat="47.54016" lon="3.75022">
        <ele>228.93</ele>
        <time>2022-04-17T10:07:12Z</time>
      </trkpt>
      <trkpt lat="47.54007" lon="3.75028">
        <ele>229.41</ele>
        <time>2022-04-17T10:07:19Z</time>
      </trkpt>
      <trkpt lat="47.53996" lon="3.75035">
        <ele>230.37</ele>
        <time>2022-04-17T10:07:28Z</time>
      </trkpt>
      <trkpt lat="47.53978" lon="3.75049">
        <ele>230.37</ele>
        <time>2022-04-17T10:07:40Z</time>
      </trkpt>
      <trkpt lat="47.5397" lon="3.75063">
        <ele>231.33</ele>
        <time>2022-04-17T10:07:52Z</time>
      </trkpt>
      <trkpt lat="47.53953" lon="3.7508">
        <ele>232.3</ele>
        <time>2022-04-17T10:08:06Z</time>
      </trkpt>
      <trkpt lat="47.5395" lon="3.75081">
        <ele>232.3</ele>
        <time>2022-04-17T10:08:09Z</time>
      </trkpt>
      <trkpt lat="47.53934" lon="3.75091">
        <ele>233.26</ele>
        <time>2022-04-17T10:08:22Z</time>
      </trkpt>
      <trkpt lat="47.53919" lon="3.75102">
        <ele>233.26</ele>
        <time>2022-04-17T10:08:35Z</time>
      </trkpt>
      <trkpt lat="47.53914" lon="3.75104">
        <ele>233.26</ele>
        <time>2022-04-17T10:08:39Z</time>
      </trkpt>
      <trkpt lat="47.53905" lon="3.75109">
        <ele>233.26</ele>
        <time>2022-04-17T10:08:47Z</time>
      </trkpt>
      <trkpt lat="47.53889" lon="3.75119">
        <ele>234.22</ele>
        <time>2022-04-17T10:08:59Z</time>
      </trkpt>
      <trkpt lat="47.5388" lon="3.75125">
        <ele>235.66</ele>
        <time>2022-04-17T10:09:10Z</time>
      </trkpt>
      <trkpt lat="47.53879" lon="3.75128">
        <ele>235.66</ele>
        <time>2022-04-17T10:09:11Z</time>
      </trkpt>
      <trkpt lat="47.53874" lon="3.75134">
        <ele>235.66</ele>
        <time>2022-04-17T10:09:14Z</time>
      </trkpt>
      <trkpt lat="47.5387" lon="3.75137">
        <ele>236.62</ele>
        <time>2022-04-17T10:09:17Z</time>
      </trkpt>
      <trkpt lat="47.53861" lon="3.75149">
        <ele>237.1</ele>
        <time>2022-04-17T10:09:28Z</time>
      </trkpt>
      <trkpt lat="47.53852" lon="3.75155">
        <ele>238.06</ele>
        <time>2022-04-17T10:09:37Z</time>
      </trkpt>
      <trkpt lat="47.53841" lon="3.75167">
        <ele>238.54</ele>
        <time>2022-04-17T10:09:46Z</time>
      </trkpt>
      <trkpt lat="47.53836" lon="3.7517">
        <ele>239.02</ele>
        <time>2022-04-17T10:09:53Z</time>
      </trkpt>
      <trkpt lat="47.53832" lon="3.75173">
        <ele>239.02</ele>
        <time>2022-04-17T10:09:54Z</time>
      </trkpt>
      <trkpt lat="47.53821" lon="3.75183">
        <ele>239.02</ele>
        <time>2022-04-17T10:10:01Z</time>
      </trkpt>
      <trkpt lat="47.53805" lon="3.75196">
        <ele>240.47</ele>
        <time>2022-04-17T10:10:13Z</time>
      </trkpt>
      <trkpt lat="47.53798" lon="3.75198">
        <ele>240.95</ele>
        <time>2022-04-17T10:10:24Z</time>
      </trkpt>
      <trkpt lat="47.53781" lon="3.75205">
        <ele>241.43</ele>
        <time>2022-04-17T10:10:36Z</time>
      </trkpt>
      <trkpt lat="47.53768" lon="3.75208">
        <ele>241.91</ele>
        <time>2022-04-17T10:10:50Z</time>
      </trkpt>
      <trkpt lat="47.53764" lon="3.7521">
        <ele>242.39</ele>
        <time>2022-04-17T10:10:53Z</time>
      </trkpt>
      <trkpt lat="47.53743" lon="3.75223">
        <ele>242.87</ele>
        <time>2022-04-17T10:11:05Z</time>
      </trkpt>
      <trkpt lat="47.53731" lon="3.75229">
        <ele>243.83</ele>
        <time>2022-04-17T10:11:16Z</time>
      </trkpt>
      <trkpt lat="47.53716" lon="3.7524">
        <ele>244.31</ele>
        <time>2022-04-17T10:11:28Z</time>
      </trkpt>
      <trkpt lat="47.53707" lon="3.75242">
        <ele>245.27</ele>
        <time>2022-04-17T10:11:38Z</time>
      </trkpt>
      <trkpt lat="47.537" lon="3.75244">
        <ele>244.79</ele>
        <time>2022-04-17T10:11:44Z</time>
      </trkpt>
      <trkpt lat="47.5369" lon="3.75247">
        <ele>245.27</ele>
        <time>2022-04-17T10:11:51Z</time>
      </trkpt>
      <trkpt lat="47.53685" lon="3.7525">
        <ele>245.27</ele>
        <time>2022-04-17T10:11:54Z</time>
      </trkpt>
      <trkpt lat="47.53668" lon="3.75256">
        <ele>245.75</ele>
        <time>2022-04-17T10:12:08Z</time>
      </trkpt>
      <trkpt lat="47.53664" lon="3.75258">
        <ele>246.23</ele>
        <time>2022-04-17T10:12:14Z</time>
      </trkpt>
      <trkpt lat="47.53645" lon="3.75261">
        <ele>246.23</ele>
        <time>2022-04-17T10:12:27Z</time>
      </trkpt>
      <trkpt lat="47.5363" lon="3.75264">
        <ele>246.72</ele>
        <time>2022-04-17T10:12:39Z</time>
      </trkpt>
      <trkpt lat="47.53608" lon="3.75269">
        <ele>246.72</ele>
        <time>2022-04-17T10:12:53Z</time>
      </trkpt>
      <trkpt lat="47.53601" lon="3.75267">
        <ele>246.72</ele>
        <time>2022-04-17T10:12:59Z</time>
      </trkpt>
      <trkpt lat="47.53596" lon="3.75267">
        <ele>246.72</ele>
        <time>2022-04-17T10:13:02Z</time>
      </trkpt>
      <trkpt lat="47.53592" lon="3.75266">
        <ele>246.72</ele>
        <time>2022-04-17T10:13:05Z</time>
      </trkpt>
      <trkpt lat="47.53576" lon="3.75264">
        <ele>247.2</ele>
        <time>2022-04-17T10:13:17Z</time>
      </trkpt>
      <trkpt lat="47.53569" lon="3.75266">
        <ele>246.72</ele>
        <time>2022-04-17T10:13:22Z</time>
      </trkpt>
      <trkpt lat="47.53568" lon="3.75269">
        <ele>246.23</ele>
        <time>2022-04-17T10:13:24Z</time>
      </trkpt>
      <trkpt lat="47.53567" lon="3.75275">
        <ele>245.75</ele>
        <time>2022-04-17T10:13:28Z</time>
      </trkpt>
      <trkpt lat="47.53568" lon="3.7529">
        <ele>243.83</ele>
        <time>2022-04-17T10:13:37Z</time>
      </trkpt>
      <trkpt lat="47.53568" lon="3.75295">
        <ele>243.83</ele>
        <time>2022-04-17T10:13:40Z</time>
      </trkpt>
      <trkpt lat="47.53565" lon="3.75307">
        <ele>243.35</ele>
        <time>2022-04-17T10:13:47Z</time>
      </trkpt>
      <trkpt lat="47.53561" lon="3.7533">
        <ele>241.43</ele>
        <time>2022-04-17T10:14:00Z</time>
      </trkpt>
      <trkpt lat="47.53557" lon="3.75361">
        <ele>239.51</ele>
        <time>2022-04-17T10:14:13Z</time>
      </trkpt>
      <trkpt lat="47.53554" lon="3.75378">
        <ele>238.54</ele>
        <time>2022-04-17T10:14:21Z</time>
      </trkpt>
      <trkpt lat="47.53553" lon="3.75388">
        <ele>238.06</ele>
        <time>2022-04-17T10:14:26Z</time>
      </trkpt>
      <trkpt lat="47.53554" lon="3.75397">
        <ele>237.58</ele>
        <time>2022-04-17T10:14:30Z</time>
      </trkpt>
      <trkpt lat="47.53553" lon="3.75408">
        <ele>237.58</ele>
        <time>2022-04-17T10:14:36Z</time>
      </trkpt>
      <trkpt lat="47.53551" lon="3.75446">
        <ele>237.1</ele>
        <time>2022-04-17T10:14:53Z</time>
      </trkpt>
      <trkpt lat="47.53551" lon="3.75453">
        <ele>236.62</ele>
        <time>2022-04-17T10:14:56Z</time>
      </trkpt>
      <trkpt lat="47.53554" lon="3.75458">
        <ele>236.14</ele>
        <time>2022-04-17T10:15:00Z</time>
      </trkpt>
      <trkpt lat="47.53553" lon="3.75478">
        <ele>235.66</ele>
        <time>2022-04-17T10:15:13Z</time>
      </trkpt>
      <trkpt lat="47.53555" lon="3.75491">
        <ele>234.7</ele>
        <time>2022-04-17T10:15:26Z</time>
      </trkpt>
      <trkpt lat="47.53557" lon="3.75507">
        <ele>233.74</ele>
        <time>2022-04-17T10:15:38Z</time>
      </trkpt>
      <trkpt lat="47.53557" lon="3.75529">
        <ele>232.3</ele>
        <time>2022-04-17T10:15:51Z</time>
      </trkpt>
      <trkpt lat="47.53557" lon="3.75535">
        <ele>232.78</ele>
        <time>2022-04-17T10:15:54Z</time>
      </trkpt>
      <trkpt lat="47.53557" lon="3.7554">
        <ele>232.3</ele>
        <time>2022-04-17T10:15:57Z</time>
      </trkpt>
      <trkpt lat="47.53556" lon="3.75551">
        <ele>232.3</ele>
        <time>2022-04-17T10:16:03Z</time>
      </trkpt>
      <trkpt lat="47.53552" lon="3.75581">
        <ele>230.37</ele>
        <time>2022-04-17T10:16:18Z</time>
      </trkpt>
      <trkpt lat="47.5355" lon="3.75603">
        <ele>230.85</ele>
        <time>2022-04-17T10:16:24Z</time>
      </trkpt>
      <trkpt lat="47.53534" lon="3.75646">
        <ele>228.93</ele>
        <time>2022-04-17T10:16:38Z</time>
      </trkpt>
      <trkpt lat="47.5353" lon="3.75651">
        <ele>228.93</ele>
        <time>2022-04-17T10:16:42Z</time>
      </trkpt>
      <trkpt lat="47.53524" lon="3.7566">
        <ele>228.93</ele>
        <time>2022-04-17T10:16:48Z</time>
      </trkpt>
      <trkpt lat="47.53521" lon="3.75663">
        <ele>228.93</ele>
        <time>2022-04-17T10:16:51Z</time>
      </trkpt>
      <trkpt lat="47.53514" lon="3.75673">
        <ele>227.97</ele>
        <time>2022-04-17T10:16:59Z</time>
      </trkpt>
      <trkpt lat="47.535" lon="3.75695">
        <ele>226.53</ele>
        <time>2022-04-17T10:17:15Z</time>
      </trkpt>
      <trkpt lat="47.53498" lon="3.75698">
        <ele>227.01</ele>
        <time>2022-04-17T10:17:17Z</time>
      </trkpt>
      <trkpt lat="47.53487" lon="3.75716">
        <ele>225.57</ele>
        <time>2022-04-17T10:17:30Z</time>
      </trkpt>
      <trkpt lat="47.53476" lon="3.75733">
        <ele>224.61</ele>
        <time>2022-04-17T10:17:43Z</time>
      </trkpt>
      <trkpt lat="47.53464" lon="3.75749">
        <ele>223.16</ele>
        <time>2022-04-17T10:17:54Z</time>
      </trkpt>
      <trkpt lat="47.53444" lon="3.75768">
        <ele>222.68</ele>
        <time>2022-04-17T10:18:10Z</time>
      </trkpt>
      <trkpt lat="47.53438" lon="3.75771">
        <ele>221.72</ele>
        <time>2022-04-17T10:18:16Z</time>
      </trkpt>
      <trkpt lat="47.53431" lon="3.75777">
        <ele>220.76</ele>
        <time>2022-04-17T10:18:24Z</time>
      </trkpt>
      <trkpt lat="47.53417" lon="3.75791">
        <ele>219.8</ele>
        <time>2022-04-17T10:18:38Z</time>
      </trkpt>
      <trkpt lat="47.53405" lon="3.75802">
        <ele>219.8</ele>
        <time>2022-04-17T10:18:50Z</time>
      </trkpt>
      <trkpt lat="47.53396" lon="3.75816">
        <ele>220.28</ele>
        <time>2022-04-17T10:18:56Z</time>
      </trkpt>
      <trkpt lat="47.53382" lon="3.75844">
        <ele>220.76</ele>
        <time>2022-04-17T10:19:06Z</time>
      </trkpt>
      <trkpt lat="47.53375" lon="3.7587">
        <ele>222.68</ele>
        <time>2022-04-17T10:19:17Z</time>
      </trkpt>
      <trkpt lat="47.53372" lon="3.75883">
        <ele>223.64</ele>
        <time>2022-04-17T10:19:27Z</time>
      </trkpt>
      <trkpt lat="47.53364" lon="3.75885">
        <ele>224.61</ele>
        <time>2022-04-17T10:19:40Z</time>
      </trkpt>
      <trkpt lat="47.53362" lon="3.75885">
        <ele>225.09</ele>
        <time>2022-04-17T10:19:42Z</time>
      </trkpt>
      <trkpt lat="47.53356" lon="3.75882">
        <ele>226.05</ele>
        <time>2022-04-17T10:19:52Z</time>
      </trkpt>
      <trkpt lat="47.53345" lon="3.75882">
        <ele>227.49</ele>
        <time>2022-04-17T10:20:02Z</time>
      </trkpt>
      <trkpt lat="47.53331" lon="3.75878">
        <ele>228.45</ele>
        <time>2022-04-17T10:20:15Z</time>
      </trkpt>
      <trkpt lat="47.53318" lon="3.75872">
        <ele>229.89</ele>
        <time>2022-04-17T10:20:27Z</time>
      </trkpt>
      <trkpt lat="47.53307" lon="3.75868">
        <ele>231.33</ele>
        <time>2022-04-17T10:20:37Z</time>
      </trkpt>
      <trkpt lat="47.53296" lon="3.75863">
        <ele>232.78</ele>
        <time>2022-04-17T10:20:45Z</time>
      </trkpt>
      <trkpt lat="47.53291" lon="3.75856">
        <ele>233.26</ele>
        <time>2022-04-17T10:20:51Z</time>
      </trkpt>
      <trkpt lat="47.5328" lon="3.75845">
        <ele>233.26</ele>
        <time>2022-04-17T10:21:02Z</time>
      </trkpt>
      <trkpt lat="47.53272" lon="3.75837">
        <ele>233.26</ele>
        <time>2022-04-17T10:21:09Z</time>
      </trkpt>
      <trkpt lat="47.53262" lon="3.75823">
        <ele>233.74</ele>
        <time>2022-04-17T10:21:19Z</time>
      </trkpt>
      <trkpt lat="47.53251" lon="3.75817">
        <ele>236.14</ele>
        <time>2022-04-17T10:21:30Z</time>
      </trkpt>
      <trkpt lat="47.53242" lon="3.75828">
        <ele>238.06</ele>
        <time>2022-04-17T10:21:43Z</time>
      </trkpt>
      <trkpt lat="47.53238" lon="3.75831">
        <ele>238.54</ele>
        <time>2022-04-17T10:21:47Z</time>
      </trkpt>
      <trkpt lat="47.53235" lon="3.75834">
        <ele>239.51</ele>
        <time>2022-04-17T10:21:50Z</time>
      </trkpt>
      <trkpt lat="47.53231" lon="3.75839">
        <ele>239.51</ele>
        <time>2022-04-17T10:21:53Z</time>
      </trkpt>
      <trkpt lat="47.53217" lon="3.7585">
        <ele>241.91</ele>
        <time>2022-04-17T10:22:06Z</time>
      </trkpt>
      <trkpt lat="47.5321" lon="3.75857">
        <ele>243.35</ele>
        <time>2022-04-17T10:22:15Z</time>
      </trkpt>
      <trkpt lat="47.53207" lon="3.7586">
        <ele>243.35</ele>
        <time>2022-04-17T10:22:17Z</time>
      </trkpt>
      <trkpt lat="47.53196" lon="3.75871">
        <ele>244.79</ele>
        <time>2022-04-17T10:22:31Z</time>
      </trkpt>
      <trkpt lat="47.53184" lon="3.75884">
        <ele>246.72</ele>
        <time>2022-04-17T10:22:44Z</time>
      </trkpt>
      <trkpt lat="47.53176" lon="3.75893">
        <ele>247.68</ele>
        <time>2022-04-17T10:22:53Z</time>
      </trkpt>
      <trkpt lat="47.53164" lon="3.75904">
        <ele>248.64</ele>
        <time>2022-04-17T10:23:04Z</time>
      </trkpt>
      <trkpt lat="47.53156" lon="3.75912">
        <ele>249.6</ele>
        <time>2022-04-17T10:23:10Z</time>
      </trkpt>
      <trkpt lat="47.53136" lon="3.75933">
        <ele>250.56</ele>
        <time>2022-04-17T10:23:23Z</time>
      </trkpt>
      <trkpt lat="47.53131" lon="3.75938">
        <ele>250.08</ele>
        <time>2022-04-17T10:23:26Z</time>
      </trkpt>
      <trkpt lat="47.53115" lon="3.75953">
        <ele>250.56</ele>
        <time>2022-04-17T10:23:38Z</time>
      </trkpt>
      <trkpt lat="47.53101" lon="3.75969">
        <ele>251.52</ele>
        <time>2022-04-17T10:23:51Z</time>
      </trkpt>
      <trkpt lat="47.53092" lon="3.75978">
        <ele>252</ele>
        <time>2022-04-17T10:24:02Z</time>
      </trkpt>
      <trkpt lat="47.53082" lon="3.75987">
        <ele>252</ele>
        <time>2022-04-17T10:24:11Z</time>
      </trkpt>
      <trkpt lat="47.53073" lon="3.75996">
        <ele>252.48</ele>
        <time>2022-04-17T10:24:19Z</time>
      </trkpt>
      <trkpt lat="47.53062" lon="3.76008">
        <ele>252.96</ele>
        <time>2022-04-17T10:24:31Z</time>
      </trkpt>
      <trkpt lat="47.53047" lon="3.76022">
        <ele>252.96</ele>
        <time>2022-04-17T10:24:39Z</time>
      </trkpt>
      <trkpt lat="47.53028" lon="3.76037">
        <ele>252.96</ele>
        <time>2022-04-17T10:24:53Z</time>
      </trkpt>
      <trkpt lat="47.53008" lon="3.76058">
        <ele>252.48</ele>
        <time>2022-04-17T10:25:08Z</time>
      </trkpt>
      <trkpt lat="47.5299" lon="3.76076">
        <ele>252.48</ele>
        <time>2022-04-17T10:25:23Z</time>
      </trkpt>
      <trkpt lat="47.52974" lon="3.76095">
        <ele>252.96</ele>
        <time>2022-04-17T10:25:39Z</time>
      </trkpt>
      <trkpt lat="47.52961" lon="3.7611">
        <ele>252.48</ele>
        <time>2022-04-17T10:25:53Z</time>
      </trkpt>
      <trkpt lat="47.52946" lon="3.76122">
        <ele>251.04</ele>
        <time>2022-04-17T10:26:06Z</time>
      </trkpt>
      <trkpt lat="47.52943" lon="3.76122">
        <ele>250.56</ele>
        <time>2022-04-17T10:26:08Z</time>
      </trkpt>
      <trkpt lat="47.52933" lon="3.76117">
        <ele>251.04</ele>
        <time>2022-04-17T10:26:17Z</time>
      </trkpt>
      <trkpt lat="47.52924" lon="3.76114">
        <ele>251.04</ele>
        <time>2022-04-17T10:26:29Z</time>
      </trkpt>
      <trkpt lat="47.52924" lon="3.76114">
        <ele>251.04</ele>
        <time>2022-04-17T10:26:30Z</time>
      </trkpt>
      <trkpt lat="47.52915" lon="3.76108">
        <ele>251.04</ele>
        <time>2022-04-17T10:26:35Z</time>
      </trkpt>
      <trkpt lat="47.52911" lon="3.76105">
        <ele>251.52</ele>
        <time>2022-04-17T10:26:37Z</time>
      </trkpt>
      <trkpt lat="47.52903" lon="3.76094">
        <ele>251.52</ele>
        <time>2022-04-17T10:26:45Z</time>
      </trkpt>
      <trkpt lat="47.52893" lon="3.76078">
        <ele>251.52</ele>
        <time>2022-04-17T10:26:56Z</time>
      </trkpt>
      <trkpt lat="47.52881" lon="3.76061">
        <ele>252</ele>
        <time>2022-04-17T10:27:07Z</time>
      </trkpt>
      <trkpt lat="47.5287" lon="3.7604">
        <ele>252.48</ele>
        <time>2022-04-17T10:27:22Z</time>
      </trkpt>
      <trkpt lat="47.52865" lon="3.76031">
        <ele>252.48</ele>
        <time>2022-04-17T10:27:28Z</time>
      </trkpt>
      <trkpt lat="47.52855" lon="3.76021">
        <ele>252.96</ele>
        <time>2022-04-17T10:27:39Z</time>
      </trkpt>
      <trkpt lat="47.52852" lon="3.76016">
        <ele>252.48</ele>
        <time>2022-04-17T10:27:42Z</time>
      </trkpt>
      <trkpt lat="47.52849" lon="3.76008">
        <ele>252.48</ele>
        <time>2022-04-17T10:27:45Z</time>
      </trkpt>
      <trkpt lat="47.52838" lon="3.7599">
        <ele>252.48</ele>
        <time>2022-04-17T10:27:56Z</time>
      </trkpt>
      <trkpt lat="47.52832" lon="3.75972">
        <ele>252.96</ele>
        <time>2022-04-17T10:28:06Z</time>
      </trkpt>
      <trkpt lat="47.52831" lon="3.7597">
        <ele>252.48</ele>
        <time>2022-04-17T10:28:07Z</time>
      </trkpt>
      <trkpt lat="47.52828" lon="3.75959">
        <ele>252.48</ele>
        <time>2022-04-17T10:28:12Z</time>
      </trkpt>
      <trkpt lat="47.52817" lon="3.75924">
        <ele>252.48</ele>
        <time>2022-04-17T10:28:29Z</time>
      </trkpt>
      <trkpt lat="47.52815" lon="3.75911">
        <ele>252.96</ele>
        <time>2022-04-17T10:28:34Z</time>
      </trkpt>
      <trkpt lat="47.52807" lon="3.75877">
        <ele>252.48</ele>
        <time>2022-04-17T10:28:50Z</time>
      </trkpt>
      <trkpt lat="47.52797" lon="3.75858">
        <ele>252</ele>
        <time>2022-04-17T10:29:02Z</time>
      </trkpt>
      <trkpt lat="47.52789" lon="3.75847">
        <ele>252</ele>
        <time>2022-04-17T10:29:09Z</time>
      </trkpt>
      <trkpt lat="47.52779" lon="3.75833">
        <ele>252.48</ele>
        <time>2022-04-17T10:29:19Z</time>
      </trkpt>
      <trkpt lat="47.52764" lon="3.75808">
        <ele>252</ele>
        <time>2022-04-17T10:29:36Z</time>
      </trkpt>
      <trkpt lat="47.52746" lon="3.75784">
        <ele>252</ele>
        <time>2022-04-17T10:29:52Z</time>
      </trkpt>
      <trkpt lat="47.52745" lon="3.75782">
        <ele>252</ele>
        <time>2022-04-17T10:29:53Z</time>
      </trkpt>
      <trkpt lat="47.52726" lon="3.75751">
        <ele>252</ele>
        <time>2022-04-17T10:30:10Z</time>
      </trkpt>
      <trkpt lat="47.52718" lon="3.75744">
        <ele>252.48</ele>
        <time>2022-04-17T10:30:17Z</time>
      </trkpt>
      <trkpt lat="47.52698" lon="3.75716">
        <ele>252.96</ele>
        <time>2022-04-17T10:30:36Z</time>
      </trkpt>
      <trkpt lat="47.52683" lon="3.75701">
        <ele>253.93</ele>
        <time>2022-04-17T10:30:51Z</time>
      </trkpt>
      <trkpt lat="47.52666" lon="3.75686">
        <ele>254.41</ele>
        <time>2022-04-17T10:31:08Z</time>
      </trkpt>
      <trkpt lat="47.52647" lon="3.75672">
        <ele>255.37</ele>
        <time>2022-04-17T10:31:23Z</time>
      </trkpt>
      <trkpt lat="47.52628" lon="3.75649">
        <ele>254.89</ele>
        <time>2022-04-17T10:31:42Z</time>
      </trkpt>
      <trkpt lat="47.52607" lon="3.75617">
        <ele>255.85</ele>
        <time>2022-04-17T10:32:05Z</time>
      </trkpt>
      <trkpt lat="47.52592" lon="3.75594">
        <ele>256.33</ele>
        <time>2022-04-17T10:32:20Z</time>
      </trkpt>
      <trkpt lat="47.52587" lon="3.75586">
        <ele>255.85</ele>
        <time>2022-04-17T10:32:26Z</time>
      </trkpt>
      <trkpt lat="47.52585" lon="3.75584">
        <ele>256.33</ele>
        <time>2022-04-17T10:32:28Z</time>
      </trkpt>
      <trkpt lat="47.52581" lon="3.75576">
        <ele>256.81</ele>
        <time>2022-04-17T10:32:34Z</time>
      </trkpt>
      <trkpt lat="47.52579" lon="3.75572">
        <ele>256.81</ele>
        <time>2022-04-17T10:32:36Z</time>
      </trkpt>
      <trkpt lat="47.52571" lon="3.7555">
        <ele>257.29</ele>
        <time>2022-04-17T10:32:48Z</time>
      </trkpt>
      <trkpt lat="47.5257" lon="3.75548">
        <ele>257.29</ele>
        <time>2022-04-17T10:32:50Z</time>
      </trkpt>
      <trkpt lat="47.52565" lon="3.75544">
        <ele>256.81</ele>
        <time>2022-04-17T10:32:55Z</time>
      </trkpt>
      <trkpt lat="47.52559" lon="3.75533">
        <ele>257.77</ele>
        <time>2022-04-17T10:33:02Z</time>
      </trkpt>
      <trkpt lat="47.52554" lon="3.75523">
        <ele>258.25</ele>
        <time>2022-04-17T10:33:07Z</time>
      </trkpt>
      <trkpt lat="47.52549" lon="3.75518">
        <ele>258.73</ele>
        <time>2022-04-17T10:33:11Z</time>
      </trkpt>
      <trkpt lat="47.52542" lon="3.75514">
        <ele>258.73</ele>
        <time>2022-04-17T10:33:18Z</time>
      </trkpt>
      <trkpt lat="47.52537" lon="3.75516">
        <ele>259.21</ele>
        <time>2022-04-17T10:33:36Z</time>
      </trkpt>
      <trkpt lat="47.5253" lon="3.75514">
        <ele>259.69</ele>
        <time>2022-04-17T10:33:48Z</time>
      </trkpt>
      <trkpt lat="47.52512" lon="3.75504">
        <ele>260.65</ele>
        <time>2022-04-17T10:34:01Z</time>
      </trkpt>
      <trkpt lat="47.52505" lon="3.75504">
        <ele>261.14</ele>
        <time>2022-04-17T10:34:05Z</time>
      </trkpt>
      <trkpt lat="47.52497" lon="3.75503">
        <ele>261.62</ele>
        <time>2022-04-17T10:34:17Z</time>
      </trkpt>
      <trkpt lat="47.52496" lon="3.75502">
        <ele>261.14</ele>
        <time>2022-04-17T10:34:18Z</time>
      </trkpt>
      <trkpt lat="47.52491" lon="3.75502">
        <ele>261.14</ele>
        <time>2022-04-17T10:34:23Z</time>
      </trkpt>
      <trkpt lat="47.52473" lon="3.75493">
        <ele>261.14</ele>
        <time>2022-04-17T10:34:35Z</time>
      </trkpt>
      <trkpt lat="47.52464" lon="3.7549">
        <ele>261.14</ele>
        <time>2022-04-17T10:34:41Z</time>
      </trkpt>
      <trkpt lat="47.52453" lon="3.75484">
        <ele>261.14</ele>
        <time>2022-04-17T10:34:49Z</time>
      </trkpt>
      <trkpt lat="47.52433" lon="3.75487">
        <ele>260.65</ele>
        <time>2022-04-17T10:35:03Z</time>
      </trkpt>
      <trkpt lat="47.52428" lon="3.75485">
        <ele>260.17</ele>
        <time>2022-04-17T10:35:07Z</time>
      </trkpt>
      <trkpt lat="47.52415" lon="3.75483">
        <ele>259.21</ele>
        <time>2022-04-17T10:35:19Z</time>
      </trkpt>
      <trkpt lat="47.52413" lon="3.75483">
        <ele>258.73</ele>
        <time>2022-04-17T10:35:20Z</time>
      </trkpt>
      <trkpt lat="47.52397" lon="3.75482">
        <ele>257.77</ele>
        <time>2022-04-17T10:35:32Z</time>
      </trkpt>
      <trkpt lat="47.52392" lon="3.75482">
        <ele>257.29</ele>
        <time>2022-04-17T10:35:35Z</time>
      </trkpt>
      <trkpt lat="47.52379" lon="3.75485">
        <ele>256.33</ele>
        <time>2022-04-17T10:35:45Z</time>
      </trkpt>
      <trkpt lat="47.52373" lon="3.75487">
        <ele>255.85</ele>
        <time>2022-04-17T10:35:50Z</time>
      </trkpt>
      <trkpt lat="47.52367" lon="3.75486">
        <ele>254.89</ele>
        <time>2022-04-17T10:35:55Z</time>
      </trkpt>
      <trkpt lat="47.5235" lon="3.75476">
        <ele>252.48</ele>
        <time>2022-04-17T10:36:07Z</time>
      </trkpt>
      <trkpt lat="47.52345" lon="3.75475">
        <ele>251.52</ele>
        <time>2022-04-17T10:36:12Z</time>
      </trkpt>
      <trkpt lat="47.52343" lon="3.75473">
        <ele>251.04</ele>
        <time>2022-04-17T10:36:14Z</time>
      </trkpt>
      <trkpt lat="47.52332" lon="3.75472">
        <ele>249.12</ele>
        <time>2022-04-17T10:36:25Z</time>
      </trkpt>
      <trkpt lat="47.52328" lon="3.75472">
        <ele>248.16</ele>
        <time>2022-04-17T10:36:29Z</time>
      </trkpt>
      <trkpt lat="47.52319" lon="3.75473">
        <ele>245.27</ele>
        <time>2022-04-17T10:36:42Z</time>
      </trkpt>
      <trkpt lat="47.52308" lon="3.75475">
        <ele>243.35</ele>
        <time>2022-04-17T10:36:53Z</time>
      </trkpt>
      <trkpt lat="47.52292" lon="3.7548">
        <ele>240.95</ele>
        <time>2022-04-17T10:37:06Z</time>
      </trkpt>
      <trkpt lat="47.52278" lon="3.7548">
        <ele>238.06</ele>
        <time>2022-04-17T10:37:16Z</time>
      </trkpt>
      <trkpt lat="47.52265" lon="3.75471">
        <ele>235.18</ele>
        <time>2022-04-17T10:37:27Z</time>
      </trkpt>
      <trkpt lat="47.52258" lon="3.75464">
        <ele>234.7</ele>
        <time>2022-04-17T10:37:33Z</time>
      </trkpt>
      <trkpt lat="47.5225" lon="3.75454">
        <ele>234.22</ele>
        <time>2022-04-17T10:37:40Z</time>
      </trkpt>
      <trkpt lat="47.52235" lon="3.75442">
        <ele>231.81</ele>
        <time>2022-04-17T10:37:53Z</time>
      </trkpt>
      <trkpt lat="47.52231" lon="3.7544">
        <ele>230.85</ele>
        <time>2022-04-17T10:37:58Z</time>
      </trkpt>
      <trkpt lat="47.52218" lon="3.75436">
        <ele>228.93</ele>
        <time>2022-04-17T10:38:08Z</time>
      </trkpt>
      <trkpt lat="47.52211" lon="3.7543">
        <ele>227.97</ele>
        <time>2022-04-17T10:38:13Z</time>
      </trkpt>
      <trkpt lat="47.52201" lon="3.75421">
        <ele>225.09</ele>
        <time>2022-04-17T10:38:24Z</time>
      </trkpt>
      <trkpt lat="47.52197" lon="3.75415">
        <ele>224.12</ele>
        <time>2022-04-17T10:38:34Z</time>
      </trkpt>
      <trkpt lat="47.52193" lon="3.75414">
        <ele>223.16</ele>
        <time>2022-04-17T10:38:38Z</time>
      </trkpt>
      <trkpt lat="47.52182" lon="3.75406">
        <ele>219.8</ele>
        <time>2022-04-17T10:38:50Z</time>
      </trkpt>
      <trkpt lat="47.52177" lon="3.75405">
        <ele>218.36</ele>
        <time>2022-04-17T10:38:56Z</time>
      </trkpt>
      <trkpt lat="47.52165" lon="3.75406">
        <ele>215.95</ele>
        <time>2022-04-17T10:39:08Z</time>
      </trkpt>
      <trkpt lat="47.52161" lon="3.75403">
        <ele>214.51</ele>
        <time>2022-04-17T10:39:14Z</time>
      </trkpt>
      <trkpt lat="47.52154" lon="3.75401">
        <ele>212.59</ele>
        <time>2022-04-17T10:39:23Z</time>
      </trkpt>
      <trkpt lat="47.5214" lon="3.754">
        <ele>209.22</ele>
        <time>2022-04-17T10:39:36Z</time>
      </trkpt>
      <trkpt lat="47.52138" lon="3.754">
        <ele>209.22</ele>
        <time>2022-04-17T10:39:38Z</time>
      </trkpt>
      <trkpt lat="47.52133" lon="3.75398">
        <ele>208.26</ele>
        <time>2022-04-17T10:39:43Z</time>
      </trkpt>
      <trkpt lat="47.52125" lon="3.75397">
        <ele>206.82</ele>
        <time>2022-04-17T10:39:48Z</time>
      </trkpt>
      <trkpt lat="47.52119" lon="3.75396">
        <ele>205.38</ele>
        <time>2022-04-17T10:39:52Z</time>
      </trkpt>
      <trkpt lat="47.52109" lon="3.75398">
        <ele>204.42</ele>
        <time>2022-04-17T10:39:57Z</time>
      </trkpt>
      <trkpt lat="47.52102" lon="3.75399">
        <ele>202.98</ele>
        <time>2022-04-17T10:40:01Z</time>
      </trkpt>
      <trkpt lat="47.52097" lon="3.754">
        <ele>202.01</ele>
        <time>2022-04-17T10:40:05Z</time>
      </trkpt>
      <trkpt lat="47.52092" lon="3.75403">
        <ele>201.05</ele>
        <time>2022-04-17T10:40:09Z</time>
      </trkpt>
      <trkpt lat="47.52077" lon="3.754">
        <ele>197.69</ele>
        <time>2022-04-17T10:40:22Z</time>
      </trkpt>
      <trkpt lat="47.52064" lon="3.75394">
        <ele>195.28</ele>
        <time>2022-04-17T10:40:33Z</time>
      </trkpt>
      <trkpt lat="47.52059" lon="3.75392">
        <ele>194.32</ele>
        <time>2022-04-17T10:40:37Z</time>
      </trkpt>
      <trkpt lat="47.52042" lon="3.75395">
        <ele>191.44</ele>
        <time>2022-04-17T10:40:51Z</time>
      </trkpt>
      <trkpt lat="47.52023" lon="3.75402">
        <ele>189.04</ele>
        <time>2022-04-17T10:41:04Z</time>
      </trkpt>
      <trkpt lat="47.5202" lon="3.75401">
        <ele>189.04</ele>
        <time>2022-04-17T10:41:06Z</time>
      </trkpt>
      <trkpt lat="47.52002" lon="3.75402">
        <ele>187.59</ele>
        <time>2022-04-17T10:41:20Z</time>
      </trkpt>
      <trkpt lat="47.51984" lon="3.75403">
        <ele>185.67</ele>
        <time>2022-04-17T10:41:32Z</time>
      </trkpt>
      <trkpt lat="47.51962" lon="3.754">
        <ele>184.71</ele>
        <time>2022-04-17T10:41:47Z</time>
      </trkpt>
      <trkpt lat="47.51959" lon="3.75398">
        <ele>185.19</ele>
        <time>2022-04-17T10:41:50Z</time>
      </trkpt>
      <trkpt lat="47.5195" lon="3.75399">
        <ele>184.71</ele>
        <time>2022-04-17T10:41:56Z</time>
      </trkpt>
      <trkpt lat="47.51943" lon="3.75399">
        <ele>184.71</ele>
        <time>2022-04-17T10:42:01Z</time>
      </trkpt>
      <trkpt lat="47.51936" lon="3.75397">
        <ele>184.71</ele>
        <time>2022-04-17T10:42:05Z</time>
      </trkpt>
      <trkpt lat="47.51924" lon="3.75395">
        <ele>184.23</ele>
        <time>2022-04-17T10:42:14Z</time>
      </trkpt>
      <trkpt lat="47.51922" lon="3.75393">
        <ele>183.75</ele>
        <time>2022-04-17T10:42:16Z</time>
      </trkpt>
      <trkpt lat="47.51906" lon="3.75382">
        <ele>182.79</ele>
        <time>2022-04-17T10:42:28Z</time>
      </trkpt>
      <trkpt lat="47.51893" lon="3.7537">
        <ele>182.31</ele>
        <time>2022-04-17T10:42:40Z</time>
      </trkpt>
      <trkpt lat="47.51879" lon="3.75355">
        <ele>181.83</ele>
        <time>2022-04-17T10:42:51Z</time>
      </trkpt>
      <trkpt lat="47.51866" lon="3.75336">
        <ele>180.38</ele>
        <time>2022-04-17T10:43:07Z</time>
      </trkpt>
      <trkpt lat="47.51865" lon="3.75334">
        <ele>180.38</ele>
        <time>2022-04-17T10:43:08Z</time>
      </trkpt>
      <trkpt lat="47.5186" lon="3.75329">
        <ele>179.9</ele>
        <time>2022-04-17T10:43:12Z</time>
      </trkpt>
      <trkpt lat="47.51854" lon="3.75321">
        <ele>179.9</ele>
        <time>2022-04-17T10:43:18Z</time>
      </trkpt>
      <trkpt lat="47.51842" lon="3.7531">
        <ele>178.94</ele>
        <time>2022-04-17T10:43:27Z</time>
      </trkpt>
      <trkpt lat="47.51827" lon="3.75294">
        <ele>178.46</ele>
        <time>2022-04-17T10:43:39Z</time>
      </trkpt>
      <trkpt lat="47.5181" lon="3.75284">
        <ele>177.98</ele>
        <time>2022-04-17T10:43:52Z</time>
      </trkpt>
      <trkpt lat="47.51804" lon="3.75279">
        <ele>177.5</ele>
        <time>2022-04-17T10:43:58Z</time>
      </trkpt>
      <trkpt lat="47.51787" lon="3.75274">
        <ele>177.5</ele>
        <time>2022-04-17T10:44:12Z</time>
      </trkpt>
      <trkpt lat="47.51779" lon="3.75265">
        <ele>176.54</ele>
        <time>2022-04-17T10:44:22Z</time>
      </trkpt>
      <trkpt lat="47.51762" lon="3.75247">
        <ele>176.54</ele>
        <time>2022-04-17T10:44:36Z</time>
      </trkpt>
      <trkpt lat="47.51758" lon="3.75242">
        <ele>176.06</ele>
        <time>2022-04-17T10:44:40Z</time>
      </trkpt>
      <trkpt lat="47.51756" lon="3.7524">
        <ele>176.06</ele>
        <time>2022-04-17T10:44:42Z</time>
      </trkpt>
      <trkpt lat="47.51736" lon="3.75232">
        <ele>175.1</ele>
        <time>2022-04-17T10:44:55Z</time>
      </trkpt>
      <trkpt lat="47.51735" lon="3.75232">
        <ele>174.62</ele>
        <time>2022-04-17T10:44:56Z</time>
      </trkpt>
      <trkpt lat="47.51731" lon="3.7523">
        <ele>175.1</ele>
        <time>2022-04-17T10:45:01Z</time>
      </trkpt>
      <trkpt lat="47.51729" lon="3.75228">
        <ele>174.62</ele>
        <time>2022-04-17T10:45:03Z</time>
      </trkpt>
      <trkpt lat="47.51725" lon="3.75224">
        <ele>174.62</ele>
        <time>2022-04-17T10:45:07Z</time>
      </trkpt>
      <trkpt lat="47.51722" lon="3.75221">
        <ele>174.62</ele>
        <time>2022-04-17T10:45:11Z</time>
      </trkpt>
      <trkpt lat="47.51716" lon="3.75216">
        <ele>175.1</ele>
        <time>2022-04-17T10:45:16Z</time>
      </trkpt>
      <trkpt lat="47.517" lon="3.75206">
        <ele>174.14</ele>
        <time>2022-04-17T10:45:28Z</time>
      </trkpt>
      <trkpt lat="47.51697" lon="3.75203">
        <ele>174.14</ele>
        <time>2022-04-17T10:45:30Z</time>
      </trkpt>
      <trkpt lat="47.51679" lon="3.75185">
        <ele>173.66</ele>
        <time>2022-04-17T10:45:43Z</time>
      </trkpt>
      <trkpt lat="47.51675" lon="3.7518">
        <ele>173.17</ele>
        <time>2022-04-17T10:45:47Z</time>
      </trkpt>
      <trkpt lat="47.51661" lon="3.75166">
        <ele>173.17</ele>
        <time>2022-04-17T10:45:59Z</time>
      </trkpt>
      <trkpt lat="47.51642" lon="3.75149">
        <ele>172.21</ele>
        <time>2022-04-17T10:46:15Z</time>
      </trkpt>
      <trkpt lat="47.51627" lon="3.75139">
        <ele>171.73</ele>
        <time>2022-04-17T10:46:26Z</time>
      </trkpt>
      <trkpt lat="47.5162" lon="3.75129">
        <ele>171.25</ele>
        <time>2022-04-17T10:46:34Z</time>
      </trkpt>
      <trkpt lat="47.51616" lon="3.75124">
        <ele>171.25</ele>
        <time>2022-04-17T10:46:38Z</time>
      </trkpt>
      <trkpt lat="47.51615" lon="3.75122">
        <ele>170.77</ele>
        <time>2022-04-17T10:46:40Z</time>
      </trkpt>
      <trkpt lat="47.51598" lon="3.75108">
        <ele>170.29</ele>
        <time>2022-04-17T10:46:54Z</time>
      </trkpt>
      <trkpt lat="47.51591" lon="3.75103">
        <ele>170.29</ele>
        <time>2022-04-17T10:46:59Z</time>
      </trkpt>
      <trkpt lat="47.51576" lon="3.75087">
        <ele>169.81</ele>
        <time>2022-04-17T10:47:12Z</time>
      </trkpt>
      <trkpt lat="47.51562" lon="3.75073">
        <ele>168.85</ele>
        <time>2022-04-17T10:47:25Z</time>
      </trkpt>
      <trkpt lat="47.51548" lon="3.7506">
        <ele>167.89</ele>
        <time>2022-04-17T10:47:38Z</time>
      </trkpt>
      <trkpt lat="47.51533" lon="3.75054">
        <ele>167.89</ele>
        <time>2022-04-17T10:47:50Z</time>
      </trkpt>
      <trkpt lat="47.51521" lon="3.75046">
        <ele>167.41</ele>
        <time>2022-04-17T10:48:01Z</time>
      </trkpt>
      <trkpt lat="47.51508" lon="3.75037">
        <ele>167.41</ele>
        <time>2022-04-17T10:48:12Z</time>
      </trkpt>
      <trkpt lat="47.51493" lon="3.75032">
        <ele>167.41</ele>
        <time>2022-04-17T10:48:22Z</time>
      </trkpt>
      <trkpt lat="47.51476" lon="3.75031">
        <ele>166.45</ele>
        <time>2022-04-17T10:48:34Z</time>
      </trkpt>
      <trkpt lat="47.51463" lon="3.75035">
        <ele>165.96</ele>
        <time>2022-04-17T10:48:45Z</time>
      </trkpt>
      <trkpt lat="47.51456" lon="3.75033">
        <ele>165.96</ele>
        <time>2022-04-17T10:48:52Z</time>
      </trkpt>
      <trkpt lat="47.51457" lon="3.75018">
        <ele>165.48</ele>
        <time>2022-04-17T10:48:56Z</time>
      </trkpt>
      <trkpt lat="47.51448" lon="3.74983">
        <ele>165</ele>
        <time>2022-04-17T10:49:08Z</time>
      </trkpt>
      <trkpt lat="47.51445" lon="3.7497">
        <ele>165.48</ele>
        <time>2022-04-17T10:49:16Z</time>
      </trkpt>
      <trkpt lat="47.51444" lon="3.74967">
        <ele>165.96</ele>
        <time>2022-04-17T10:49:18Z</time>
      </trkpt>
      <trkpt lat="47.51437" lon="3.74952">
        <ele>166.93</ele>
        <time>2022-04-17T10:49:27Z</time>
      </trkpt>
      <trkpt lat="47.51426" lon="3.74941">
        <ele>166.45</ele>
        <time>2022-04-17T10:49:38Z</time>
      </trkpt>
      <trkpt lat="47.51422" lon="3.7494">
        <ele>166.45</ele>
        <time>2022-04-17T10:49:41Z</time>
      </trkpt>
      <trkpt lat="47.51396" lon="3.74939">
        <ele>166.45</ele>
        <time>2022-04-17T10:49:59Z</time>
      </trkpt>
      <trkpt lat="47.51389" lon="3.74936">
        <ele>166.45</ele>
        <time>2022-04-17T10:50:04Z</time>
      </trkpt>
      <trkpt lat="47.51376" lon="3.74931">
        <ele>167.41</ele>
        <time>2022-04-17T10:50:17Z</time>
      </trkpt>
      <trkpt lat="47.51373" lon="3.7493">
        <ele>166.93</ele>
        <time>2022-04-17T10:50:19Z</time>
      </trkpt>
      <trkpt lat="47.51356" lon="3.7492">
        <ele>165.96</ele>
        <time>2022-04-17T10:50:32Z</time>
      </trkpt>
      <trkpt lat="47.51347" lon="3.7491">
        <ele>165</ele>
        <time>2022-04-17T10:50:41Z</time>
      </trkpt>
      <trkpt lat="47.51328" lon="3.74897">
        <ele>164.04</ele>
        <time>2022-04-17T10:50:52Z</time>
      </trkpt>
      <trkpt lat="47.51326" lon="3.74896">
        <ele>164.04</ele>
        <time>2022-04-17T10:50:53Z</time>
      </trkpt>
      <trkpt lat="47.51301" lon="3.74894">
        <ele>165</ele>
        <time>2022-04-17T10:51:10Z</time>
      </trkpt>
      <trkpt lat="47.51282" lon="3.74909">
        <ele>165.96</ele>
        <time>2022-04-17T10:51:27Z</time>
      </trkpt>
      <trkpt lat="47.51264" lon="3.74923">
        <ele>166.93</ele>
        <time>2022-04-17T10:51:42Z</time>
      </trkpt>
      <trkpt lat="47.51249" lon="3.7493">
        <ele>167.41</ele>
        <time>2022-04-17T10:51:53Z</time>
      </trkpt>
      <trkpt lat="47.51233" lon="3.7492">
        <ele>169.33</ele>
        <time>2022-04-17T10:52:07Z</time>
      </trkpt>
      <trkpt lat="47.51232" lon="3.74911">
        <ele>170.29</ele>
        <time>2022-04-17T10:52:12Z</time>
      </trkpt>
      <trkpt lat="47.51237" lon="3.74894">
        <ele>171.25</ele>
        <time>2022-04-17T10:52:23Z</time>
      </trkpt>
      <trkpt lat="47.51238" lon="3.74881">
        <ele>171.73</ele>
        <time>2022-04-17T10:52:30Z</time>
      </trkpt>
      <trkpt lat="47.51233" lon="3.74879">
        <ele>172.21</ele>
        <time>2022-04-17T10:52:35Z</time>
      </trkpt>
      <trkpt lat="47.5122" lon="3.74878">
        <ele>173.66</ele>
        <time>2022-04-17T10:52:46Z</time>
      </trkpt>
      <trkpt lat="47.51218" lon="3.74863">
        <ele>175.58</ele>
        <time>2022-04-17T10:52:58Z</time>
      </trkpt>
      <trkpt lat="47.51213" lon="3.7485">
        <ele>176.54</ele>
        <time>2022-04-17T10:53:09Z</time>
      </trkpt>
      <trkpt lat="47.51209" lon="3.74841">
        <ele>177.02</ele>
        <time>2022-04-17T10:53:15Z</time>
      </trkpt>
      <trkpt lat="47.51208" lon="3.74838">
        <ele>177.02</ele>
        <time>2022-04-17T10:53:17Z</time>
      </trkpt>
      <trkpt lat="47.51206" lon="3.74836">
        <ele>177.02</ele>
        <time>2022-04-17T10:53:19Z</time>
      </trkpt>
      <trkpt lat="47.51202" lon="3.74827">
        <ele>177.98</ele>
        <time>2022-04-17T10:53:32Z</time>
      </trkpt>
      <trkpt lat="47.51201" lon="3.74824">
        <ele>178.46</ele>
        <time>2022-04-17T10:53:50Z</time>
      </trkpt>
      <trkpt lat="47.51201" lon="3.74818">
        <ele>177.98</ele>
        <time>2022-04-17T10:54:05Z</time>
      </trkpt>
      <trkpt lat="47.51201" lon="3.74817">
        <ele>178.94</ele>
        <time>2022-04-17T10:54:27Z</time>
      </trkpt>
      <trkpt lat="47.51201" lon="3.74818">
        <ele>178.46</ele>
        <time>2022-04-17T10:54:44Z</time>
      </trkpt>
      <trkpt lat="47.51202" lon="3.74817">
        <ele>178.46</ele>
        <time>2022-04-17T10:55:02Z</time>
      </trkpt>
      <trkpt lat="47.51202" lon="3.74817">
        <ele>178.94</ele>
        <time>2022-04-17T10:55:21Z</time>
      </trkpt>
      <trkpt lat="47.51201" lon="3.74822">
        <ele>177.98</ele>
        <time>2022-04-17T10:55:40Z</time>
      </trkpt>
      <trkpt lat="47.51198" lon="3.74825">
        <ele>177.98</ele>
        <time>2022-04-17T10:55:51Z</time>
      </trkpt>
      <trkpt lat="47.51196" lon="3.74828">
        <ele>177.98</ele>
        <time>2022-04-17T10:56:09Z</time>
      </trkpt>
      <trkpt lat="47.51193" lon="3.74825">
        <ele>178.94</ele>
        <time>2022-04-17T10:56:22Z</time>
      </trkpt>
      <trkpt lat="47.51193" lon="3.74825">
        <ele>177.98</ele>
        <time>2022-04-17T10:56:41Z</time>
      </trkpt>
      <trkpt lat="47.51193" lon="3.74823">
        <ele>177.5</ele>
        <time>2022-04-17T10:56:55Z</time>
      </trkpt>
      <trkpt lat="47.51192" lon="3.74823">
        <ele>177.98</ele>
        <time>2022-04-17T10:57:11Z</time>
      </trkpt>
      <trkpt lat="47.51192" lon="3.74823">
        <ele>177.98</ele>
        <time>2022-04-17T10:57:38Z</time>
      </trkpt>
      <trkpt lat="47.51192" lon="3.74824">
        <ele>178.94</ele>
        <time>2022-04-17T10:58:02Z</time>
      </trkpt>
      <trkpt lat="47.51192" lon="3.74824">
        <ele>178.46</ele>
        <time>2022-04-17T10:58:17Z</time>
      </trkpt>
      <trkpt lat="47.51193" lon="3.74824">
        <ele>178.46</ele>
        <time>2022-04-17T10:58:38Z</time>
      </trkpt>
      <trkpt lat="47.51193" lon="3.74825">
        <ele>177.98</ele>
        <time>2022-04-17T10:59:04Z</time>
      </trkpt>
      <trkpt lat="47.51193" lon="3.74826">
        <ele>178.46</ele>
        <time>2022-04-17T10:59:21Z</time>
      </trkpt>
      <trkpt lat="47.51192" lon="3.74825">
        <ele>178.46</ele>
        <time>2022-04-17T10:59:46Z</time>
      </trkpt>
      <trkpt lat="47.51193" lon="3.74824">
        <ele>178.46</ele>
        <time>2022-04-17T11:00:09Z</time>
      </trkpt>
      <trkpt lat="47.51192" lon="3.74823">
        <ele>178.94</ele>
        <time>2022-04-17T11:00:34Z</time>
      </trkpt>
      <trkpt lat="47.51193" lon="3.74825">
        <ele>178.46</ele>
        <time>2022-04-17T11:00:58Z</time>
      </trkpt>
      <trkpt lat="47.51193" lon="3.74825">
        <ele>178.46</ele>
        <time>2022-04-17T11:01:24Z</time>
      </trkpt>
      <trkpt lat="47.51193" lon="3.74825">
        <ele>178.94</ele>
        <time>2022-04-17T11:01:47Z</time>
      </trkpt>
      <trkpt lat="47.51193" lon="3.74825">
        <ele>178.94</ele>
        <time>2022-04-17T11:02:04Z</time>
      </trkpt>
      <trkpt lat="47.51194" lon="3.74825">
        <ele>178.94</ele>
        <time>2022-04-17T11:02:27Z</time>
      </trkpt>
      <trkpt lat="47.51194" lon="3.74825">
        <ele>178.46</ele>
        <time>2022-04-17T11:02:49Z</time>
      </trkpt>
      <trkpt lat="47.51194" lon="3.74825">
        <ele>178.46</ele>
        <time>2022-04-17T11:03:15Z</time>
      </trkpt>
      <trkpt lat="47.51193" lon="3.74825">
        <ele>179.42</ele>
        <time>2022-04-17T11:03:39Z</time>
      </trkpt>
      <trkpt lat="47.51194" lon="3.74824">
        <ele>179.42</ele>
        <time>2022-04-17T11:03:49Z</time>
      </trkpt>
      <trkpt lat="47.51193" lon="3.74824">
        <ele>178.94</ele>
        <time>2022-04-17T11:04:08Z</time>
      </trkpt>
      <trkpt lat="47.51196" lon="3.7482">
        <ele>179.9</ele>
        <time>2022-04-17T11:04:26Z</time>
      </trkpt>
      <trkpt lat="47.51197" lon="3.74818">
        <ele>179.9</ele>
        <time>2022-04-17T11:04:41Z</time>
      </trkpt>
      <trkpt lat="47.51195" lon="3.74822">
        <ele>179.9</ele>
        <time>2022-04-17T11:04:53Z</time>
      </trkpt>
      <trkpt lat="47.51194" lon="3.74822">
        <ele>179.42</ele>
        <time>2022-04-17T11:05:07Z</time>
      </trkpt>
      <trkpt lat="47.51194" lon="3.74823">
        <ele>179.42</ele>
        <time>2022-04-17T11:05:31Z</time>
      </trkpt>
      <trkpt lat="47.51196" lon="3.74824">
        <ele>179.9</ele>
        <time>2022-04-17T11:05:58Z</time>
      </trkpt>
      <trkpt lat="47.51203" lon="3.74826">
        <ele>179.9</ele>
        <time>2022-04-17T11:06:10Z</time>
      </trkpt>
      <trkpt lat="47.51194" lon="3.74822">
        <ele>180.38</ele>
        <time>2022-04-17T11:06:23Z</time>
      </trkpt>
      <trkpt lat="47.51194" lon="3.74823">
        <ele>165.48</ele>
        <time>2022-04-17T11:06:34Z</time>
      </trkpt>
      <trkpt lat="47.51194" lon="3.74823">
        <ele>182.31</ele>
        <time>2022-04-17T11:06:35Z</time>
      </trkpt>
      <trkpt lat="47.51194" lon="3.74823">
        <ele>175.58</ele>
        <time>2022-04-17T11:06:54Z</time>
      </trkpt>
      <trkpt lat="47.51194" lon="3.74823">
        <ele>181.35</ele>
        <time>2022-04-17T11:06:55Z</time>
      </trkpt>
      <trkpt lat="47.51195" lon="3.74822">
        <ele>180.87</ele>
        <time>2022-04-17T11:07:19Z</time>
      </trkpt>
      <trkpt lat="47.51194" lon="3.74823">
        <ele>179.9</ele>
        <time>2022-04-17T11:07:35Z</time>
      </trkpt>
      <trkpt lat="47.51194" lon="3.74824">
        <ele>180.38</ele>
        <time>2022-04-17T11:07:52Z</time>
      </trkpt>
      <trkpt lat="47.51195" lon="3.74826">
        <ele>180.38</ele>
        <time>2022-04-17T11:08:03Z</time>
      </trkpt>
      <trkpt lat="47.51194" lon="3.74827">
        <ele>179.42</ele>
        <time>2022-04-17T11:08:12Z</time>
      </trkpt>
      <trkpt lat="47.51188" lon="3.7485">
        <ele>178.94</ele>
        <time>2022-04-17T11:08:26Z</time>
      </trkpt>
      <trkpt lat="47.51186" lon="3.74851">
        <ele>178.94</ele>
        <time>2022-04-17T11:08:28Z</time>
      </trkpt>
      <trkpt lat="47.51173" lon="3.74848">
        <ele>179.9</ele>
        <time>2022-04-17T11:08:41Z</time>
      </trkpt>
      <trkpt lat="47.51167" lon="3.74841">
        <ele>179.42</ele>
        <time>2022-04-17T11:08:48Z</time>
      </trkpt>
      <trkpt lat="47.5115" lon="3.74834">
        <ele>178.46</ele>
        <time>2022-04-17T11:09:04Z</time>
      </trkpt>
      <trkpt lat="47.51149" lon="3.74834">
        <ele>178.46</ele>
        <time>2022-04-17T11:09:05Z</time>
      </trkpt>
      <trkpt lat="47.51146" lon="3.74838">
        <ele>177.98</ele>
        <time>2022-04-17T11:09:08Z</time>
      </trkpt>
      <trkpt lat="47.51142" lon="3.74844">
        <ele>177.5</ele>
        <time>2022-04-17T11:09:12Z</time>
      </trkpt>
      <trkpt lat="47.51135" lon="3.7486">
        <ele>176.06</ele>
        <time>2022-04-17T11:09:27Z</time>
      </trkpt>
      <trkpt lat="47.5113" lon="3.74881">
        <ele>174.14</ele>
        <time>2022-04-17T11:09:41Z</time>
      </trkpt>
      <trkpt lat="47.51118" lon="3.74902">
        <ele>171.73</ele>
        <time>2022-04-17T11:09:54Z</time>
      </trkpt>
      <trkpt lat="47.51115" lon="3.7491">
        <ele>171.25</ele>
        <time>2022-04-17T11:09:58Z</time>
      </trkpt>
      <trkpt lat="47.51111" lon="3.74918">
        <ele>170.29</ele>
        <time>2022-04-17T11:10:04Z</time>
      </trkpt>
      <trkpt lat="47.51108" lon="3.74943">
        <ele>167.41</ele>
        <time>2022-04-17T11:10:18Z</time>
      </trkpt>
      <trkpt lat="47.51104" lon="3.74969">
        <ele>164.52</ele>
        <time>2022-04-17T11:10:32Z</time>
      </trkpt>
      <trkpt lat="47.511" lon="3.74992">
        <ele>163.08</ele>
        <time>2022-04-17T11:10:46Z</time>
      </trkpt>
      <trkpt lat="47.51097" lon="3.75008">
        <ele>161.16</ele>
        <time>2022-04-17T11:10:57Z</time>
      </trkpt>
      <trkpt lat="47.51094" lon="3.75015">
        <ele>161.16</ele>
        <time>2022-04-17T11:11:01Z</time>
      </trkpt>
      <trkpt lat="47.5108" lon="3.75037">
        <ele>160.2</ele>
        <time>2022-04-17T11:11:18Z</time>
      </trkpt>
      <trkpt lat="47.5107" lon="3.75059">
        <ele>159.24</ele>
        <time>2022-04-17T11:11:31Z</time>
      </trkpt>
      <trkpt lat="47.51067" lon="3.75066">
        <ele>158.27</ele>
        <time>2022-04-17T11:11:35Z</time>
      </trkpt>
      <trkpt lat="47.51065" lon="3.7507">
        <ele>158.27</ele>
        <time>2022-04-17T11:11:38Z</time>
      </trkpt>
      <trkpt lat="47.51056" lon="3.75096">
        <ele>157.31</ele>
        <time>2022-04-17T11:11:53Z</time>
      </trkpt>
      <trkpt lat="47.51045" lon="3.7512">
        <ele>154.91</ele>
        <time>2022-04-17T11:12:09Z</time>
      </trkpt>
      <trkpt lat="47.51034" lon="3.75143">
        <ele>155.39</ele>
        <time>2022-04-17T11:12:23Z</time>
      </trkpt>
      <trkpt lat="47.51025" lon="3.75163">
        <ele>155.87</ele>
        <time>2022-04-17T11:12:37Z</time>
      </trkpt>
      <trkpt lat="47.51012" lon="3.75181">
        <ele>154.91</ele>
        <time>2022-04-17T11:12:50Z</time>
      </trkpt>
      <trkpt lat="47.51008" lon="3.75186">
        <ele>154.43</ele>
        <time>2022-04-17T11:12:55Z</time>
      </trkpt>
      <trkpt lat="47.51006" lon="3.7519">
        <ele>154.43</ele>
        <time>2022-04-17T11:12:57Z</time>
      </trkpt>
      <trkpt lat="47.50993" lon="3.752">
        <ele>153.47</ele>
        <time>2022-04-17T11:13:10Z</time>
      </trkpt>
      <trkpt lat="47.50973" lon="3.75188">
        <ele>152.99</ele>
        <time>2022-04-17T11:13:25Z</time>
      </trkpt>
      <trkpt lat="47.50956" lon="3.75186">
        <ele>152.99</ele>
        <time>2022-04-17T11:13:40Z</time>
      </trkpt>
      <trkpt lat="47.50938" lon="3.75182">
        <ele>152.51</ele>
        <time>2022-04-17T11:13:53Z</time>
      </trkpt>
      <trkpt lat="47.50924" lon="3.75176">
        <ele>152.99</ele>
        <time>2022-04-17T11:14:07Z</time>
      </trkpt>
      <trkpt lat="47.50915" lon="3.75174">
        <ele>152.03</ele>
        <time>2022-04-17T11:14:25Z</time>
      </trkpt>
      <trkpt lat="47.50905" lon="3.75174">
        <ele>152.03</ele>
        <time>2022-04-17T11:14:34Z</time>
      </trkpt>
      <trkpt lat="47.50902" lon="3.75177">
        <ele>151.54</ele>
        <time>2022-04-17T11:14:37Z</time>
      </trkpt>
      <trkpt lat="47.50898" lon="3.7518">
        <ele>152.03</ele>
        <time>2022-04-17T11:14:40Z</time>
      </trkpt>
      <trkpt lat="47.50892" lon="3.75187">
        <ele>152.51</ele>
        <time>2022-04-17T11:14:45Z</time>
      </trkpt>
      <trkpt lat="47.50887" lon="3.75193">
        <ele>152.03</ele>
        <time>2022-04-17T11:14:49Z</time>
      </trkpt>
      <trkpt lat="47.5087" lon="3.75212">
        <ele>152.51</ele>
        <time>2022-04-17T11:15:04Z</time>
      </trkpt>
      <trkpt lat="47.50855" lon="3.75233">
        <ele>152.51</ele>
        <time>2022-04-17T11:15:18Z</time>
      </trkpt>
      <trkpt lat="47.50845" lon="3.75247">
        <ele>152.03</ele>
        <time>2022-04-17T11:15:29Z</time>
      </trkpt>
      <trkpt lat="47.5083" lon="3.75272">
        <ele>151.06</ele>
        <time>2022-04-17T11:15:45Z</time>
      </trkpt>
      <trkpt lat="47.50827" lon="3.75276">
        <ele>150.58</ele>
        <time>2022-04-17T11:15:48Z</time>
      </trkpt>
      <trkpt lat="47.50811" lon="3.75298">
        <ele>151.54</ele>
        <time>2022-04-17T11:16:02Z</time>
      </trkpt>
      <trkpt lat="47.508" lon="3.75309">
        <ele>152.03</ele>
        <time>2022-04-17T11:16:17Z</time>
      </trkpt>
      <trkpt lat="47.50793" lon="3.75308">
        <ele>152.99</ele>
        <time>2022-04-17T11:16:29Z</time>
      </trkpt>
      <trkpt lat="47.50779" lon="3.75305">
        <ele>154.91</ele>
        <time>2022-04-17T11:16:42Z</time>
      </trkpt>
      <trkpt lat="47.5077" lon="3.75305">
        <ele>155.87</ele>
        <time>2022-04-17T11:16:53Z</time>
      </trkpt>
      <trkpt lat="47.50763" lon="3.75306">
        <ele>157.79</ele>
        <time>2022-04-17T11:17:00Z</time>
      </trkpt>
      <trkpt lat="47.50748" lon="3.75308">
        <ele>159.24</ele>
        <time>2022-04-17T11:17:15Z</time>
      </trkpt>
      <trkpt lat="47.50727" lon="3.75308">
        <ele>161.16</ele>
        <time>2022-04-17T11:17:31Z</time>
      </trkpt>
      <trkpt lat="47.5072" lon="3.75308">
        <ele>161.16</ele>
        <time>2022-04-17T11:17:37Z</time>
      </trkpt>
      <trkpt lat="47.50712" lon="3.75306">
        <ele>161.64</ele>
        <time>2022-04-17T11:17:45Z</time>
      </trkpt>
      <trkpt lat="47.50696" lon="3.75302">
        <ele>163.08</ele>
        <time>2022-04-17T11:18:00Z</time>
      </trkpt>
      <trkpt lat="47.50681" lon="3.75295">
        <ele>164.52</ele>
        <time>2022-04-17T11:18:14Z</time>
      </trkpt>
      <trkpt lat="47.50674" lon="3.75291">
        <ele>165.48</ele>
        <time>2022-04-17T11:18:20Z</time>
      </trkpt>
      <trkpt lat="47.5066" lon="3.75281">
        <ele>165.48</ele>
        <time>2022-04-17T11:18:34Z</time>
      </trkpt>
      <trkpt lat="47.50644" lon="3.75272">
        <ele>165</ele>
        <time>2022-04-17T11:18:49Z</time>
      </trkpt>
      <trkpt lat="47.50639" lon="3.75266">
        <ele>164.52</ele>
        <time>2022-04-17T11:18:55Z</time>
      </trkpt>
      <trkpt lat="47.50621" lon="3.75255">
        <ele>163.56</ele>
        <time>2022-04-17T11:19:09Z</time>
      </trkpt>
      <trkpt lat="47.50602" lon="3.75244">
        <ele>163.08</ele>
        <time>2022-04-17T11:19:23Z</time>
      </trkpt>
      <trkpt lat="47.50587" lon="3.75235">
        <ele>163.08</ele>
        <time>2022-04-17T11:19:37Z</time>
      </trkpt>
      <trkpt lat="47.50571" lon="3.75231">
        <ele>162.6</ele>
        <time>2022-04-17T11:19:49Z</time>
      </trkpt>
      <trkpt lat="47.50555" lon="3.75227">
        <ele>162.6</ele>
        <time>2022-04-17T11:20:02Z</time>
      </trkpt>
      <trkpt lat="47.50547" lon="3.75226">
        <ele>163.08</ele>
        <time>2022-04-17T11:20:09Z</time>
      </trkpt>
      <trkpt lat="47.5053" lon="3.75224">
        <ele>163.08</ele>
        <time>2022-04-17T11:20:24Z</time>
      </trkpt>
      <trkpt lat="47.50513" lon="3.75221">
        <ele>163.56</ele>
        <time>2022-04-17T11:20:39Z</time>
      </trkpt>
      <trkpt lat="47.50506" lon="3.75219">
        <ele>164.52</ele>
        <time>2022-04-17T11:20:52Z</time>
      </trkpt>
      <trkpt lat="47.50492" lon="3.75223">
        <ele>165</ele>
        <time>2022-04-17T11:21:07Z</time>
      </trkpt>
      <trkpt lat="47.50479" lon="3.75228">
        <ele>165.96</ele>
        <time>2022-04-17T11:21:20Z</time>
      </trkpt>
      <trkpt lat="47.50464" lon="3.75226">
        <ele>167.41</ele>
        <time>2022-04-17T11:21:34Z</time>
      </trkpt>
      <trkpt lat="47.50458" lon="3.75225">
        <ele>168.37</ele>
        <time>2022-04-17T11:21:41Z</time>
      </trkpt>
      <trkpt lat="47.50442" lon="3.75221">
        <ele>168.85</ele>
        <time>2022-04-17T11:21:56Z</time>
      </trkpt>
      <trkpt lat="47.5043" lon="3.75214">
        <ele>170.29</ele>
        <time>2022-04-17T11:22:10Z</time>
      </trkpt>
      <trkpt lat="47.50418" lon="3.75211">
        <ele>171.25</ele>
        <time>2022-04-17T11:22:22Z</time>
      </trkpt>
      <trkpt lat="47.50414" lon="3.75208">
        <ele>171.73</ele>
        <time>2022-04-17T11:22:28Z</time>
      </trkpt>
      <trkpt lat="47.50402" lon="3.75202">
        <ele>173.17</ele>
        <time>2022-04-17T11:22:41Z</time>
      </trkpt>
      <trkpt lat="47.50398" lon="3.75196">
        <ele>174.62</ele>
        <time>2022-04-17T11:22:53Z</time>
      </trkpt>
      <trkpt lat="47.50382" lon="3.75188">
        <ele>176.06</ele>
        <time>2022-04-17T11:23:08Z</time>
      </trkpt>
      <trkpt lat="47.50367" lon="3.7518">
        <ele>177.98</ele>
        <time>2022-04-17T11:23:24Z</time>
      </trkpt>
      <trkpt lat="47.50364" lon="3.75177">
        <ele>178.46</ele>
        <time>2022-04-17T11:23:34Z</time>
      </trkpt>
      <trkpt lat="47.50346" lon="3.75168">
        <ele>180.38</ele>
        <time>2022-04-17T11:23:48Z</time>
      </trkpt>
      <trkpt lat="47.50319" lon="3.7515">
        <ele>181.83</ele>
        <time>2022-04-17T11:24:05Z</time>
      </trkpt>
      <trkpt lat="47.50302" lon="3.75142">
        <ele>183.75</ele>
        <time>2022-04-17T11:24:22Z</time>
      </trkpt>
      <trkpt lat="47.50294" lon="3.75132">
        <ele>185.19</ele>
        <time>2022-04-17T11:24:35Z</time>
      </trkpt>
      <trkpt lat="47.50286" lon="3.75131">
        <ele>188.08</ele>
        <time>2022-04-17T11:24:49Z</time>
      </trkpt>
      <trkpt lat="47.50274" lon="3.75124">
        <ele>190.48</ele>
        <time>2022-04-17T11:25:05Z</time>
      </trkpt>
      <trkpt lat="47.5026" lon="3.75118">
        <ele>193.36</ele>
        <time>2022-04-17T11:25:19Z</time>
      </trkpt>
      <trkpt lat="47.50247" lon="3.75118">
        <ele>195.28</ele>
        <time>2022-04-17T11:25:31Z</time>
      </trkpt>
      <trkpt lat="47.50233" lon="3.75126">
        <ele>196.73</ele>
        <time>2022-04-17T11:25:44Z</time>
      </trkpt>
      <trkpt lat="47.50224" lon="3.75134">
        <ele>198.17</ele>
        <time>2022-04-17T11:25:53Z</time>
      </trkpt>
      <trkpt lat="47.50213" lon="3.75148">
        <ele>199.13</ele>
        <time>2022-04-17T11:26:06Z</time>
      </trkpt>
      <trkpt lat="47.50207" lon="3.75153">
        <ele>200.57</ele>
        <time>2022-04-17T11:26:12Z</time>
      </trkpt>
      <trkpt lat="47.50201" lon="3.75156">
        <ele>200.57</ele>
        <time>2022-04-17T11:26:17Z</time>
      </trkpt>
      <trkpt lat="47.5019" lon="3.75164">
        <ele>201.53</ele>
        <time>2022-04-17T11:26:28Z</time>
      </trkpt>
      <trkpt lat="47.50173" lon="3.75173">
        <ele>202.98</ele>
        <time>2022-04-17T11:26:43Z</time>
      </trkpt>
      <trkpt lat="47.50156" lon="3.75183">
        <ele>203.94</ele>
        <time>2022-04-17T11:26:57Z</time>
      </trkpt>
      <trkpt lat="47.50138" lon="3.75191">
        <ele>204.42</ele>
        <time>2022-04-17T11:27:12Z</time>
      </trkpt>
      <trkpt lat="47.50119" lon="3.75197">
        <ele>204.42</ele>
        <time>2022-04-17T11:27:27Z</time>
      </trkpt>
      <trkpt lat="47.50103" lon="3.75206">
        <ele>204.9</ele>
        <time>2022-04-17T11:27:41Z</time>
      </trkpt>
      <trkpt lat="47.50101" lon="3.75208">
        <ele>204.9</ele>
        <time>2022-04-17T11:27:43Z</time>
      </trkpt>
      <trkpt lat="47.50095" lon="3.75209">
        <ele>204.9</ele>
        <time>2022-04-17T11:27:47Z</time>
      </trkpt>
      <trkpt lat="47.50078" lon="3.75217">
        <ele>205.38</ele>
        <time>2022-04-17T11:28:00Z</time>
      </trkpt>
      <trkpt lat="47.50061" lon="3.75225">
        <ele>204.9</ele>
        <time>2022-04-17T11:28:14Z</time>
      </trkpt>
      <trkpt lat="47.50044" lon="3.75235">
        <ele>204.9</ele>
        <time>2022-04-17T11:28:28Z</time>
      </trkpt>
      <trkpt lat="47.50038" lon="3.75237">
        <ele>204.9</ele>
        <time>2022-04-17T11:28:32Z</time>
      </trkpt>
      <trkpt lat="47.5003" lon="3.75239">
        <ele>204.9</ele>
        <time>2022-04-17T11:28:42Z</time>
      </trkpt>
      <trkpt lat="47.50023" lon="3.75242">
        <ele>204.9</ele>
        <time>2022-04-17T11:28:47Z</time>
      </trkpt>
      <trkpt lat="47.50002" lon="3.75249">
        <ele>204.9</ele>
        <time>2022-04-17T11:29:03Z</time>
      </trkpt>
      <trkpt lat="47.5" lon="3.7525">
        <ele>204.9</ele>
        <time>2022-04-17T11:29:05Z</time>
      </trkpt>
      <trkpt lat="47.49991" lon="3.75251">
        <ele>204.9</ele>
        <time>2022-04-17T11:29:17Z</time>
      </trkpt>
      <trkpt lat="47.49971" lon="3.7525">
        <ele>204.9</ele>
        <time>2022-04-17T11:29:32Z</time>
      </trkpt>
      <trkpt lat="47.49955" lon="3.75253">
        <ele>204.9</ele>
        <time>2022-04-17T11:29:44Z</time>
      </trkpt>
      <trkpt lat="47.49936" lon="3.75255">
        <ele>205.86</ele>
        <time>2022-04-17T11:29:59Z</time>
      </trkpt>
      <trkpt lat="47.49914" lon="3.75254">
        <ele>206.34</ele>
        <time>2022-04-17T11:30:15Z</time>
      </trkpt>
      <trkpt lat="47.49912" lon="3.75254">
        <ele>205.86</ele>
        <time>2022-04-17T11:30:16Z</time>
      </trkpt>
      <trkpt lat="47.49892" lon="3.75256">
        <ele>207.3</ele>
        <time>2022-04-17T11:30:31Z</time>
      </trkpt>
      <trkpt lat="47.4988" lon="3.75251">
        <ele>207.3</ele>
        <time>2022-04-17T11:30:44Z</time>
      </trkpt>
      <trkpt lat="47.49872" lon="3.7525">
        <ele>207.78</ele>
        <time>2022-04-17T11:30:49Z</time>
      </trkpt>
      <trkpt lat="47.49867" lon="3.75251">
        <ele>207.78</ele>
        <time>2022-04-17T11:30:52Z</time>
      </trkpt>
      <trkpt lat="47.49859" lon="3.75251">
        <ele>208.26</ele>
        <time>2022-04-17T11:30:58Z</time>
      </trkpt>
      <trkpt lat="47.49849" lon="3.75252">
        <ele>208.74</ele>
        <time>2022-04-17T11:31:05Z</time>
      </trkpt>
      <trkpt lat="47.49845" lon="3.75253">
        <ele>208.74</ele>
        <time>2022-04-17T11:31:08Z</time>
      </trkpt>
      <trkpt lat="47.49823" lon="3.75248">
        <ele>210.19</ele>
        <time>2022-04-17T11:31:25Z</time>
      </trkpt>
      <trkpt lat="47.49802" lon="3.75241">
        <ele>211.15</ele>
        <time>2022-04-17T11:31:40Z</time>
      </trkpt>
      <trkpt lat="47.49793" lon="3.75238">
        <ele>211.63</ele>
        <time>2022-04-17T11:31:47Z</time>
      </trkpt>
      <trkpt lat="47.49772" lon="3.75234">
        <ele>213.07</ele>
        <time>2022-04-17T11:32:02Z</time>
      </trkpt>
      <trkpt lat="47.49752" lon="3.75229">
        <ele>213.55</ele>
        <time>2022-04-17T11:32:17Z</time>
      </trkpt>
      <trkpt lat="47.49732" lon="3.7523">
        <ele>214.99</ele>
        <time>2022-04-17T11:32:33Z</time>
      </trkpt>
      <trkpt lat="47.49717" lon="3.75232">
        <ele>215.47</ele>
        <time>2022-04-17T11:32:50Z</time>
      </trkpt>
      <trkpt lat="47.49717" lon="3.75233">
        <ele>214.99</ele>
        <time>2022-04-17T11:32:56Z</time>
      </trkpt>
      <trkpt lat="47.49709" lon="3.75232">
        <ele>214.99</ele>
        <time>2022-04-17T11:33:02Z</time>
      </trkpt>
      <trkpt lat="47.49686" lon="3.75233">
        <ele>214.51</ele>
        <time>2022-04-17T11:33:19Z</time>
      </trkpt>
      <trkpt lat="47.49664" lon="3.75237">
        <ele>214.51</ele>
        <time>2022-04-17T11:33:34Z</time>
      </trkpt>
      <trkpt lat="47.49642" lon="3.75239">
        <ele>214.51</ele>
        <time>2022-04-17T11:33:50Z</time>
      </trkpt>
      <trkpt lat="47.49623" lon="3.75233">
        <ele>214.51</ele>
        <time>2022-04-17T11:34:04Z</time>
      </trkpt>
      <trkpt lat="47.4961" lon="3.75229">
        <ele>213.55</ele>
        <time>2022-04-17T11:34:16Z</time>
      </trkpt>
      <trkpt lat="47.49596" lon="3.75227">
        <ele>213.07</ele>
        <time>2022-04-17T11:34:27Z</time>
      </trkpt>
      <trkpt lat="47.49576" lon="3.75223">
        <ele>212.11</ele>
        <time>2022-04-17T11:34:42Z</time>
      </trkpt>
      <trkpt lat="47.49556" lon="3.75221">
        <ele>211.15</ele>
        <time>2022-04-17T11:34:55Z</time>
      </trkpt>
      <trkpt lat="47.49536" lon="3.75214">
        <ele>211.15</ele>
        <time>2022-04-17T11:35:12Z</time>
      </trkpt>
      <trkpt lat="47.49514" lon="3.75206">
        <ele>210.67</ele>
        <time>2022-04-17T11:35:27Z</time>
      </trkpt>
      <trkpt lat="47.49498" lon="3.75196">
        <ele>210.67</ele>
        <time>2022-04-17T11:35:39Z</time>
      </trkpt>
      <trkpt lat="47.49483" lon="3.75187">
        <ele>209.7</ele>
        <time>2022-04-17T11:35:51Z</time>
      </trkpt>
      <trkpt lat="47.49477" lon="3.75182">
        <ele>209.7</ele>
        <time>2022-04-17T11:35:58Z</time>
      </trkpt>
      <trkpt lat="47.49462" lon="3.75176">
        <ele>208.74</ele>
        <time>2022-04-17T11:36:09Z</time>
      </trkpt>
      <trkpt lat="47.49453" lon="3.75174">
        <ele>208.26</ele>
        <time>2022-04-17T11:36:16Z</time>
      </trkpt>
      <trkpt lat="47.4944" lon="3.75165">
        <ele>206.82</ele>
        <time>2022-04-17T11:36:28Z</time>
      </trkpt>
      <trkpt lat="47.49421" lon="3.75155">
        <ele>205.38</ele>
        <time>2022-04-17T11:36:44Z</time>
      </trkpt>
      <trkpt lat="47.49404" lon="3.75144">
        <ele>203.46</ele>
        <time>2022-04-17T11:36:57Z</time>
      </trkpt>
      <trkpt lat="47.49386" lon="3.7514">
        <ele>201.05</ele>
        <time>2022-04-17T11:37:11Z</time>
      </trkpt>
      <trkpt lat="47.49376" lon="3.75136">
        <ele>198.17</ele>
        <time>2022-04-17T11:37:24Z</time>
      </trkpt>
      <trkpt lat="47.49358" lon="3.75133">
        <ele>195.77</ele>
        <time>2022-04-17T11:37:38Z</time>
      </trkpt>
      <trkpt lat="47.49345" lon="3.75129">
        <ele>193.36</ele>
        <time>2022-04-17T11:37:51Z</time>
      </trkpt>
      <trkpt lat="47.4932" lon="3.75134">
        <ele>191.44</ele>
        <time>2022-04-17T11:38:06Z</time>
      </trkpt>
      <trkpt lat="47.49299" lon="3.75129">
        <ele>189.52</ele>
        <time>2022-04-17T11:38:19Z</time>
      </trkpt>
      <trkpt lat="47.49282" lon="3.75126">
        <ele>187.59</ele>
        <time>2022-04-17T11:38:33Z</time>
      </trkpt>
      <trkpt lat="47.49272" lon="3.75122">
        <ele>186.63</ele>
        <time>2022-04-17T11:38:41Z</time>
      </trkpt>
      <trkpt lat="47.49255" lon="3.75117">
        <ele>184.71</ele>
        <time>2022-04-17T11:38:56Z</time>
      </trkpt>
      <trkpt lat="47.4924" lon="3.75114">
        <ele>183.27</ele>
        <time>2022-04-17T11:39:10Z</time>
      </trkpt>
      <trkpt lat="47.49221" lon="3.75108">
        <ele>181.83</ele>
        <time>2022-04-17T11:39:24Z</time>
      </trkpt>
      <trkpt lat="47.49198" lon="3.751">
        <ele>180.38</ele>
        <time>2022-04-17T11:39:40Z</time>
      </trkpt>
      <trkpt lat="47.49175" lon="3.7509">
        <ele>178.94</ele>
        <time>2022-04-17T11:39:55Z</time>
      </trkpt>
      <trkpt lat="47.49152" lon="3.75082">
        <ele>177.5</ele>
        <time>2022-04-17T11:40:13Z</time>
      </trkpt>
      <trkpt lat="47.4913" lon="3.75078">
        <ele>176.54</ele>
        <time>2022-04-17T11:40:29Z</time>
      </trkpt>
      <trkpt lat="47.49127" lon="3.75078">
        <ele>176.54</ele>
        <time>2022-04-17T11:40:31Z</time>
      </trkpt>
      <trkpt lat="47.49108" lon="3.75076">
        <ele>174.62</ele>
        <time>2022-04-17T11:40:47Z</time>
      </trkpt>
      <trkpt lat="47.49089" lon="3.7507">
        <ele>174.14</ele>
        <time>2022-04-17T11:41:00Z</time>
      </trkpt>
      <trkpt lat="47.4907" lon="3.75069">
        <ele>172.69</ele>
        <time>2022-04-17T11:41:16Z</time>
      </trkpt>
      <trkpt lat="47.49056" lon="3.75064">
        <ele>171.73</ele>
        <time>2022-04-17T11:41:29Z</time>
      </trkpt>
      <trkpt lat="47.49036" lon="3.7506">
        <ele>170.77</ele>
        <time>2022-04-17T11:41:43Z</time>
      </trkpt>
      <trkpt lat="47.49027" lon="3.75057">
        <ele>170.77</ele>
        <time>2022-04-17T11:41:50Z</time>
      </trkpt>
      <trkpt lat="47.49009" lon="3.75053">
        <ele>169.81</ele>
        <time>2022-04-17T11:42:04Z</time>
      </trkpt>
      <trkpt lat="47.49007" lon="3.75053">
        <ele>169.33</ele>
        <time>2022-04-17T11:42:06Z</time>
      </trkpt>
      <trkpt lat="47.48984" lon="3.75045">
        <ele>168.37</ele>
        <time>2022-04-17T11:42:21Z</time>
      </trkpt>
      <trkpt lat="47.48959" lon="3.75037">
        <ele>167.89</ele>
        <time>2022-04-17T11:42:37Z</time>
      </trkpt>
      <trkpt lat="47.48954" lon="3.75035">
        <ele>168.37</ele>
        <time>2022-04-17T11:42:41Z</time>
      </trkpt>
      <trkpt lat="47.48933" lon="3.75027">
        <ele>167.41</ele>
        <time>2022-04-17T11:42:56Z</time>
      </trkpt>
      <trkpt lat="47.48929" lon="3.75026">
        <ele>167.41</ele>
        <time>2022-04-17T11:42:59Z</time>
      </trkpt>
      <trkpt lat="47.4891" lon="3.75019">
        <ele>165.96</ele>
        <time>2022-04-17T11:43:14Z</time>
      </trkpt>
      <trkpt lat="47.48892" lon="3.75012">
        <ele>165.48</ele>
        <time>2022-04-17T11:43:28Z</time>
      </trkpt>
      <trkpt lat="47.48875" lon="3.75006">
        <ele>165.48</ele>
        <time>2022-04-17T11:43:40Z</time>
      </trkpt>
      <trkpt lat="47.48857" lon="3.74996">
        <ele>165</ele>
        <time>2022-04-17T11:43:54Z</time>
      </trkpt>
      <trkpt lat="47.48843" lon="3.7499">
        <ele>164.04</ele>
        <time>2022-04-17T11:44:08Z</time>
      </trkpt>
      <trkpt lat="47.4883" lon="3.74987">
        <ele>164.04</ele>
        <time>2022-04-17T11:44:20Z</time>
      </trkpt>
      <trkpt lat="47.48809" lon="3.74982">
        <ele>164.04</ele>
        <time>2022-04-17T11:44:35Z</time>
      </trkpt>
      <trkpt lat="47.4879" lon="3.74979">
        <ele>163.08</ele>
        <time>2022-04-17T11:44:48Z</time>
      </trkpt>
      <trkpt lat="47.4877" lon="3.74976">
        <ele>161.64</ele>
        <time>2022-04-17T11:45:02Z</time>
      </trkpt>
      <trkpt lat="47.48754" lon="3.74976">
        <ele>160.68</ele>
        <time>2022-04-17T11:45:16Z</time>
      </trkpt>
      <trkpt lat="47.48737" lon="3.74975">
        <ele>159.24</ele>
        <time>2022-04-17T11:45:29Z</time>
      </trkpt>
      <trkpt lat="47.48728" lon="3.74975">
        <ele>158.27</ele>
        <time>2022-04-17T11:45:39Z</time>
      </trkpt>
      <trkpt lat="47.48711" lon="3.74971">
        <ele>156.83</ele>
        <time>2022-04-17T11:45:51Z</time>
      </trkpt>
      <trkpt lat="47.4871" lon="3.74957">
        <ele>156.83</ele>
        <time>2022-04-17T11:46:05Z</time>
      </trkpt>
      <trkpt lat="47.48712" lon="3.74954">
        <ele>156.83</ele>
        <time>2022-04-17T11:46:10Z</time>
      </trkpt>
      <trkpt lat="47.48713" lon="3.74951">
        <ele>157.31</ele>
        <time>2022-04-17T11:46:12Z</time>
      </trkpt>
      <trkpt lat="47.48723" lon="3.74936">
        <ele>157.31</ele>
        <time>2022-04-17T11:46:23Z</time>
      </trkpt>
      <trkpt lat="47.48724" lon="3.74916">
        <ele>156.83</ele>
        <time>2022-04-17T11:46:34Z</time>
      </trkpt>
      <trkpt lat="47.48727" lon="3.74911">
        <ele>157.31</ele>
        <time>2022-04-17T11:46:38Z</time>
      </trkpt>
      <trkpt lat="47.4873" lon="3.74901">
        <ele>157.31</ele>
        <time>2022-04-17T11:46:42Z</time>
      </trkpt>
      <trkpt lat="47.48737" lon="3.74883">
        <ele>157.31</ele>
        <time>2022-04-17T11:46:51Z</time>
      </trkpt>
      <trkpt lat="47.48759" lon="3.74848">
        <ele>157.79</ele>
        <time>2022-04-17T11:47:08Z</time>
      </trkpt>
      <trkpt lat="47.48773" lon="3.74831">
        <ele>158.27</ele>
        <time>2022-04-17T11:47:21Z</time>
      </trkpt>
      <trkpt lat="47.48772" lon="3.7483">
        <ele>158.75</ele>
        <time>2022-04-17T11:47:38Z</time>
      </trkpt>
      <trkpt lat="47.48772" lon="3.74831">
        <ele>159.24</ele>
        <time>2022-04-17T11:47:48Z</time>
      </trkpt>
      <trkpt lat="47.48762" lon="3.74837">
        <ele>158.27</ele>
        <time>2022-04-17T11:47:52Z</time>
      </trkpt>
      <trkpt lat="47.48757" lon="3.74843">
        <ele>158.75</ele>
        <time>2022-04-17T11:47:56Z</time>
      </trkpt>
      <trkpt lat="47.48753" lon="3.74849">
        <ele>158.27</ele>
        <time>2022-04-17T11:48:00Z</time>
      </trkpt>
      <trkpt lat="47.48751" lon="3.74851">
        <ele>158.75</ele>
        <time>2022-04-17T11:48:02Z</time>
      </trkpt>
      <trkpt lat="47.4874" lon="3.74874">
        <ele>158.27</ele>
        <time>2022-04-17T11:48:16Z</time>
      </trkpt>
      <trkpt lat="47.48737" lon="3.74878">
        <ele>158.75</ele>
        <time>2022-04-17T11:48:31Z</time>
      </trkpt>
      <trkpt lat="47.48737" lon="3.74875">
        <ele>159.24</ele>
        <time>2022-04-17T11:48:53Z</time>
      </trkpt>
      <trkpt lat="47.48737" lon="3.74874">
        <ele>159.24</ele>
        <time>2022-04-17T11:49:04Z</time>
      </trkpt>
      <trkpt lat="47.48733" lon="3.74875">
        <ele>158.75</ele>
        <time>2022-04-17T11:49:08Z</time>
      </trkpt>
      <trkpt lat="47.48712" lon="3.74878">
        <ele>157.31</ele>
        <time>2022-04-17T11:49:22Z</time>
      </trkpt>
      <trkpt lat="47.48712" lon="3.74877">
        <ele>157.31</ele>
        <time>2022-04-17T11:49:24Z</time>
      </trkpt>
      <trkpt lat="47.48691" lon="3.74886">
        <ele>156.83</ele>
        <time>2022-04-17T11:49:40Z</time>
      </trkpt>
      <trkpt lat="47.48672" lon="3.74889">
        <ele>156.35</ele>
        <time>2022-04-17T11:49:53Z</time>
      </trkpt>
      <trkpt lat="47.48671" lon="3.7489">
        <ele>155.87</ele>
        <time>2022-04-17T11:49:54Z</time>
      </trkpt>
      <trkpt lat="47.48658" lon="3.74896">
        <ele>155.87</ele>
        <time>2022-04-17T11:50:03Z</time>
      </trkpt>
      <trkpt lat="47.48641" lon="3.74903">
        <ele>154.43</ele>
        <time>2022-04-17T11:50:15Z</time>
      </trkpt>
      <trkpt lat="47.48621" lon="3.74914">
        <ele>155.39</ele>
        <time>2022-04-17T11:50:30Z</time>
      </trkpt>
      <trkpt lat="47.48603" lon="3.74925">
        <ele>154.91</ele>
        <time>2022-04-17T11:50:44Z</time>
      </trkpt>
      <trkpt lat="47.48599" lon="3.74928">
        <ele>156.35</ele>
        <time>2022-04-17T11:50:47Z</time>
      </trkpt>
      <trkpt lat="47.48586" lon="3.74946">
        <ele>155.87</ele>
        <time>2022-04-17T11:51:00Z</time>
      </trkpt>
      <trkpt lat="47.4857" lon="3.74973">
        <ele>155.87</ele>
        <time>2022-04-17T11:51:16Z</time>
      </trkpt>
      <trkpt lat="47.48561" lon="3.7499">
        <ele>155.39</ele>
        <time>2022-04-17T11:51:26Z</time>
      </trkpt>
      <trkpt lat="47.48551" lon="3.75">
        <ele>156.35</ele>
        <time>2022-04-17T11:51:40Z</time>
      </trkpt>
      <trkpt lat="47.48551" lon="3.74999">
        <ele>155.87</ele>
        <time>2022-04-17T11:51:50Z</time>
      </trkpt>
      <trkpt lat="47.4855" lon="3.75">
        <ele>156.83</ele>
        <time>2022-04-17T11:51:52Z</time>
      </trkpt>
      <trkpt lat="47.48528" lon="3.75012">
        <ele>157.79</ele>
        <time>2022-04-17T11:52:10Z</time>
      </trkpt>
      <trkpt lat="47.48514" lon="3.75019">
        <ele>157.79</ele>
        <time>2022-04-17T11:52:21Z</time>
      </trkpt>
      <trkpt lat="47.48499" lon="3.75023">
        <ele>158.27</ele>
        <time>2022-04-17T11:52:32Z</time>
      </trkpt>
      <trkpt lat="47.48488" lon="3.75024">
        <ele>158.27</ele>
        <time>2022-04-17T11:52:41Z</time>
      </trkpt>
      <trkpt lat="47.48485" lon="3.75024">
        <ele>158.27</ele>
        <time>2022-04-17T11:52:43Z</time>
      </trkpt>
      <trkpt lat="47.48466" lon="3.75028">
        <ele>159.24</ele>
        <time>2022-04-17T11:52:57Z</time>
      </trkpt>
      <trkpt lat="47.48444" lon="3.75034">
        <ele>159.24</ele>
        <time>2022-04-17T11:53:13Z</time>
      </trkpt>
      <trkpt lat="47.48427" lon="3.75044">
        <ele>159.72</ele>
        <time>2022-04-17T11:53:27Z</time>
      </trkpt>
      <trkpt lat="47.48426" lon="3.75045">
        <ele>159.72</ele>
        <time>2022-04-17T11:53:28Z</time>
      </trkpt>
      <trkpt lat="47.48408" lon="3.75055">
        <ele>160.2</ele>
        <time>2022-04-17T11:53:41Z</time>
      </trkpt>
      <trkpt lat="47.484" lon="3.75058">
        <ele>160.68</ele>
        <time>2022-04-17T11:53:47Z</time>
      </trkpt>
      <trkpt lat="47.48382" lon="3.75066">
        <ele>161.64</ele>
        <time>2022-04-17T11:54:02Z</time>
      </trkpt>
      <trkpt lat="47.48364" lon="3.75073">
        <ele>163.08</ele>
        <time>2022-04-17T11:54:17Z</time>
      </trkpt>
      <trkpt lat="47.48345" lon="3.75077">
        <ele>165</ele>
        <time>2022-04-17T11:54:31Z</time>
      </trkpt>
      <trkpt lat="47.48329" lon="3.75083">
        <ele>165.96</ele>
        <time>2022-04-17T11:54:44Z</time>
      </trkpt>
      <trkpt lat="47.48314" lon="3.75086">
        <ele>166.45</ele>
        <time>2022-04-17T11:54:55Z</time>
      </trkpt>
      <trkpt lat="47.48305" lon="3.75084">
        <ele>166.45</ele>
        <time>2022-04-17T11:55:03Z</time>
      </trkpt>
      <trkpt lat="47.48288" lon="3.75081">
        <ele>165.96</ele>
        <time>2022-04-17T11:55:18Z</time>
      </trkpt>
      <trkpt lat="47.4827" lon="3.75075">
        <ele>165</ele>
        <time>2022-04-17T11:55:31Z</time>
      </trkpt>
      <trkpt lat="47.48251" lon="3.75072">
        <ele>163.08</ele>
        <time>2022-04-17T11:55:44Z</time>
      </trkpt>
      <trkpt lat="47.48249" lon="3.75072">
        <ele>163.08</ele>
        <time>2022-04-17T11:55:46Z</time>
      </trkpt>
      <trkpt lat="47.48231" lon="3.75072">
        <ele>161.64</ele>
        <time>2022-04-17T11:56:00Z</time>
      </trkpt>
      <trkpt lat="47.48213" lon="3.75072">
        <ele>160.68</ele>
        <time>2022-04-17T11:56:14Z</time>
      </trkpt>
      <trkpt lat="47.48194" lon="3.75069">
        <ele>161.16</ele>
        <time>2022-04-17T11:56:28Z</time>
      </trkpt>
      <trkpt lat="47.48182" lon="3.75067">
        <ele>160.68</ele>
        <time>2022-04-17T11:56:43Z</time>
      </trkpt>
      <trkpt lat="47.48182" lon="3.75066">
        <ele>160.68</ele>
        <time>2022-04-17T11:56:49Z</time>
      </trkpt>
      <trkpt lat="47.48172" lon="3.75066">
        <ele>160.2</ele>
        <time>2022-04-17T11:56:56Z</time>
      </trkpt>
      <trkpt lat="47.48149" lon="3.75064">
        <ele>160.2</ele>
        <time>2022-04-17T11:57:11Z</time>
      </trkpt>
      <trkpt lat="47.48125" lon="3.75062">
        <ele>160.68</ele>
        <time>2022-04-17T11:57:28Z</time>
      </trkpt>
      <trkpt lat="47.48105" lon="3.75061">
        <ele>161.16</ele>
        <time>2022-04-17T11:57:43Z</time>
      </trkpt>
      <trkpt lat="47.48087" lon="3.75063">
        <ele>161.64</ele>
        <time>2022-04-17T11:57:57Z</time>
      </trkpt>
      <trkpt lat="47.48071" lon="3.75066">
        <ele>162.12</ele>
        <time>2022-04-17T11:58:09Z</time>
      </trkpt>
      <trkpt lat="47.48068" lon="3.75066">
        <ele>162.12</ele>
        <time>2022-04-17T11:58:12Z</time>
      </trkpt>
      <trkpt lat="47.48065" lon="3.75065">
        <ele>162.12</ele>
        <time>2022-04-17T11:58:15Z</time>
      </trkpt>
      <trkpt lat="47.48053" lon="3.75063">
        <ele>163.08</ele>
        <time>2022-04-17T11:58:24Z</time>
      </trkpt>
      <trkpt lat="47.48047" lon="3.75059">
        <ele>163.56</ele>
        <time>2022-04-17T11:58:29Z</time>
      </trkpt>
      <trkpt lat="47.48042" lon="3.75058">
        <ele>163.56</ele>
        <time>2022-04-17T11:58:34Z</time>
      </trkpt>
      <trkpt lat="47.48022" lon="3.75052">
        <ele>164.04</ele>
        <time>2022-04-17T11:58:49Z</time>
      </trkpt>
      <trkpt lat="47.47999" lon="3.75036">
        <ele>165</ele>
        <time>2022-04-17T11:59:06Z</time>
      </trkpt>
      <trkpt lat="47.47987" lon="3.75033">
        <ele>165.48</ele>
        <time>2022-04-17T11:59:18Z</time>
      </trkpt>
      <trkpt lat="47.47967" lon="3.75037">
        <ele>164.52</ele>
        <time>2022-04-17T11:59:32Z</time>
      </trkpt>
      <trkpt lat="47.47952" lon="3.75049">
        <ele>164.04</ele>
        <time>2022-04-17T11:59:44Z</time>
      </trkpt>
      <trkpt lat="47.47939" lon="3.75052">
        <ele>162.6</ele>
        <time>2022-04-17T11:59:56Z</time>
      </trkpt>
      <trkpt lat="47.47931" lon="3.7505">
        <ele>162.12</ele>
        <time>2022-04-17T12:00:05Z</time>
      </trkpt>
      <trkpt lat="47.47915" lon="3.75054">
        <ele>160.68</ele>
        <time>2022-04-17T12:00:18Z</time>
      </trkpt>
      <trkpt lat="47.47899" lon="3.75055">
        <ele>158.75</ele>
        <time>2022-04-17T12:00:31Z</time>
      </trkpt>
      <trkpt lat="47.47879" lon="3.75048">
        <ele>157.31</ele>
        <time>2022-04-17T12:00:45Z</time>
      </trkpt>
      <trkpt lat="47.47864" lon="3.7504">
        <ele>155.87</ele>
        <time>2022-04-17T12:00:59Z</time>
      </trkpt>
      <trkpt lat="47.47861" lon="3.75039">
        <ele>155.87</ele>
        <time>2022-04-17T12:01:02Z</time>
      </trkpt>
      <trkpt lat="47.47843" lon="3.75035">
        <ele>155.39</ele>
        <time>2022-04-17T12:01:16Z</time>
      </trkpt>
      <trkpt lat="47.47824" lon="3.75035">
        <ele>154.91</ele>
        <time>2022-04-17T12:01:30Z</time>
      </trkpt>
      <trkpt lat="47.47804" lon="3.7504">
        <ele>153.95</ele>
        <time>2022-04-17T12:01:46Z</time>
      </trkpt>
      <trkpt lat="47.47802" lon="3.75043">
        <ele>153.47</ele>
        <time>2022-04-17T12:01:48Z</time>
      </trkpt>
      <trkpt lat="47.47801" lon="3.75047">
        <ele>153.95</ele>
        <time>2022-04-17T12:01:51Z</time>
      </trkpt>
      <trkpt lat="47.47797" lon="3.75052">
        <ele>153.95</ele>
        <time>2022-04-17T12:01:55Z</time>
      </trkpt>
      <trkpt lat="47.47794" lon="3.75055">
        <ele>154.43</ele>
        <time>2022-04-17T12:01:58Z</time>
      </trkpt>
      <trkpt lat="47.47789" lon="3.75063">
        <ele>154.91</ele>
        <time>2022-04-17T12:02:08Z</time>
      </trkpt>
      <trkpt lat="47.47781" lon="3.75073">
        <ele>154.91</ele>
        <time>2022-04-17T12:02:19Z</time>
      </trkpt>
      <trkpt lat="47.47772" lon="3.75085">
        <ele>154.91</ele>
        <time>2022-04-17T12:02:30Z</time>
      </trkpt>
      <trkpt lat="47.47768" lon="3.75089">
        <ele>155.87</ele>
        <time>2022-04-17T12:02:34Z</time>
      </trkpt>
      <trkpt lat="47.47766" lon="3.75093">
        <ele>156.35</ele>
        <time>2022-04-17T12:02:37Z</time>
      </trkpt>
      <trkpt lat="47.47762" lon="3.75095">
        <ele>156.83</ele>
        <time>2022-04-17T12:02:40Z</time>
      </trkpt>
      <trkpt lat="47.47748" lon="3.7511">
        <ele>156.83</ele>
        <time>2022-04-17T12:02:52Z</time>
      </trkpt>
      <trkpt lat="47.47745" lon="3.75114">
        <ele>157.79</ele>
        <time>2022-04-17T12:02:56Z</time>
      </trkpt>
      <trkpt lat="47.4774" lon="3.7512">
        <ele>158.27</ele>
        <time>2022-04-17T12:03:03Z</time>
      </trkpt>
      <trkpt lat="47.47729" lon="3.75127">
        <ele>159.24</ele>
        <time>2022-04-17T12:03:13Z</time>
      </trkpt>
      <trkpt lat="47.47728" lon="3.7513">
        <ele>159.72</ele>
        <time>2022-04-17T12:03:16Z</time>
      </trkpt>
      <trkpt lat="47.47725" lon="3.75132">
        <ele>160.68</ele>
        <time>2022-04-17T12:03:19Z</time>
      </trkpt>
      <trkpt lat="47.47722" lon="3.75135">
        <ele>160.68</ele>
        <time>2022-04-17T12:03:22Z</time>
      </trkpt>
      <trkpt lat="47.47711" lon="3.75136">
        <ele>162.12</ele>
        <time>2022-04-17T12:03:34Z</time>
      </trkpt>
      <trkpt lat="47.477" lon="3.75131">
        <ele>163.56</ele>
        <time>2022-04-17T12:03:46Z</time>
      </trkpt>
      <trkpt lat="47.47692" lon="3.75128">
        <ele>164.52</ele>
        <time>2022-04-17T12:03:54Z</time>
      </trkpt>
      <trkpt lat="47.47677" lon="3.75123">
        <ele>165.48</ele>
        <time>2022-04-17T12:04:08Z</time>
      </trkpt>
      <trkpt lat="47.47666" lon="3.75117">
        <ele>165.96</ele>
        <time>2022-04-17T12:04:19Z</time>
      </trkpt>
      <trkpt lat="47.47663" lon="3.75117">
        <ele>166.45</ele>
        <time>2022-04-17T12:04:22Z</time>
      </trkpt>
      <trkpt lat="47.47656" lon="3.75114">
        <ele>166.93</ele>
        <time>2022-04-17T12:04:28Z</time>
      </trkpt>
      <trkpt lat="47.4765" lon="3.75109">
        <ele>167.41</ele>
        <time>2022-04-17T12:04:34Z</time>
      </trkpt>
      <trkpt lat="47.47636" lon="3.75102">
        <ele>168.85</ele>
        <time>2022-04-17T12:04:46Z</time>
      </trkpt>
      <trkpt lat="47.47627" lon="3.75099">
        <ele>169.33</ele>
        <time>2022-04-17T12:04:56Z</time>
      </trkpt>
      <trkpt lat="47.47621" lon="3.75096">
        <ele>169.81</ele>
        <time>2022-04-17T12:05:01Z</time>
      </trkpt>
      <trkpt lat="47.47614" lon="3.7509">
        <ele>170.29</ele>
        <time>2022-04-17T12:05:06Z</time>
      </trkpt>
      <trkpt lat="47.47603" lon="3.75085">
        <ele>170.29</ele>
        <time>2022-04-17T12:05:16Z</time>
      </trkpt>
      <trkpt lat="47.47597" lon="3.75083">
        <ele>170.29</ele>
        <time>2022-04-17T12:05:21Z</time>
      </trkpt>
      <trkpt lat="47.47586" lon="3.75078">
        <ele>171.25</ele>
        <time>2022-04-17T12:05:30Z</time>
      </trkpt>
      <trkpt lat="47.47584" lon="3.75076">
        <ele>171.25</ele>
        <time>2022-04-17T12:05:32Z</time>
      </trkpt>
      <trkpt lat="47.47569" lon="3.75068">
        <ele>172.21</ele>
        <time>2022-04-17T12:05:44Z</time>
      </trkpt>
      <trkpt lat="47.47553" lon="3.75059">
        <ele>173.66</ele>
        <time>2022-04-17T12:05:57Z</time>
      </trkpt>
      <trkpt lat="47.47539" lon="3.75049">
        <ele>174.14</ele>
        <time>2022-04-17T12:06:12Z</time>
      </trkpt>
      <trkpt lat="47.47536" lon="3.75049">
        <ele>174.14</ele>
        <time>2022-04-17T12:06:14Z</time>
      </trkpt>
      <trkpt lat="47.47518" lon="3.75037">
        <ele>175.58</ele>
        <time>2022-04-17T12:06:30Z</time>
      </trkpt>
      <trkpt lat="47.47505" lon="3.75031">
        <ele>175.58</ele>
        <time>2022-04-17T12:06:41Z</time>
      </trkpt>
      <trkpt lat="47.47494" lon="3.75027">
        <ele>175.58</ele>
        <time>2022-04-17T12:06:49Z</time>
      </trkpt>
      <trkpt lat="47.47476" lon="3.75022">
        <ele>176.06</ele>
        <time>2022-04-17T12:07:04Z</time>
      </trkpt>
      <trkpt lat="47.4747" lon="3.7502">
        <ele>176.54</ele>
        <time>2022-04-17T12:07:08Z</time>
      </trkpt>
      <trkpt lat="47.47461" lon="3.75016">
        <ele>177.02</ele>
        <time>2022-04-17T12:07:14Z</time>
      </trkpt>
      <trkpt lat="47.47454" lon="3.75014">
        <ele>177.5</ele>
        <time>2022-04-17T12:07:19Z</time>
      </trkpt>
      <trkpt lat="47.47452" lon="3.75014">
        <ele>177.5</ele>
        <time>2022-04-17T12:07:21Z</time>
      </trkpt>
      <trkpt lat="47.47437" lon="3.75009">
        <ele>177.5</ele>
        <time>2022-04-17T12:07:33Z</time>
      </trkpt>
      <trkpt lat="47.47423" lon="3.75004">
        <ele>177.98</ele>
        <time>2022-04-17T12:07:43Z</time>
      </trkpt>
      <trkpt lat="47.47419" lon="3.75002">
        <ele>178.94</ele>
        <time>2022-04-17T12:07:48Z</time>
      </trkpt>
      <trkpt lat="47.47413" lon="3.74999">
        <ele>178.94</ele>
        <time>2022-04-17T12:07:56Z</time>
      </trkpt>
      <trkpt lat="47.47398" lon="3.74993">
        <ele>179.9</ele>
        <time>2022-04-17T12:08:07Z</time>
      </trkpt>
      <trkpt lat="47.47389" lon="3.7499">
        <ele>179.9</ele>
        <time>2022-04-17T12:08:14Z</time>
      </trkpt>
      <trkpt lat="47.47379" lon="3.74985">
        <ele>180.87</ele>
        <time>2022-04-17T12:08:22Z</time>
      </trkpt>
      <trkpt lat="47.47363" lon="3.74986">
        <ele>181.35</ele>
        <time>2022-04-17T12:08:34Z</time>
      </trkpt>
      <trkpt lat="47.47359" lon="3.74985">
        <ele>181.35</ele>
        <time>2022-04-17T12:08:37Z</time>
      </trkpt>
      <trkpt lat="47.47341" lon="3.74985">
        <ele>182.31</ele>
        <time>2022-04-17T12:08:52Z</time>
      </trkpt>
      <trkpt lat="47.47325" lon="3.74986">
        <ele>183.27</ele>
        <time>2022-04-17T12:09:06Z</time>
      </trkpt>
      <trkpt lat="47.47306" lon="3.74987">
        <ele>183.75</ele>
        <time>2022-04-17T12:09:20Z</time>
      </trkpt>
      <trkpt lat="47.47305" lon="3.74987">
        <ele>184.23</ele>
        <time>2022-04-17T12:09:21Z</time>
      </trkpt>
      <trkpt lat="47.47285" lon="3.7499">
        <ele>184.71</ele>
        <time>2022-04-17T12:09:36Z</time>
      </trkpt>
      <trkpt lat="47.47268" lon="3.74994">
        <ele>185.67</ele>
        <time>2022-04-17T12:09:49Z</time>
      </trkpt>
      <trkpt lat="47.47261" lon="3.74997">
        <ele>186.15</ele>
        <time>2022-04-17T12:10:01Z</time>
      </trkpt>
      <trkpt lat="47.4726" lon="3.74997">
        <ele>185.67</ele>
        <time>2022-04-17T12:10:17Z</time>
      </trkpt>
      <trkpt lat="47.4726" lon="3.74997">
        <ele>186.63</ele>
        <time>2022-04-17T12:10:42Z</time>
      </trkpt>
      <trkpt lat="47.47259" lon="3.74997">
        <ele>186.63</ele>
        <time>2022-04-17T12:10:45Z</time>
      </trkpt>
      <trkpt lat="47.47257" lon="3.74997">
        <ele>186.63</ele>
        <time>2022-04-17T12:10:48Z</time>
      </trkpt>
      <trkpt lat="47.47241" lon="3.74995">
        <ele>187.59</ele>
        <time>2022-04-17T12:11:02Z</time>
      </trkpt>
      <trkpt lat="47.47238" lon="3.74996">
        <ele>187.11</ele>
        <time>2022-04-17T12:11:04Z</time>
      </trkpt>
      <trkpt lat="47.47228" lon="3.74998">
        <ele>189.52</ele>
        <time>2022-04-17T12:11:15Z</time>
      </trkpt>
      <trkpt lat="47.47226" lon="3.75">
        <ele>189.52</ele>
        <time>2022-04-17T12:11:17Z</time>
      </trkpt>
      <trkpt lat="47.47224" lon="3.75">
        <ele>189.52</ele>
        <time>2022-04-17T12:11:19Z</time>
      </trkpt>
      <trkpt lat="47.47211" lon="3.75004">
        <ele>190.96</ele>
        <time>2022-04-17T12:11:32Z</time>
      </trkpt>
      <trkpt lat="47.47201" lon="3.75003">
        <ele>192.4</ele>
        <time>2022-04-17T12:11:43Z</time>
      </trkpt>
      <trkpt lat="47.472" lon="3.75003">
        <ele>192.4</ele>
        <time>2022-04-17T12:11:44Z</time>
      </trkpt>
      <trkpt lat="47.47192" lon="3.75005">
        <ele>193.36</ele>
        <time>2022-04-17T12:11:52Z</time>
      </trkpt>
      <trkpt lat="47.47189" lon="3.75006">
        <ele>193.36</ele>
        <time>2022-04-17T12:11:55Z</time>
      </trkpt>
      <trkpt lat="47.47183" lon="3.75006">
        <ele>194.8</ele>
        <time>2022-04-17T12:12:02Z</time>
      </trkpt>
      <trkpt lat="47.47173" lon="3.75007">
        <ele>196.25</ele>
        <time>2022-04-17T12:12:13Z</time>
      </trkpt>
      <trkpt lat="47.47171" lon="3.75007">
        <ele>196.25</ele>
        <time>2022-04-17T12:12:15Z</time>
      </trkpt>
      <trkpt lat="47.47164" lon="3.75006">
        <ele>197.21</ele>
        <time>2022-04-17T12:12:22Z</time>
      </trkpt>
      <trkpt lat="47.47153" lon="3.75007">
        <ele>198.65</ele>
        <time>2022-04-17T12:12:33Z</time>
      </trkpt>
      <trkpt lat="47.47142" lon="3.75008">
        <ele>200.09</ele>
        <time>2022-04-17T12:12:43Z</time>
      </trkpt>
      <trkpt lat="47.47131" lon="3.7501">
        <ele>201.53</ele>
        <time>2022-04-17T12:12:53Z</time>
      </trkpt>
      <trkpt lat="47.47124" lon="3.75015">
        <ele>202.49</ele>
        <time>2022-04-17T12:13:01Z</time>
      </trkpt>
      <trkpt lat="47.47121" lon="3.75018">
        <ele>202.98</ele>
        <time>2022-04-17T12:13:04Z</time>
      </trkpt>
      <trkpt lat="47.47109" lon="3.75029">
        <ele>204.9</ele>
        <time>2022-04-17T12:13:18Z</time>
      </trkpt>
      <trkpt lat="47.47102" lon="3.75036">
        <ele>205.86</ele>
        <time>2022-04-17T12:13:25Z</time>
      </trkpt>
      <trkpt lat="47.471" lon="3.75039">
        <ele>205.86</ele>
        <time>2022-04-17T12:13:28Z</time>
      </trkpt>
      <trkpt lat="47.47098" lon="3.75041">
        <ele>205.86</ele>
        <time>2022-04-17T12:13:31Z</time>
      </trkpt>
      <trkpt lat="47.4709" lon="3.75046">
        <ele>207.3</ele>
        <time>2022-04-17T12:13:39Z</time>
      </trkpt>
      <trkpt lat="47.47077" lon="3.75051">
        <ele>208.74</ele>
        <time>2022-04-17T12:13:53Z</time>
      </trkpt>
      <trkpt lat="47.47065" lon="3.75053">
        <ele>209.7</ele>
        <time>2022-04-17T12:14:02Z</time>
      </trkpt>
      <trkpt lat="47.47062" lon="3.75053">
        <ele>210.19</ele>
        <time>2022-04-17T12:14:05Z</time>
      </trkpt>
      <trkpt lat="47.47058" lon="3.75052">
        <ele>210.19</ele>
        <time>2022-04-17T12:14:09Z</time>
      </trkpt>
      <trkpt lat="47.47047" lon="3.75052">
        <ele>211.63</ele>
        <time>2022-04-17T12:14:21Z</time>
      </trkpt>
      <trkpt lat="47.47035" lon="3.75051">
        <ele>212.59</ele>
        <time>2022-04-17T12:14:32Z</time>
      </trkpt>
      <trkpt lat="47.47023" lon="3.7505">
        <ele>214.51</ele>
        <time>2022-04-17T12:14:44Z</time>
      </trkpt>
      <trkpt lat="47.47011" lon="3.75052">
        <ele>216.43</ele>
        <time>2022-04-17T12:14:56Z</time>
      </trkpt>
      <trkpt lat="47.46999" lon="3.75055">
        <ele>217.88</ele>
        <time>2022-04-17T12:15:08Z</time>
      </trkpt>
      <trkpt lat="47.46989" lon="3.75056">
        <ele>218.84</ele>
        <time>2022-04-17T12:15:18Z</time>
      </trkpt>
      <trkpt lat="47.46986" lon="3.75058">
        <ele>218.84</ele>
        <time>2022-04-17T12:15:21Z</time>
      </trkpt>
      <trkpt lat="47.46974" lon="3.7506">
        <ele>220.76</ele>
        <time>2022-04-17T12:15:33Z</time>
      </trkpt>
      <trkpt lat="47.46961" lon="3.75062">
        <ele>222.68</ele>
        <time>2022-04-17T12:15:46Z</time>
      </trkpt>
      <trkpt lat="47.46954" lon="3.7506">
        <ele>225.09</ele>
        <time>2022-04-17T12:15:59Z</time>
      </trkpt>
      <trkpt lat="47.46947" lon="3.7506">
        <ele>226.53</ele>
        <time>2022-04-17T12:16:10Z</time>
      </trkpt>
      <trkpt lat="47.46941" lon="3.75061">
        <ele>228.45</ele>
        <time>2022-04-17T12:16:21Z</time>
      </trkpt>
      <trkpt lat="47.46935" lon="3.75063">
        <ele>228.93</ele>
        <time>2022-04-17T12:16:33Z</time>
      </trkpt>
      <trkpt lat="47.46935" lon="3.75064">
        <ele>228.93</ele>
        <time>2022-04-17T12:16:52Z</time>
      </trkpt>
      <trkpt lat="47.46929" lon="3.75063">
        <ele>229.89</ele>
        <time>2022-04-17T12:17:04Z</time>
      </trkpt>
      <trkpt lat="47.46919" lon="3.75058">
        <ele>231.81</ele>
        <time>2022-04-17T12:17:16Z</time>
      </trkpt>
      <trkpt lat="47.46912" lon="3.7505">
        <ele>233.74</ele>
        <time>2022-04-17T12:17:28Z</time>
      </trkpt>
      <trkpt lat="47.46911" lon="3.75047">
        <ele>234.22</ele>
        <time>2022-04-17T12:17:30Z</time>
      </trkpt>
      <trkpt lat="47.46903" lon="3.75036">
        <ele>236.14</ele>
        <time>2022-04-17T12:17:42Z</time>
      </trkpt>
      <trkpt lat="47.46897" lon="3.75025">
        <ele>238.06</ele>
        <time>2022-04-17T12:17:54Z</time>
      </trkpt>
      <trkpt lat="47.46893" lon="3.75014">
        <ele>239.51</ele>
        <time>2022-04-17T12:18:06Z</time>
      </trkpt>
      <trkpt lat="47.46886" lon="3.75003">
        <ele>241.43</ele>
        <time>2022-04-17T12:18:19Z</time>
      </trkpt>
      <trkpt lat="47.46883" lon="3.74998">
        <ele>242.87</ele>
        <time>2022-04-17T12:18:28Z</time>
      </trkpt>
      <trkpt lat="47.46878" lon="3.74985">
        <ele>244.79</ele>
        <time>2022-04-17T12:18:41Z</time>
      </trkpt>
      <trkpt lat="47.46872" lon="3.74975">
        <ele>246.72</ele>
        <time>2022-04-17T12:18:53Z</time>
      </trkpt>
      <trkpt lat="47.46869" lon="3.74967">
        <ele>249.6</ele>
        <time>2022-04-17T12:19:06Z</time>
      </trkpt>
      <trkpt lat="47.46865" lon="3.74959">
        <ele>251.52</ele>
        <time>2022-04-17T12:19:17Z</time>
      </trkpt>
      <trkpt lat="47.46861" lon="3.74947">
        <ele>252.48</ele>
        <time>2022-04-17T12:19:27Z</time>
      </trkpt>
      <trkpt lat="47.46857" lon="3.74935">
        <ele>253.93</ele>
        <time>2022-04-17T12:19:38Z</time>
      </trkpt>
      <trkpt lat="47.4685" lon="3.74925">
        <ele>255.37</ele>
        <time>2022-04-17T12:19:49Z</time>
      </trkpt>
      <trkpt lat="47.46847" lon="3.74917">
        <ele>256.33</ele>
        <time>2022-04-17T12:20:00Z</time>
      </trkpt>
      <trkpt lat="47.46843" lon="3.74907">
        <ele>258.25</ele>
        <time>2022-04-17T12:20:11Z</time>
      </trkpt>
      <trkpt lat="47.46834" lon="3.74894">
        <ele>260.65</ele>
        <time>2022-04-17T12:20:24Z</time>
      </trkpt>
      <trkpt lat="47.46827" lon="3.74884">
        <ele>262.58</ele>
        <time>2022-04-17T12:20:35Z</time>
      </trkpt>
      <trkpt lat="47.46823" lon="3.74882">
        <ele>263.06</ele>
        <time>2022-04-17T12:20:40Z</time>
      </trkpt>
      <trkpt lat="47.46817" lon="3.74877">
        <ele>264.5</ele>
        <time>2022-04-17T12:20:50Z</time>
      </trkpt>
      <trkpt lat="47.46809" lon="3.74869">
        <ele>266.42</ele>
        <time>2022-04-17T12:21:01Z</time>
      </trkpt>
      <trkpt lat="47.46804" lon="3.74864">
        <ele>267.38</ele>
        <time>2022-04-17T12:21:12Z</time>
      </trkpt>
      <trkpt lat="47.46795" lon="3.74857">
        <ele>270.27</ele>
        <time>2022-04-17T12:21:27Z</time>
      </trkpt>
      <trkpt lat="47.46789" lon="3.74849">
        <ele>271.71</ele>
        <time>2022-04-17T12:21:39Z</time>
      </trkpt>
      <trkpt lat="47.46786" lon="3.74845">
        <ele>272.67</ele>
        <time>2022-04-17T12:21:44Z</time>
      </trkpt>
      <trkpt lat="47.46775" lon="3.74833">
        <ele>274.11</ele>
        <time>2022-04-17T12:21:56Z</time>
      </trkpt>
      <trkpt lat="47.46768" lon="3.74825">
        <ele>275.56</ele>
        <time>2022-04-17T12:22:09Z</time>
      </trkpt>
      <trkpt lat="47.46764" lon="3.74821">
        <ele>276.52</ele>
        <time>2022-04-17T12:22:13Z</time>
      </trkpt>
      <trkpt lat="47.46753" lon="3.74809">
        <ele>278.92</ele>
        <time>2022-04-17T12:22:28Z</time>
      </trkpt>
      <trkpt lat="47.46751" lon="3.74806">
        <ele>278.92</ele>
        <time>2022-04-17T12:22:31Z</time>
      </trkpt>
      <trkpt lat="47.46744" lon="3.74797">
        <ele>280.36</ele>
        <time>2022-04-17T12:22:42Z</time>
      </trkpt>
      <trkpt lat="47.46735" lon="3.74786">
        <ele>282.28</ele>
        <time>2022-04-17T12:22:54Z</time>
      </trkpt>
      <trkpt lat="47.46724" lon="3.7477">
        <ele>284.21</ele>
        <time>2022-04-17T12:23:06Z</time>
      </trkpt>
      <trkpt lat="47.46721" lon="3.74766">
        <ele>285.65</ele>
        <time>2022-04-17T12:23:14Z</time>
      </trkpt>
      <trkpt lat="47.4671" lon="3.74759">
        <ele>288.05</ele>
        <time>2022-04-17T12:23:27Z</time>
      </trkpt>
      <trkpt lat="47.46704" lon="3.74754">
        <ele>289.49</ele>
        <time>2022-04-17T12:23:38Z</time>
      </trkpt>
      <trkpt lat="47.46686" lon="3.74754">
        <ele>291.9</ele>
        <time>2022-04-17T12:23:51Z</time>
      </trkpt>
      <trkpt lat="47.46675" lon="3.74762">
        <ele>294.3</ele>
        <time>2022-04-17T12:24:05Z</time>
      </trkpt>
      <trkpt lat="47.46674" lon="3.74763">
        <ele>294.3</ele>
        <time>2022-04-17T12:24:06Z</time>
      </trkpt>
      <trkpt lat="47.46669" lon="3.74771">
        <ele>294.78</ele>
        <time>2022-04-17T12:24:15Z</time>
      </trkpt>
      <trkpt lat="47.46664" lon="3.74775">
        <ele>295.26</ele>
        <time>2022-04-17T12:24:21Z</time>
      </trkpt>
      <trkpt lat="47.46659" lon="3.74777">
        <ele>295.74</ele>
        <time>2022-04-17T12:24:25Z</time>
      </trkpt>
      <trkpt lat="47.46644" lon="3.74781">
        <ele>297.18</ele>
        <time>2022-04-17T12:24:40Z</time>
      </trkpt>
      <trkpt lat="47.46641" lon="3.74776">
        <ele>296.7</ele>
        <time>2022-04-17T12:24:44Z</time>
      </trkpt>
      <trkpt lat="47.46637" lon="3.74769">
        <ele>296.7</ele>
        <time>2022-04-17T12:24:51Z</time>
      </trkpt>
      <trkpt lat="47.46636" lon="3.74759">
        <ele>296.22</ele>
        <time>2022-04-17T12:25:05Z</time>
      </trkpt>
      <trkpt lat="47.46637" lon="3.74755">
        <ele>296.7</ele>
        <time>2022-04-17T12:25:22Z</time>
      </trkpt>
      <trkpt lat="47.46635" lon="3.74754">
        <ele>297.18</ele>
        <time>2022-04-17T12:25:34Z</time>
      </trkpt>
      <trkpt lat="47.46631" lon="3.7475">
        <ele>296.7</ele>
        <time>2022-04-17T12:25:48Z</time>
      </trkpt>
      <trkpt lat="47.46628" lon="3.7475">
        <ele>297.18</ele>
        <time>2022-04-17T12:26:00Z</time>
      </trkpt>
      <trkpt lat="47.46629" lon="3.74752">
        <ele>297.18</ele>
        <time>2022-04-17T12:26:11Z</time>
      </trkpt>
      <trkpt lat="47.4663" lon="3.74755">
        <ele>297.18</ele>
        <time>2022-04-17T12:26:23Z</time>
      </trkpt>
      <trkpt lat="47.4663" lon="3.74754">
        <ele>296.7</ele>
        <time>2022-04-17T12:26:42Z</time>
      </trkpt>
      <trkpt lat="47.46626" lon="3.74762">
        <ele>297.18</ele>
        <time>2022-04-17T12:26:57Z</time>
      </trkpt>
      <trkpt lat="47.4662" lon="3.74771">
        <ele>297.67</ele>
        <time>2022-04-17T12:27:09Z</time>
      </trkpt>
      <trkpt lat="47.46621" lon="3.74771">
        <ele>297.18</ele>
        <time>2022-04-17T12:27:31Z</time>
      </trkpt>
      <trkpt lat="47.46621" lon="3.74772">
        <ele>297.67</ele>
        <time>2022-04-17T12:27:54Z</time>
      </trkpt>
      <trkpt lat="47.46621" lon="3.74773">
        <ele>297.67</ele>
        <time>2022-04-17T12:28:19Z</time>
      </trkpt>
      <trkpt lat="47.4662" lon="3.74773">
        <ele>297.67</ele>
        <time>2022-04-17T12:28:45Z</time>
      </trkpt>
      <trkpt lat="47.4662" lon="3.74774">
        <ele>299.11</ele>
        <time>2022-04-17T12:29:03Z</time>
      </trkpt>
      <trkpt lat="47.4662" lon="3.74775">
        <ele>299.11</ele>
        <time>2022-04-17T12:29:21Z</time>
      </trkpt>
      <trkpt lat="47.4662" lon="3.74773">
        <ele>299.59</ele>
        <time>2022-04-17T12:29:37Z</time>
      </trkpt>
      <trkpt lat="47.46619" lon="3.74755">
        <ele>299.59</ele>
        <time>2022-04-17T12:30:30Z</time>
      </trkpt>
      <trkpt lat="47.46616" lon="3.74762">
        <ele>299.11</ele>
        <time>2022-04-17T12:30:37Z</time>
      </trkpt>
      <trkpt lat="47.46611" lon="3.74769">
        <ele>298.15</ele>
        <time>2022-04-17T12:30:49Z</time>
      </trkpt>
      <trkpt lat="47.46609" lon="3.74766">
        <ele>298.15</ele>
        <time>2022-04-17T12:31:06Z</time>
      </trkpt>
      <trkpt lat="47.46608" lon="3.74758">
        <ele>298.63</ele>
        <time>2022-04-17T12:31:23Z</time>
      </trkpt>
      <trkpt lat="47.46614" lon="3.74763">
        <ele>297.67</ele>
        <time>2022-04-17T12:31:46Z</time>
      </trkpt>
      <trkpt lat="47.46616" lon="3.74769">
        <ele>298.15</ele>
        <time>2022-04-17T12:32:04Z</time>
      </trkpt>
      <trkpt lat="47.46621" lon="3.74779">
        <ele>299.11</ele>
        <time>2022-04-17T12:32:31Z</time>
      </trkpt>
      <trkpt lat="47.46624" lon="3.74781">
        <ele>298.15</ele>
        <time>2022-04-17T12:32:55Z</time>
      </trkpt>
      <trkpt lat="47.46622" lon="3.74781">
        <ele>298.63</ele>
        <time>2022-04-17T12:33:21Z</time>
      </trkpt>
      <trkpt lat="47.46616" lon="3.7477">
        <ele>298.15</ele>
        <time>2022-04-17T12:33:35Z</time>
      </trkpt>
      <trkpt lat="47.46614" lon="3.74765">
        <ele>298.63</ele>
        <time>2022-04-17T12:33:47Z</time>
      </trkpt>
      <trkpt lat="47.46614" lon="3.74761">
        <ele>298.15</ele>
        <time>2022-04-17T12:34:02Z</time>
      </trkpt>
      <trkpt lat="47.46614" lon="3.74759">
        <ele>298.15</ele>
        <time>2022-04-17T12:34:15Z</time>
      </trkpt>
      <trkpt lat="47.46614" lon="3.7476">
        <ele>298.15</ele>
        <time>2022-04-17T12:34:30Z</time>
      </trkpt>
      <trkpt lat="47.46615" lon="3.7476">
        <ele>299.11</ele>
        <time>2022-04-17T12:34:47Z</time>
      </trkpt>
      <trkpt lat="47.46614" lon="3.74762">
        <ele>299.11</ele>
        <time>2022-04-17T12:35:03Z</time>
      </trkpt>
      <trkpt lat="47.46612" lon="3.74758">
        <ele>298.63</ele>
        <time>2022-04-17T12:35:15Z</time>
      </trkpt>
      <trkpt lat="47.46611" lon="3.74754">
        <ele>298.63</ele>
        <time>2022-04-17T12:35:31Z</time>
      </trkpt>
      <trkpt lat="47.46615" lon="3.74747">
        <ele>298.15</ele>
        <time>2022-04-17T12:35:41Z</time>
      </trkpt>
      <trkpt lat="47.46617" lon="3.74744">
        <ele>298.15</ele>
        <time>2022-04-17T12:35:57Z</time>
      </trkpt>
      <trkpt lat="47.46615" lon="3.74735">
        <ele>297.67</ele>
        <time>2022-04-17T12:36:16Z</time>
      </trkpt>
      <trkpt lat="47.46612" lon="3.74723">
        <ele>297.18</ele>
        <time>2022-04-17T12:36:30Z</time>
      </trkpt>
      <trkpt lat="47.46612" lon="3.74721">
        <ele>297.67</ele>
        <time>2022-04-17T12:36:41Z</time>
      </trkpt>
      <trkpt lat="47.46608" lon="3.74712">
        <ele>297.67</ele>
        <time>2022-04-17T12:36:54Z</time>
      </trkpt>
      <trkpt lat="47.46606" lon="3.7471">
        <ele>297.18</ele>
        <time>2022-04-17T12:37:15Z</time>
      </trkpt>
      <trkpt lat="47.46601" lon="3.74706">
        <ele>296.7</ele>
        <time>2022-04-17T12:37:27Z</time>
      </trkpt>
      <trkpt lat="47.466" lon="3.74705">
        <ele>296.7</ele>
        <time>2022-04-17T12:37:29Z</time>
      </trkpt>
      <trkpt lat="47.466" lon="3.74703">
        <ele>296.7</ele>
        <time>2022-04-17T12:37:31Z</time>
      </trkpt>
      <trkpt lat="47.46598" lon="3.74694">
        <ele>296.22</ele>
        <time>2022-04-17T12:37:38Z</time>
      </trkpt>
      <trkpt lat="47.46587" lon="3.74661">
        <ele>294.78</ele>
        <time>2022-04-17T12:37:58Z</time>
      </trkpt>
      <trkpt lat="47.46583" lon="3.74647">
        <ele>294.3</ele>
        <time>2022-04-17T12:38:12Z</time>
      </trkpt>
      <trkpt lat="47.46584" lon="3.74645">
        <ele>294.3</ele>
        <time>2022-04-17T12:38:14Z</time>
      </trkpt>
      <trkpt lat="47.46582" lon="3.74636">
        <ele>293.82</ele>
        <time>2022-04-17T12:38:31Z</time>
      </trkpt>
      <trkpt lat="47.46577" lon="3.7462">
        <ele>292.38</ele>
        <time>2022-04-17T12:38:44Z</time>
      </trkpt>
      <trkpt lat="47.46575" lon="3.74616">
        <ele>291.9</ele>
        <time>2022-04-17T12:38:49Z</time>
      </trkpt>
      <trkpt lat="47.46568" lon="3.7461">
        <ele>290.94</ele>
        <time>2022-04-17T12:39:05Z</time>
      </trkpt>
      <trkpt lat="47.46562" lon="3.74624">
        <ele>291.42</ele>
        <time>2022-04-17T12:39:23Z</time>
      </trkpt>
      <trkpt lat="47.46557" lon="3.74626">
        <ele>291.42</ele>
        <time>2022-04-17T12:39:38Z</time>
      </trkpt>
      <trkpt lat="47.46564" lon="3.74632">
        <ele>291.9</ele>
        <time>2022-04-17T12:39:53Z</time>
      </trkpt>
      <trkpt lat="47.46563" lon="3.74633">
        <ele>291.42</ele>
        <time>2022-04-17T12:40:09Z</time>
      </trkpt>
      <trkpt lat="47.46569" lon="3.74627">
        <ele>290.94</ele>
        <time>2022-04-17T12:40:23Z</time>
      </trkpt>
      <trkpt lat="47.46569" lon="3.74622">
        <ele>290.94</ele>
        <time>2022-04-17T12:40:38Z</time>
      </trkpt>
      <trkpt lat="47.46569" lon="3.74618">
        <ele>290.94</ele>
        <time>2022-04-17T12:40:52Z</time>
      </trkpt>
      <trkpt lat="47.46567" lon="3.74606">
        <ele>289.97</ele>
        <time>2022-04-17T12:41:02Z</time>
      </trkpt>
      <trkpt lat="47.46565" lon="3.746">
        <ele>289.01</ele>
        <time>2022-04-17T12:41:06Z</time>
      </trkpt>
      <trkpt lat="47.46554" lon="3.74581">
        <ele>287.09</ele>
        <time>2022-04-17T12:41:21Z</time>
      </trkpt>
      <trkpt lat="47.4655" lon="3.74566">
        <ele>286.13</ele>
        <time>2022-04-17T12:41:29Z</time>
      </trkpt>
      <trkpt lat="47.46545" lon="3.74557">
        <ele>285.17</ele>
        <time>2022-04-17T12:41:36Z</time>
      </trkpt>
      <trkpt lat="47.46527" lon="3.74534">
        <ele>282.28</ele>
        <time>2022-04-17T12:41:56Z</time>
      </trkpt>
      <trkpt lat="47.46526" lon="3.74533">
        <ele>281.8</ele>
        <time>2022-04-17T12:41:57Z</time>
      </trkpt>
      <trkpt lat="47.46525" lon="3.74529">
        <ele>281.8</ele>
        <time>2022-04-17T12:42:00Z</time>
      </trkpt>
      <trkpt lat="47.46521" lon="3.74519">
        <ele>280.84</ele>
        <time>2022-04-17T12:42:06Z</time>
      </trkpt>
      <trkpt lat="47.46519" lon="3.74516">
        <ele>280.36</ele>
        <time>2022-04-17T12:42:08Z</time>
      </trkpt>
      <trkpt lat="47.46515" lon="3.74506">
        <ele>279.4</ele>
        <time>2022-04-17T12:42:15Z</time>
      </trkpt>
      <trkpt lat="47.46503" lon="3.74493">
        <ele>277.48</ele>
        <time>2022-04-17T12:42:28Z</time>
      </trkpt>
      <trkpt lat="47.46495" lon="3.74477">
        <ele>275.56</ele>
        <time>2022-04-17T12:42:39Z</time>
      </trkpt>
      <trkpt lat="47.46491" lon="3.74471">
        <ele>275.07</ele>
        <time>2022-04-17T12:42:44Z</time>
      </trkpt>
      <trkpt lat="47.46487" lon="3.74463">
        <ele>274.59</ele>
        <time>2022-04-17T12:42:48Z</time>
      </trkpt>
      <trkpt lat="47.46478" lon="3.74449">
        <ele>272.67</ele>
        <time>2022-04-17T12:43:01Z</time>
      </trkpt>
      <trkpt lat="47.46471" lon="3.74438">
        <ele>272.19</ele>
        <time>2022-04-17T12:43:08Z</time>
      </trkpt>
      <trkpt lat="47.46455" lon="3.74424">
        <ele>270.27</ele>
        <time>2022-04-17T12:43:23Z</time>
      </trkpt>
      <trkpt lat="47.46449" lon="3.74422">
        <ele>269.31</ele>
        <time>2022-04-17T12:43:28Z</time>
      </trkpt>
      <trkpt lat="47.46445" lon="3.74419">
        <ele>269.31</ele>
        <time>2022-04-17T12:43:31Z</time>
      </trkpt>
      <trkpt lat="47.46442" lon="3.74414">
        <ele>268.83</ele>
        <time>2022-04-17T12:43:36Z</time>
      </trkpt>
      <trkpt lat="47.46438" lon="3.74408">
        <ele>268.35</ele>
        <time>2022-04-17T12:43:40Z</time>
      </trkpt>
      <trkpt lat="47.46436" lon="3.74403">
        <ele>267.86</ele>
        <time>2022-04-17T12:43:43Z</time>
      </trkpt>
      <trkpt lat="47.46425" lon="3.74386">
        <ele>266.9</ele>
        <time>2022-04-17T12:43:57Z</time>
      </trkpt>
      <trkpt lat="47.46412" lon="3.74367">
        <ele>265.46</ele>
        <time>2022-04-17T12:44:10Z</time>
      </trkpt>
      <trkpt lat="47.46402" lon="3.74353">
        <ele>264.5</ele>
        <time>2022-04-17T12:44:22Z</time>
      </trkpt>
      <trkpt lat="47.46399" lon="3.7435">
        <ele>264.02</ele>
        <time>2022-04-17T12:44:26Z</time>
      </trkpt>
      <trkpt lat="47.46393" lon="3.74341">
        <ele>263.54</ele>
        <time>2022-04-17T12:44:33Z</time>
      </trkpt>
      <trkpt lat="47.46383" lon="3.74318">
        <ele>262.58</ele>
        <time>2022-04-17T12:44:46Z</time>
      </trkpt>
      <trkpt lat="47.46369" lon="3.74303">
        <ele>261.14</ele>
        <time>2022-04-17T12:45:00Z</time>
      </trkpt>
      <trkpt lat="47.46362" lon="3.74286">
        <ele>260.17</ele>
        <time>2022-04-17T12:45:13Z</time>
      </trkpt>
      <trkpt lat="47.46357" lon="3.74275">
        <ele>259.69</ele>
        <time>2022-04-17T12:45:20Z</time>
      </trkpt>
      <trkpt lat="47.46354" lon="3.74248">
        <ele>258.25</ele>
        <time>2022-04-17T12:45:34Z</time>
      </trkpt>
      <trkpt lat="47.46353" lon="3.7424">
        <ele>257.77</ele>
        <time>2022-04-17T12:45:38Z</time>
      </trkpt>
      <trkpt lat="47.46354" lon="3.74224">
        <ele>256.33</ele>
        <time>2022-04-17T12:45:50Z</time>
      </trkpt>
      <trkpt lat="47.46358" lon="3.74221">
        <ele>255.85</ele>
        <time>2022-04-17T12:45:53Z</time>
      </trkpt>
      <trkpt lat="47.46364" lon="3.74213">
        <ele>254.41</ele>
        <time>2022-04-17T12:46:02Z</time>
      </trkpt>
      <trkpt lat="47.46377" lon="3.74197">
        <ele>253.44</ele>
        <time>2022-04-17T12:46:16Z</time>
      </trkpt>
      <trkpt lat="47.46381" lon="3.74193">
        <ele>252.96</ele>
        <time>2022-04-17T12:46:21Z</time>
      </trkpt>
      <trkpt lat="47.46398" lon="3.74169">
        <ele>249.6</ele>
        <time>2022-04-17T12:46:36Z</time>
      </trkpt>
      <trkpt lat="47.46399" lon="3.74166">
        <ele>249.6</ele>
        <time>2022-04-17T12:46:38Z</time>
      </trkpt>
      <trkpt lat="47.46409" lon="3.74148">
        <ele>247.2</ele>
        <time>2022-04-17T12:46:53Z</time>
      </trkpt>
      <trkpt lat="47.46416" lon="3.74134">
        <ele>243.83</ele>
        <time>2022-04-17T12:47:06Z</time>
      </trkpt>
      <trkpt lat="47.46418" lon="3.74127">
        <ele>243.35</ele>
        <time>2022-04-17T12:47:12Z</time>
      </trkpt>
      <trkpt lat="47.4642" lon="3.74123">
        <ele>242.87</ele>
        <time>2022-04-17T12:47:15Z</time>
      </trkpt>
      <trkpt lat="47.46436" lon="3.74112">
        <ele>239.51</ele>
        <time>2022-04-17T12:47:30Z</time>
      </trkpt>
      <trkpt lat="47.46442" lon="3.74107">
        <ele>237.1</ele>
        <time>2022-04-17T12:47:37Z</time>
      </trkpt>
      <trkpt lat="47.4645" lon="3.74098">
        <ele>235.18</ele>
        <time>2022-04-17T12:47:50Z</time>
      </trkpt>
      <trkpt lat="47.4645" lon="3.74097">
        <ele>234.7</ele>
        <time>2022-04-17T12:47:52Z</time>
      </trkpt>
      <trkpt lat="47.46447" lon="3.74094">
        <ele>235.66</ele>
        <time>2022-04-17T12:47:55Z</time>
      </trkpt>
      <trkpt lat="47.46442" lon="3.74092">
        <ele>235.66</ele>
        <time>2022-04-17T12:48:00Z</time>
      </trkpt>
      <trkpt lat="47.46438" lon="3.74089">
        <ele>236.62</ele>
        <time>2022-04-17T12:48:06Z</time>
      </trkpt>
      <trkpt lat="47.46434" lon="3.74084">
        <ele>236.62</ele>
        <time>2022-04-17T12:48:15Z</time>
      </trkpt>
      <trkpt lat="47.4643" lon="3.7407">
        <ele>236.62</ele>
        <time>2022-04-17T12:48:29Z</time>
      </trkpt>
      <trkpt lat="47.4643" lon="3.74069">
        <ele>237.1</ele>
        <time>2022-04-17T12:48:30Z</time>
      </trkpt>
      <trkpt lat="47.46425" lon="3.74059">
        <ele>237.1</ele>
        <time>2022-04-17T12:48:43Z</time>
      </trkpt>
      <trkpt lat="47.46424" lon="3.74055">
        <ele>237.1</ele>
        <time>2022-04-17T12:49:01Z</time>
      </trkpt>
      <trkpt lat="47.46424" lon="3.74054">
        <ele>236.14</ele>
        <time>2022-04-17T12:49:28Z</time>
      </trkpt>
      <trkpt lat="47.46424" lon="3.74053">
        <ele>236.62</ele>
        <time>2022-04-17T12:49:55Z</time>
      </trkpt>
      <trkpt lat="47.46425" lon="3.74052">
        <ele>236.14</ele>
        <time>2022-04-17T12:50:18Z</time>
      </trkpt>
      <trkpt lat="47.46425" lon="3.74052">
        <ele>236.14</ele>
        <time>2022-04-17T12:50:43Z</time>
      </trkpt>
      <trkpt lat="47.46427" lon="3.74055">
        <ele>236.14</ele>
        <time>2022-04-17T12:50:58Z</time>
      </trkpt>
      <trkpt lat="47.46429" lon="3.74058">
        <ele>236.14</ele>
        <time>2022-04-17T12:51:19Z</time>
      </trkpt>
      <trkpt lat="47.46432" lon="3.74068">
        <ele>236.14</ele>
        <time>2022-04-17T12:51:30Z</time>
      </trkpt>
      <trkpt lat="47.46434" lon="3.74076">
        <ele>236.14</ele>
        <time>2022-04-17T12:51:42Z</time>
      </trkpt>
      <trkpt lat="47.46435" lon="3.74078">
        <ele>235.66</ele>
        <time>2022-04-17T12:51:57Z</time>
      </trkpt>
      <trkpt lat="47.46437" lon="3.74078">
        <ele>235.66</ele>
        <time>2022-04-17T12:52:16Z</time>
      </trkpt>
      <trkpt lat="47.46438" lon="3.74077">
        <ele>235.18</ele>
        <time>2022-04-17T12:52:40Z</time>
      </trkpt>
      <trkpt lat="47.46439" lon="3.74077">
        <ele>235.18</ele>
        <time>2022-04-17T12:53:02Z</time>
      </trkpt>
      <trkpt lat="47.4644" lon="3.74077">
        <ele>235.66</ele>
        <time>2022-04-17T12:53:17Z</time>
      </trkpt>
      <trkpt lat="47.4644" lon="3.74078">
        <ele>235.18</ele>
        <time>2022-04-17T12:53:34Z</time>
      </trkpt>
      <trkpt lat="47.4644" lon="3.74078">
        <ele>235.66</ele>
        <time>2022-04-17T12:53:56Z</time>
      </trkpt>
      <trkpt lat="47.4644" lon="3.74078">
        <ele>235.18</ele>
        <time>2022-04-17T12:54:18Z</time>
      </trkpt>
      <trkpt lat="47.4644" lon="3.74078">
        <ele>235.66</ele>
        <time>2022-04-17T12:54:35Z</time>
      </trkpt>
      <trkpt lat="47.4644" lon="3.74079">
        <ele>235.66</ele>
        <time>2022-04-17T12:54:55Z</time>
      </trkpt>
      <trkpt lat="47.4644" lon="3.7408">
        <ele>235.18</ele>
        <time>2022-04-17T12:55:18Z</time>
      </trkpt>
      <trkpt lat="47.4644" lon="3.74079">
        <ele>235.18</ele>
        <time>2022-04-17T12:55:39Z</time>
      </trkpt>
      <trkpt lat="47.46441" lon="3.74078">
        <ele>235.66</ele>
        <time>2022-04-17T12:56:02Z</time>
      </trkpt>
      <trkpt lat="47.46441" lon="3.74078">
        <ele>236.14</ele>
        <time>2022-04-17T12:56:25Z</time>
      </trkpt>
      <trkpt lat="47.4644" lon="3.74078">
        <ele>235.66</ele>
        <time>2022-04-17T12:56:45Z</time>
      </trkpt>
      <trkpt lat="47.46439" lon="3.74076">
        <ele>235.66</ele>
        <time>2022-04-17T12:56:58Z</time>
      </trkpt>
      <trkpt lat="47.46436" lon="3.74074">
        <ele>236.62</ele>
        <time>2022-04-17T12:57:15Z</time>
      </trkpt>
      <trkpt lat="47.46435" lon="3.74072">
        <ele>235.66</ele>
        <time>2022-04-17T12:57:25Z</time>
      </trkpt>
      <trkpt lat="47.46435" lon="3.7408">
        <ele>235.18</ele>
        <time>2022-04-17T12:57:37Z</time>
      </trkpt>
      <trkpt lat="47.46437" lon="3.74081">
        <ele>235.66</ele>
        <time>2022-04-17T12:57:57Z</time>
      </trkpt>
      <trkpt lat="47.46437" lon="3.74082">
        <ele>235.18</ele>
        <time>2022-04-17T12:58:13Z</time>
      </trkpt>
      <trkpt lat="47.46438" lon="3.74082">
        <ele>234.7</ele>
        <time>2022-04-17T12:58:30Z</time>
      </trkpt>
      <trkpt lat="47.46438" lon="3.74082">
        <ele>236.14</ele>
        <time>2022-04-17T12:58:46Z</time>
      </trkpt>
      <trkpt lat="47.46436" lon="3.74078">
        <ele>236.14</ele>
        <time>2022-04-17T12:58:57Z</time>
      </trkpt>
      <trkpt lat="47.46436" lon="3.74075">
        <ele>236.14</ele>
        <time>2022-04-17T12:59:17Z</time>
      </trkpt>
      <trkpt lat="47.46437" lon="3.74073">
        <ele>235.66</ele>
        <time>2022-04-17T12:59:44Z</time>
      </trkpt>
      <trkpt lat="47.46439" lon="3.74072">
        <ele>235.66</ele>
        <time>2022-04-17T13:00:12Z</time>
      </trkpt>
      <trkpt lat="47.46439" lon="3.74072">
        <ele>236.14</ele>
        <time>2022-04-17T13:00:33Z</time>
      </trkpt>
      <trkpt lat="47.46439" lon="3.74072">
        <ele>236.14</ele>
        <time>2022-04-17T13:00:59Z</time>
      </trkpt>
      <trkpt lat="47.46439" lon="3.74072">
        <ele>236.14</ele>
        <time>2022-04-17T13:01:25Z</time>
      </trkpt>
      <trkpt lat="47.46439" lon="3.74072">
        <ele>236.62</ele>
        <time>2022-04-17T13:01:49Z</time>
      </trkpt>
      <trkpt lat="47.46439" lon="3.74072">
        <ele>235.66</ele>
        <time>2022-04-17T13:02:15Z</time>
      </trkpt>
      <trkpt lat="47.46438" lon="3.74071">
        <ele>236.62</ele>
        <time>2022-04-17T13:02:43Z</time>
      </trkpt>
      <trkpt lat="47.46438" lon="3.74071">
        <ele>243.35</ele>
        <time>2022-04-17T13:02:52Z</time>
      </trkpt>
      <trkpt lat="47.46438" lon="3.74071">
        <ele>237.1</ele>
        <time>2022-04-17T13:02:53Z</time>
      </trkpt>
      <trkpt lat="47.46438" lon="3.74071">
        <ele>232.78</ele>
        <time>2022-04-17T13:02:54Z</time>
      </trkpt>
      <trkpt lat="47.46438" lon="3.74071">
        <ele>237.58</ele>
        <time>2022-04-17T13:02:55Z</time>
      </trkpt>
      <trkpt lat="47.46438" lon="3.74071">
        <ele>230.85</ele>
        <time>2022-04-17T13:02:58Z</time>
      </trkpt>
      <trkpt lat="47.46438" lon="3.74071">
        <ele>239.51</ele>
        <time>2022-04-17T13:02:59Z</time>
      </trkpt>
      <trkpt lat="47.46438" lon="3.74071">
        <ele>236.62</ele>
        <time>2022-04-17T13:03:01Z</time>
      </trkpt>
      <trkpt lat="47.46438" lon="3.74071">
        <ele>236.14</ele>
        <time>2022-04-17T13:03:31Z</time>
      </trkpt>
      <trkpt lat="47.46439" lon="3.74072">
        <ele>234.22</ele>
        <time>2022-04-17T13:04:05Z</time>
      </trkpt>
      <trkpt lat="47.46439" lon="3.74072">
        <ele>239.99</ele>
        <time>2022-04-17T13:04:11Z</time>
      </trkpt>
      <trkpt lat="47.46439" lon="3.74072">
        <ele>236.62</ele>
        <time>2022-04-17T13:04:12Z</time>
      </trkpt>
      <trkpt lat="47.46438" lon="3.74072">
        <ele>237.1</ele>
        <time>2022-04-17T13:04:42Z</time>
      </trkpt>
      <trkpt lat="47.46439" lon="3.74071">
        <ele>237.1</ele>
        <time>2022-04-17T13:05:13Z</time>
      </trkpt>
      <trkpt lat="47.46438" lon="3.74072">
        <ele>237.1</ele>
        <time>2022-04-17T13:05:50Z</time>
      </trkpt>
      <trkpt lat="47.46438" lon="3.74072">
        <ele>236.62</ele>
        <time>2022-04-17T13:05:54Z</time>
      </trkpt>
    </trkseg>
  </trk>
</gpx>